Time,TemperatureF,DewpointF,PressureIn,WindDirection,WindDirectionDegrees,WindSpeedMPH,WindSpeedGustMPH,Humidity,HourlyPrecipIn,Conditions,Clouds,dailyrainin,SoftwareType,DateUTC
2013-03-10 00:00:00,48.2,42.7,30.12,WNW,294,0.0,1.0,81,0.00,,BKN024,0.00,VWS V14.01,2013-03-09 10:00:00,
2013-03-10 00:01:00,46.8,41.9,30.10,West,278,0.0,0.0,83,0.00,,BKN050,0.00,VWS V14.01,2013-03-09 10:01:00,
2013-03-10 00:02:00,46.7,41.8,30.10,West,278,0.0,0.0,83,0.00,,BKN050,0.00,VWS V14.01,2013-03-09 10:02:00,
2013-03-10 00:03:00,46.7,41.8,30.10,West,278,0.0,1.0,83,0.00,,BKN050,0.00,VWS V14.01,2013-03-09 10:03:00,
2013-03-10 00:04:00,46.6,41.7,30.10,West,278,1.0,2.0,83,0.00,,BKN050,0.00,VWS V14.01,2013-03-09 10:04:00,
2013-03-10 00:05:00,48.3,42.8,30.12,NNW,331,2.0,3.0,81,0.00,,BKN024,0.00,VWS V14.01,2013-03-09 10:05:00,
2013-03-10 00:06:00,46.4,41.5,30.10,West,278,0.0,1.0,83,0.00,,BKN050,0.00,VWS V14.01,2013-03-09 10:06:00,
2013-03-10 00:07:00,46.3,41.4,30.10,West,278,0.0,1.0,83,0.00,,BKN050,0.00,VWS V14.01,2013-03-09 10:07:00,
2013-03-10 00:08:00,46.3,41.7,30.10,West,278,0.0,0.0,84,0.00,,BKN050,0.00,VWS V14.01,2013-03-09 10:08:00,
2013-03-10 00:09:00,46.2,41.6,30.10,West,278,0.0,0.0,84,0.00,,BKN050,0.00,VWS V14.01,2013-03-09 10:09:00,
2013-03-10 00:10:00,48.3,42.8,30.11,WNW,282,3.0,3.0,81,0.00,,BKN024,0.00,VWS V14.01,2013-03-09 10:10:00,
2013-03-10 00:11:00,46.1,41.5,30.10,West,278,0.0,0.0,84,0.00,,BKN050,0.00,VWS V14.01,2013-03-09 10:11:00,
2013-03-10 00:12:00,46.1,41.5,30.10,West,278,0.0,0.0,84,0.00,,BKN050,0.00,VWS V14.01,2013-03-09 10:12:00,
2013-03-10 00:13:00,46.2,41.6,30.10,West,278,0.0,0.0,84,0.00,,BKN050,0.00,VWS V14.01,2013-03-09 10:13:00,
2013-03-10 00:14:00,46.2,41.6,30.10,West,278,0.0,0.0,84,0.00,,BKN050,0.00,VWS V14.01,2013-03-09 10:14:00,
2013-03-10 00:15:00,48.3,42.8,30.11,WNW,290,0.0,0.0,81,0.00,,BKN024,0.00,VWS V14.01,2013-03-09 10:15:00,
2013-03-10 00:16:00,46.0,41.4,30.10,West,278,0.0,0.0,84,0.00,,BKN050,0.00,VWS V14.01,2013-03-09 10:16:00,
2013-03-10 00:17:00,45.9,41.3,30.10,West,278,0.0,0.0,84,0.00,,BKN050,0.00,VWS V14.01,2013-03-09 10:17:00,
2013-03-10 00:18:00,45.8,41.2,30.10,West,278,0.0,0.0,84,0.00,,BKN050,0.00,VWS V14.01,2013-03-09 10:18:00,
2013-03-10 00:19:00,45.7,41.2,30.10,West,278,0.0,0.0,84,0.00,,BKN050,0.00,VWS V14.01,2013-03-09 10:19:00,
2013-03-10 00:20:00,48.3,42.4,30.11,WNW,294,6.0,7.0,80,0.00,,BKN024,0.00,VWS V14.01,2013-03-09 10:20:00,
2013-03-10 00:21:00,45.6,41.4,30.10,West,278,0.0,0.0,85,0.00,,BKN050,0.00,VWS V14.01,2013-03-09 10:21:00,
2013-03-10 00:22:00,45.5,41.3,30.10,West,278,0.0,0.0,85,0.00,,BKN050,0.00,VWS V14.01,2013-03-09 10:22:00,
2013-03-10 00:23:00,45.5,41.3,30.10,West,278,0.0,0.0,85,0.00,,BKN050,0.00,VWS V14.01,2013-03-09 10:23:00,
2013-03-10 00:24:00,45.5,41.3,30.10,West,278,0.0,0.0,85,0.00,,BKN050,0.00,VWS V14.01,2013-03-09 10:24:00,
2013-03-10 00:25:00,48.2,42.3,30.11,West,273,1.0,2.0,80,0.00,,BKN024,0.00,VWS V14.01,2013-03-09 10:25:00,
2013-03-10 00:26:00,45.5,41.3,30.10,West,278,0.0,0.0,85,0.00,,BKN050,0.00,VWS V14.01,2013-03-09 10:26:00,
2013-03-10 00:27:00,45.4,41.2,30.10,West,278,0.0,0.0,85,0.00,,BKN050,0.00,VWS V14.01,2013-03-09 10:27:00,
2013-03-10 00:28:00,45.4,41.2,30.10,West,278,0.0,0.0,85,0.00,,BKN050,0.00,VWS V14.01,2013-03-09 10:28:00,
2013-03-10 00:29:00,45.3,41.1,30.10,West,278,0.0,0.0,85,0.00,,BKN050,0.00,VWS V14.01,2013-03-09 10:29:00,
2013-03-10 00:30:00,48.1,42.5,30.11,West,273,0.0,1.0,81,0.00,,BKN024,0.00,VWS V14.01,2013-03-09 10:30:00,
2013-03-10 00:32:00,44.9,41.0,30.11,West,278,0.0,0.0,86,0.00,,BKN050,0.00,VWS V14.01,2013-03-09 10:32:00,
2013-03-10 00:33:00,44.8,40.6,30.11,West,278,0.0,0.0,85,0.00,,BKN050,0.00,VWS V14.01,2013-03-09 10:33:00,
2013-03-10 00:34:00,44.7,40.8,30.11,West,278,0.0,0.0,86,0.00,,BKN050,0.00,VWS V14.01,2013-03-09 10:34:00,
2013-03-10 00:35:00,48.0,42.5,30.10,West,278,2.0,2.0,81,0.00,,BKN024,0.00,VWS V14.01,2013-03-09 10:35:00,
2013-03-10 00:36:00,44.5,40.6,30.11,West,278,0.0,0.0,86,0.00,,BKN050,0.00,VWS V14.01,2013-03-09 10:36:00,
2013-03-10 00:37:00,44.5,40.9,30.11,West,278,0.0,0.0,87,0.00,,BKN050,0.00,VWS V14.01,2013-03-09 10:37:00,
2013-03-10 00:38:00,44.5,40.9,30.11,West,278,0.0,0.0,87,0.00,,BKN050,0.00,VWS V14.01,2013-03-09 10:38:00,
2013-03-10 00:39:00,44.5,40.9,30.11,West,278,0.0,0.0,87,0.00,,BKN050,0.00,VWS V14.01,2013-03-09 10:39:00,
2013-03-10 00:40:00,47.9,42.4,30.10,West,278,0.0,0.0,81,0.00,,BKN024,0.00,VWS V14.01,2013-03-09 10:40:00,
2013-03-10 00:41:00,44.7,41.1,30.11,West,278,0.0,2.0,87,0.00,,BKN050,0.00,VWS V14.01,2013-03-09 10:41:00,
2013-03-10 00:42:00,44.7,41.1,30.12,West,278,0.0,0.0,87,0.00,,BKN050,0.00,VWS V14.01,2013-03-09 10:42:00,
2013-03-10 00:43:00,44.7,41.1,30.11,West,278,0.0,0.0,87,0.00,,BKN050,0.00,VWS V14.01,2013-03-09 10:43:00,
2013-03-10 00:44:00,44.5,40.6,30.12,West,278,0.0,0.0,86,0.00,,BKN050,0.00,VWS V14.01,2013-03-09 10:44:00,
2013-03-10 00:45:00,47.5,42.0,30.10,West,278,0.0,1.0,81,0.00,,BKN024,0.00,VWS V14.01,2013-03-09 10:45:00,
2013-03-10 00:46:00,44.4,40.8,30.12,West,278,0.0,0.0,87,0.00,,BKN050,0.00,VWS V14.01,2013-03-09 10:46:00,
2013-03-10 00:47:00,44.3,40.7,30.12,West,278,0.0,0.0,87,0.00,,BKN050,0.00,VWS V14.01,2013-03-09 10:47:00,
2013-03-10 00:48:00,44.2,40.6,30.12,West,278,0.0,0.0,87,0.00,,BKN050,0.00,VWS V14.01,2013-03-09 10:48:00,
2013-03-10 00:49:00,44.2,40.6,30.12,West,278,0.0,0.0,87,0.00,,BKN050,0.00,VWS V14.01,2013-03-09 10:49:00,
2013-03-10 00:50:00,47.3,42.1,30.10,West,278,0.0,0.0,82,0.00,,BKN024,0.00,VWS V14.01,2013-03-09 10:50:00,
2013-03-10 00:51:00,44.1,40.5,30.12,West,278,0.0,0.0,87,0.00,,BKN050,0.00,VWS V14.01,2013-03-09 10:51:00,
2013-03-10 00:52:00,44.1,40.5,30.12,West,278,0.0,0.0,87,0.00,,BKN050,0.00,VWS V14.01,2013-03-09 10:52:00,
2013-03-10 00:53:00,44.0,40.4,30.12,West,278,0.0,0.0,87,0.00,,BKN050,0.00,VWS V14.01,2013-03-09 10:53:00,
2013-03-10 00:55:00,47.0,41.8,30.10,West,278,0.0,1.0,82,0.00,,BKN024,0.00,VWS V14.01,2013-03-09 10:55:00,
2013-03-10 00:56:00,43.9,40.6,30.12,West,278,0.0,0.0,88,0.00,,BKN050,0.00,VWS V14.01,2013-03-09 10:56:00,
2013-03-10 00:57:00,43.8,40.5,30.12,West,278,0.0,0.0,88,0.00,,BKN050,0.00,VWS V14.01,2013-03-09 10:57:00,
2013-03-10 00:59:00,43.9,40.6,30.12,West,278,0.0,0.0,88,0.00,,BKN050,0.00,VWS V14.01,2013-03-09 10:59:00,
2013-03-10 01:00:00,46.7,41.8,30.10,West,278,0.0,0.0,83,0.00,,BKN024,0.00,VWS V14.01,2013-03-09 11:00:00,
2013-03-10 01:02:00,43.9,40.6,30.12,West,278,0.0,0.0,88,0.00,,BKN050,0.00,VWS V14.01,2013-03-09 11:02:00,
2013-03-10 01:03:00,43.9,40.6,30.12,West,278,0.0,0.0,88,0.00,,BKN050,0.00,VWS V14.01,2013-03-09 11:03:00,
2013-03-10 01:04:00,43.8,40.5,30.12,West,278,0.0,0.0,88,0.00,,BKN050,0.00,VWS V14.01,2013-03-09 11:04:00,
2013-03-10 01:05:00,46.4,41.5,30.10,West,278,0.0,1.0,83,0.00,,BKN024,0.00,VWS V14.01,2013-03-09 11:05:00,
2013-03-10 01:06:00,43.6,40.3,30.12,West,278,0.0,0.0,88,0.00,,BKN050,0.00,VWS V14.01,2013-03-09 11:06:00,
2013-03-10 01:07:00,43.6,40.3,30.12,West,278,0.0,0.0,88,0.00,,BKN050,0.00,VWS V14.01,2013-03-09 11:07:00,
2013-03-10 01:08:00,43.5,40.2,30.13,West,278,0.0,0.0,88,0.00,,BKN050,0.00,VWS V14.01,2013-03-09 11:08:00,
2013-03-10 01:09:00,43.4,40.1,30.13,West,278,0.0,0.0,88,0.00,,BKN050,0.00,VWS V14.01,2013-03-09 11:09:00,
2013-03-10 01:10:00,46.1,41.5,30.10,West,278,0.0,0.0,84,0.00,,BKN024,0.00,VWS V14.01,2013-03-09 11:10:00,
2013-03-10 01:11:00,43.3,40.0,30.13,West,278,0.0,0.0,88,0.00,,BKN050,0.00,VWS V14.01,2013-03-09 11:11:00,
2013-03-10 01:12:00,43.3,40.0,30.13,West,278,0.0,0.0,88,0.00,,BKN050,0.00,VWS V14.01,2013-03-09 11:12:00,
2013-03-10 01:13:00,43.2,40.2,30.13,West,278,0.0,0.0,89,0.00,,BKN050,0.00,VWS V14.01,2013-03-09 11:13:00,
2013-03-10 01:14:00,43.1,40.1,30.13,West,278,0.0,0.0,89,0.00,,BKN050,0.00,VWS V14.01,2013-03-09 11:14:00,
2013-03-10 01:15:00,46.0,41.4,30.10,West,278,0.0,0.0,84,0.00,,BKN024,0.00,VWS V14.01,2013-03-09 11:15:00,
2013-03-10 01:16:00,43.1,40.1,30.13,West,278,0.0,0.0,89,0.00,,BKN050,0.00,VWS V14.01,2013-03-09 11:16:00,
2013-03-10 01:17:00,43.1,40.1,30.13,West,278,0.0,0.0,89,0.00,,BKN050,0.00,VWS V14.01,2013-03-09 11:17:00,
2013-03-10 01:18:00,43.1,40.1,30.13,West,278,0.0,0.0,89,0.00,,BKN050,0.00,VWS V14.01,2013-03-09 11:18:00,
2013-03-10 01:19:00,43.1,40.1,30.13,West,278,0.0,0.0,89,0.00,,BKN050,0.00,VWS V14.01,2013-03-09 11:19:00,
2013-03-10 01:20:00,45.5,41.3,30.10,West,278,0.0,0.0,85,0.00,,BKN024,0.00,VWS V14.01,2013-03-09 11:20:00,
2013-03-10 01:21:00,43.0,40.0,30.13,West,278,0.0,0.0,89,0.00,,BKN050,0.00,VWS V14.01,2013-03-09 11:21:00,
2013-03-10 01:22:00,43.1,40.4,30.13,West,278,0.0,0.0,90,0.00,,BKN050,0.00,VWS V14.01,2013-03-09 11:22:00,
2013-03-10 01:23:00,43.2,40.5,30.13,West,278,0.0,0.0,90,0.00,,BKN050,0.00,VWS V14.01,2013-03-09 11:23:00,
2013-03-10 01:24:00,43.3,40.6,30.13,West,278,0.0,0.0,90,0.00,,BKN050,0.00,VWS V14.01,2013-03-09 11:24:00,
2013-03-10 01:25:00,45.5,41.3,30.10,West,278,0.0,0.0,85,0.00,,BKN024,0.00,VWS V14.01,2013-03-09 11:25:00,
2013-03-10 01:26:00,43.4,40.7,30.14,West,278,0.0,0.0,90,0.00,,BKN050,0.00,VWS V14.01,2013-03-09 11:26:00,
2013-03-10 01:27:00,43.4,40.7,30.14,West,278,0.0,0.0,90,0.00,,BKN050,0.00,VWS V14.01,2013-03-09 11:27:00,
2013-03-10 01:28:00,43.4,40.7,30.14,West,278,0.0,0.0,90,0.00,,BKN050,0.00,VWS V14.01,2013-03-09 11:28:00,
2013-03-10 01:29:00,43.4,40.7,30.14,West,278,0.0,0.0,90,0.00,,BKN050,0.00,VWS V14.01,2013-03-09 11:29:00,
2013-03-10 01:30:00,45.1,40.9,30.11,West,278,0.0,0.0,85,0.00,,BKN024,0.00,VWS V14.01,2013-03-09 11:30:00,
2013-03-10 01:31:00,43.2,40.2,30.14,West,278,0.0,0.0,89,0.00,,BKN050,0.00,VWS V14.01,2013-03-09 11:31:00,
2013-03-10 01:32:00,43.1,40.1,30.14,West,278,0.0,0.0,89,0.00,,BKN050,0.00,VWS V14.01,2013-03-09 11:32:00,
2013-03-10 01:33:00,43.0,40.0,30.14,West,278,0.0,0.0,89,0.00,,BKN050,0.00,VWS V14.01,2013-03-09 11:33:00,
2013-03-10 01:34:00,42.9,39.9,30.14,West,278,0.0,0.0,89,0.00,,BKN050,0.00,VWS V14.01,2013-03-09 11:34:00,
2013-03-10 01:35:00,44.5,40.6,30.11,West,278,0.0,0.0,86,0.00,,BKN024,0.00,VWS V14.01,2013-03-09 11:35:00,
2013-03-10 01:36:00,42.9,40.2,30.14,West,278,0.0,0.0,90,0.00,,BKN050,0.00,VWS V14.01,2013-03-09 11:36:00,
2013-03-10 01:37:00,42.9,40.2,30.14,West,278,0.0,0.0,90,0.00,,BKN050,0.00,VWS V14.01,2013-03-09 11:37:00,
2013-03-10 01:38:00,42.8,40.1,30.14,West,278,0.0,0.0,90,0.00,,BKN050,0.00,VWS V14.01,2013-03-09 11:38:00,
2013-03-10 01:39:00,42.7,40.0,30.15,West,278,0.0,0.0,90,0.00,,BKN050,0.00,VWS V14.01,2013-03-09 11:39:00,
2013-03-10 01:40:00,44.7,41.1,30.12,West,278,0.0,0.0,87,0.00,,BKN024,0.00,VWS V14.01,2013-03-09 11:40:00,
2013-03-10 01:41:00,42.6,39.9,30.15,West,278,0.0,0.0,90,0.00,,BKN050,0.00,VWS V14.01,2013-03-09 11:41:00,
2013-03-10 01:42:00,42.5,39.8,30.15,West,278,0.0,0.0,90,0.00,,BKN050,0.00,VWS V14.01,2013-03-09 11:42:00,
2013-03-10 01:43:00,42.5,39.8,30.15,West,278,0.0,0.0,90,0.00,,BKN050,0.00,VWS V14.01,2013-03-09 11:43:00,
2013-03-10 01:45:00,44.4,40.8,30.12,West,278,0.0,0.0,87,0.00,,BKN024,0.00,VWS V14.01,2013-03-09 11:45:00,
2013-03-10 01:47:00,42.3,39.6,30.15,West,278,0.0,0.0,90,0.00,,BKN050,0.00,VWS V14.01,2013-03-09 11:47:00,
2013-03-10 01:49:00,42.2,39.8,30.15,West,278,0.0,0.0,91,0.00,,BKN050,0.00,VWS V14.01,2013-03-09 11:49:00,
2013-03-10 01:50:00,44.1,40.5,30.12,West,278,0.0,0.0,87,0.00,,BKN024,0.00,VWS V14.01,2013-03-09 11:50:00,
2013-03-10 01:51:00,42.0,39.6,30.16,West,278,0.0,0.0,91,0.00,,BKN050,0.00,VWS V14.01,2013-03-09 11:51:00,
2013-03-10 01:52:00,42.0,39.6,30.16,West,278,0.0,0.0,91,0.00,,BKN050,0.00,VWS V14.01,2013-03-09 11:52:00,
2013-03-10 01:53:00,41.9,39.5,30.16,West,278,0.0,0.0,91,0.00,,BKN050,0.00,VWS V14.01,2013-03-09 11:53:00,
2013-03-10 01:54:00,41.8,39.4,30.16,West,278,0.0,0.0,91,0.00,,BKN050,0.00,VWS V14.01,2013-03-09 11:54:00,
2013-03-10 01:55:00,43.9,40.6,30.12,West,278,0.0,0.0,88,0.00,,BKN024,0.00,VWS V14.01,2013-03-09 11:55:00,
2013-03-10 01:56:00,41.8,39.4,30.16,West,278,0.0,0.0,91,0.00,,BKN050,0.00,VWS V14.01,2013-03-09 11:56:00,
2013-03-10 01:57:00,41.7,39.3,30.16,West,278,0.0,0.0,91,0.00,,BKN050,0.00,VWS V14.01,2013-03-09 11:57:00,
2013-03-10 01:58:00,41.7,39.3,30.16,West,278,0.0,0.0,91,0.00,,BKN050,0.00,VWS V14.01,2013-03-09 11:58:00,
2013-03-10 01:59:00,43.9,40.6,30.12,West,278,0.0,0.0,88,0.00,,BKN024,0.00,VWS V14.01,2013-03-09 11:59:00,
2013-03-10 02:00:00,41.7,39.5,30.16,West,278,0.0,0.0,92,0.00,,BKN050,0.00,VWS V14.01,2013-03-09 12:00:00,
2013-03-10 02:01:00,41.7,39.5,30.16,West,278,0.0,0.0,92,0.00,,BKN050,0.00,VWS V14.01,2013-03-09 12:01:00,
2013-03-10 02:02:00,41.6,39.2,30.16,West,278,0.0,0.0,91,0.00,,BKN050,0.00,VWS V14.01,2013-03-09 12:02:00,
2013-03-10 02:03:00,41.5,39.1,30.17,West,278,0.0,0.0,91,0.00,,BKN050,0.00,VWS V14.01,2013-03-09 12:03:00,
2013-03-10 02:04:00,43.6,40.3,30.12,West,278,0.0,0.0,88,0.00,,BKN024,0.00,VWS V14.01,2013-03-09 12:04:00,
2013-03-10 02:05:00,41.5,39.3,30.17,West,278,0.0,0.0,92,0.00,,BKN050,0.00,VWS V14.01,2013-03-09 12:05:00,
2013-03-10 02:06:00,41.5,39.3,30.17,West,278,0.0,0.0,92,0.00,,BKN050,0.00,VWS V14.01,2013-03-09 12:06:00,
2013-03-10 02:07:00,41.6,39.5,30.17,West,278,0.0,0.0,92,0.00,,BKN050,0.00,VWS V14.01,2013-03-09 12:07:00,
2013-03-10 02:08:00,41.7,39.5,30.17,West,278,0.0,0.0,92,0.00,,BKN050,0.00,VWS V14.01,2013-03-09 12:08:00,
2013-03-10 02:09:00,43.3,40.0,30.13,West,278,0.0,0.0,88,0.00,,BKN024,0.00,VWS V14.01,2013-03-09 12:09:00,
2013-03-10 02:10:00,41.7,39.8,30.17,West,278,0.0,0.0,93,0.00,,BKN050,0.00,VWS V14.01,2013-03-09 12:10:00,
2013-03-10 02:11:00,41.7,39.5,30.17,West,278,0.0,0.0,92,0.00,,BKN050,0.00,VWS V14.01,2013-03-09 12:11:00,
2013-03-10 02:12:00,41.6,39.5,30.17,West,278,0.0,0.0,92,0.00,,BKN050,0.00,VWS V14.01,2013-03-09 12:12:00,
2013-03-10 02:13:00,41.6,39.5,30.17,West,278,0.0,0.0,92,0.00,,BKN050,0.00,VWS V14.01,2013-03-09 12:13:00,
2013-03-10 02:14:00,43.1,40.1,30.13,West,278,0.0,0.0,89,0.00,,BKN024,0.00,VWS V14.01,2013-03-09 12:14:00,
2013-03-10 02:15:00,41.5,39.3,30.17,West,278,0.0,0.0,92,0.00,,BKN050,0.00,VWS V14.01,2013-03-09 12:15:00,
2013-03-10 02:16:00,41.4,39.3,30.17,West,278,0.0,0.0,92,0.00,,BKN050,0.00,VWS V14.01,2013-03-09 12:16:00,
2013-03-10 02:17:00,41.5,39.3,30.18,West,278,0.0,0.0,92,0.00,,BKN050,0.00,VWS V14.01,2013-03-09 12:17:00,
2013-03-10 02:18:00,41.5,39.3,30.18,West,278,0.0,0.0,92,0.00,,BKN050,0.00,VWS V14.01,2013-03-09 12:18:00,
2013-03-10 02:19:00,43.0,40.0,30.13,West,278,0.0,0.0,89,0.00,,BKN024,0.00,VWS V14.01,2013-03-09 12:19:00,
2013-03-10 02:20:00,41.4,39.3,30.17,West,278,0.0,0.0,92,0.00,,BKN050,0.00,VWS V14.01,2013-03-09 12:20:00,
2013-03-10 02:21:00,41.4,39.5,30.18,West,278,0.0,0.0,93,0.00,,BKN050,0.00,VWS V14.01,2013-03-09 12:21:00,
2013-03-10 02:22:00,41.4,39.5,30.18,West,278,0.0,0.0,93,0.00,,BKN050,0.00,VWS V14.01,2013-03-09 12:22:00,
2013-03-10 02:24:00,43.4,40.7,30.14,West,278,0.0,0.0,90,0.00,,BKN024,0.00,VWS V14.01,2013-03-09 12:24:00,
2013-03-10 02:25:00,41.3,39.4,30.18,West,278,0.0,0.0,93,0.00,,BKN050,0.00,VWS V14.01,2013-03-09 12:25:00,
2013-03-10 02:26:00,41.3,39.4,30.18,West,278,0.0,0.0,93,0.00,,BKN050,0.00,VWS V14.01,2013-03-09 12:26:00,
2013-03-10 02:27:00,41.3,39.4,30.18,West,278,0.0,0.0,93,0.00,,BKN050,0.00,VWS V14.01,2013-03-09 12:27:00,
2013-03-10 02:28:00,41.4,39.5,30.18,West,278,0.0,0.0,93,0.00,,BKN050,0.00,VWS V14.01,2013-03-09 12:28:00,
2013-03-10 02:29:00,43.2,40.2,30.14,West,278,0.0,0.0,89,0.00,,BKN024,0.00,VWS V14.01,2013-03-09 12:29:00,
2013-03-10 02:30:00,41.4,39.5,30.18,West,278,0.0,0.0,93,0.00,,BKN050,0.00,VWS V14.01,2013-03-09 12:30:00,
2013-03-10 02:31:00,41.4,39.5,30.18,West,278,0.0,0.0,93,0.00,,BKN050,0.00,VWS V14.01,2013-03-09 12:31:00,
2013-03-10 02:32:00,41.4,39.5,30.19,West,278,0.0,0.0,93,0.00,,BKN050,0.00,VWS V14.01,2013-03-09 12:32:00,
2013-03-10 02:33:00,41.4,39.5,30.19,West,278,0.0,0.0,93,0.00,,BKN050,0.00,VWS V14.01,2013-03-09 12:33:00,
2013-03-10 02:34:00,42.9,40.2,30.14,West,278,0.0,0.0,90,0.00,,BKN024,0.00,VWS V14.01,2013-03-09 12:34:00,
2013-03-10 02:35:00,41.4,39.5,30.18,West,278,0.0,0.0,93,0.00,,BKN050,0.00,VWS V14.01,2013-03-09 12:35:00,
2013-03-10 02:36:00,41.5,39.9,30.19,West,278,0.0,0.0,94,0.00,,BKN050,0.00,VWS V14.01,2013-03-09 12:36:00,
2013-03-10 02:37:00,41.6,40.0,30.19,West,278,0.0,0.0,94,0.00,,BKN050,0.00,VWS V14.01,2013-03-09 12:37:00,
2013-03-10 02:38:00,41.6,39.7,30.19,West,278,0.0,0.0,93,0.00,,BKN050,0.00,VWS V14.01,2013-03-09 12:38:00,
2013-03-10 02:39:00,42.6,39.9,30.15,West,278,0.0,0.0,90,0.00,,BKN024,0.00,VWS V14.01,2013-03-09 12:39:00,
2013-03-10 02:40:00,41.8,40.2,30.19,West,278,0.0,0.0,94,0.00,,BKN050,0.00,VWS V14.01,2013-03-09 12:40:00,
2013-03-10 02:41:00,41.9,40.3,30.19,West,278,0.0,0.0,94,0.00,,BKN050,0.00,VWS V14.01,2013-03-09 12:41:00,
2013-03-10 02:42:00,41.9,40.0,30.19,West,278,0.0,0.0,93,0.00,,BKN050,0.00,VWS V14.01,2013-03-09 12:42:00,
2013-03-10 02:43:00,41.8,39.9,30.19,West,278,0.0,0.0,93,0.00,,BKN050,0.00,VWS V14.01,2013-03-09 12:43:00,
2013-03-10 02:44:00,42.3,39.6,30.15,West,278,0.0,0.0,90,0.00,,BKN024,0.00,VWS V14.01,2013-03-09 12:44:00,
2013-03-10 02:45:00,41.5,39.6,30.19,West,278,0.0,0.0,93,0.00,,BKN050,0.00,VWS V14.01,2013-03-09 12:45:00,
2013-03-10 02:46:00,41.4,39.5,30.19,West,278,0.0,0.0,93,0.00,,BKN050,0.00,VWS V14.01,2013-03-09 12:46:00,
2013-03-10 02:47:00,41.3,39.4,30.19,West,278,0.0,0.0,93,0.00,,BKN050,0.00,VWS V14.01,2013-03-09 12:47:00,
2013-03-10 02:48:00,41.3,39.4,30.19,West,278,0.0,0.0,93,0.00,,BKN050,0.00,VWS V14.01,2013-03-09 12:48:00,
2013-03-10 02:49:00,42.0,39.6,30.16,West,278,0.0,0.0,91,0.00,,BKN024,0.00,VWS V14.01,2013-03-09 12:49:00,
2013-03-10 02:50:00,41.2,39.3,30.19,West,278,0.0,0.0,93,0.00,,BKN050,0.00,VWS V14.01,2013-03-09 12:50:00,
2013-03-10 02:51:00,41.2,39.3,30.19,West,278,0.0,0.0,93,0.00,,BKN050,0.00,VWS V14.01,2013-03-09 12:51:00,
2013-03-10 02:52:00,41.2,39.3,30.19,West,278,0.0,0.0,93,0.00,,BKN050,0.00,VWS V14.01,2013-03-09 12:52:00,
2013-03-10 02:54:00,41.8,39.4,30.16,West,278,0.0,0.0,91,0.00,,BKN024,0.00,VWS V14.01,2013-03-09 12:54:00,
2013-03-10 02:56:00,40.9,39.0,30.19,West,278,0.0,0.0,93,0.00,,BKN050,0.00,VWS V14.01,2013-03-09 12:56:00,
2013-03-10 02:58:00,41.0,39.1,30.20,West,278,0.0,0.0,93,0.00,,BKN050,0.00,VWS V14.01,2013-03-09 12:58:00,
2013-03-10 02:59:00,41.7,39.5,30.16,West,278,0.0,0.0,92,0.00,,BKN024,0.00,VWS V14.01,2013-03-09 12:59:00,
2013-03-10 03:00:00,41.0,39.1,30.20,West,278,0.0,0.0,93,0.00,,BKN050,0.00,VWS V14.01,2013-03-09 13:00:00,
2013-03-10 03:01:00,41.0,39.1,30.20,West,278,0.0,0.0,93,0.00,,BKN050,0.00,VWS V14.01,2013-03-09 13:01:00,
2013-03-10 03:02:00,41.0,39.4,30.20,West,278,0.0,0.0,94,0.00,,BKN050,0.00,VWS V14.01,2013-03-09 13:02:00,
2013-03-10 03:03:00,41.0,39.4,30.20,West,278,0.0,0.0,94,0.00,,BKN050,0.00,VWS V14.01,2013-03-09 13:03:00,
2013-03-10 03:04:00,41.5,39.3,30.17,West,278,0.0,0.0,92,0.00,,BKN024,0.00,VWS V14.01,2013-03-09 13:04:00,
2013-03-10 03:05:00,41.0,39.1,30.20,West,278,0.0,0.0,93,0.00,,BKN050,0.00,VWS V14.01,2013-03-09 13:05:00,
2013-03-10 03:06:00,41.0,39.1,30.20,West,278,0.0,0.0,93,0.00,,BKN050,0.00,VWS V14.01,2013-03-09 13:06:00,
2013-03-10 03:07:00,40.9,39.0,30.20,West,278,0.0,1.0,93,0.00,,BKN050,0.00,VWS V14.01,2013-03-09 13:07:00,
2013-03-10 03:08:00,40.8,38.9,30.20,West,278,0.0,0.0,93,0.00,,BKN050,0.00,VWS V14.01,2013-03-09 13:08:00,
2013-03-10 03:09:00,41.7,39.5,30.17,West,278,0.0,0.0,92,0.00,,BKN024,0.00,VWS V14.01,2013-03-09 13:09:00,
2013-03-10 03:10:00,40.7,39.1,30.20,West,278,0.0,0.0,94,0.00,,BKN050,0.00,VWS V14.01,2013-03-09 13:10:00,
2013-03-10 03:11:00,40.7,38.8,30.20,West,278,0.0,0.0,93,0.00,,BKN050,0.00,VWS V14.01,2013-03-09 13:11:00,
2013-03-10 03:12:00,40.7,39.1,30.20,West,278,0.0,0.0,94,0.00,,BKN050,0.00,VWS V14.01,2013-03-09 13:12:00,
2013-03-10 03:13:00,40.7,38.8,30.20,West,278,0.0,0.0,93,0.00,,BKN050,0.00,VWS V14.01,2013-03-09 13:13:00,
2013-03-10 03:14:00,41.4,39.2,30.17,West,278,0.0,0.0,92,0.00,,BKN024,0.00,VWS V14.01,2013-03-09 13:14:00,
2013-03-10 03:15:00,40.6,38.7,30.20,West,278,0.0,0.0,93,0.00,,BKN050,0.00,VWS V14.01,2013-03-09 13:15:00,
2013-03-10 03:16:00,40.6,39.0,30.20,West,278,0.0,0.0,94,0.00,,BKN050,0.00,VWS V14.01,2013-03-09 13:16:00,
2013-03-10 03:17:00,40.6,39.0,30.20,West,278,0.0,0.0,94,0.00,,BKN050,0.00,VWS V14.01,2013-03-09 13:17:00,
2013-03-10 03:18:00,40.5,38.9,30.20,West,278,0.0,0.0,94,0.00,,BKN050,0.00,VWS V14.01,2013-03-09 13:18:00,
2013-03-10 03:19:00,41.4,39.5,30.18,West,278,0.0,0.0,93,0.00,,BKN024,0.00,VWS V14.01,2013-03-09 13:19:00,
2013-03-10 03:20:00,40.5,38.9,30.20,West,278,0.0,0.0,94,0.00,,BKN050,0.00,VWS V14.01,2013-03-09 13:20:00,
2013-03-10 03:21:00,40.5,38.9,30.20,West,278,0.0,0.0,94,0.00,,BKN050,0.00,VWS V14.01,2013-03-09 13:21:00,
2013-03-10 03:22:00,40.5,38.9,30.20,West,278,0.0,0.0,94,0.00,,BKN050,0.00,VWS V14.01,2013-03-09 13:22:00,
2013-03-10 03:23:00,40.5,38.9,30.20,West,278,0.0,0.0,94,0.00,,BKN050,0.00,VWS V14.01,2013-03-09 13:23:00,
2013-03-10 03:24:00,41.3,39.4,30.18,West,278,0.0,0.0,93,0.00,,BKN024,0.00,VWS V14.01,2013-03-09 13:24:00,
2013-03-10 03:25:00,40.6,39.0,30.20,West,278,0.0,0.0,94,0.00,,BKN050,0.00,VWS V14.01,2013-03-09 13:25:00,
2013-03-10 03:26:00,40.6,39.0,30.20,West,278,0.0,0.0,94,0.00,,BKN050,0.00,VWS V14.01,2013-03-09 13:26:00,
2013-03-10 03:27:00,40.6,39.0,30.20,West,278,0.0,0.0,94,0.00,,BKN050,0.00,VWS V14.01,2013-03-09 13:27:00,
2013-03-10 03:28:00,40.5,38.9,30.20,West,278,0.0,0.0,94,0.00,,BKN050,0.00,VWS V14.01,2013-03-09 13:28:00,
2013-03-10 03:29:00,41.4,39.5,30.18,West,278,0.0,0.0,93,0.00,,BKN024,0.00,VWS V14.01,2013-03-09 13:29:00,
2013-03-10 03:30:00,40.5,38.9,30.20,West,278,0.0,0.0,94,0.00,,BKN050,0.00,VWS V14.01,2013-03-09 13:30:00,
2013-03-10 03:32:00,40.4,38.8,30.20,West,278,0.0,0.0,94,0.00,,BKN050,0.00,VWS V14.01,2013-03-09 13:32:00,
2013-03-10 03:33:00,40.4,38.8,30.20,West,278,0.0,0.0,94,0.00,,BKN050,0.00,VWS V14.01,2013-03-09 13:33:00,
2013-03-10 03:34:00,41.5,39.9,30.19,West,278,0.0,0.0,94,0.00,,BKN024,0.00,VWS V14.01,2013-03-09 13:34:00,
2013-03-10 03:36:00,40.3,38.7,30.20,West,278,0.0,0.0,94,0.00,,BKN050,0.00,VWS V14.01,2013-03-09 13:36:00,
2013-03-10 03:37:00,40.3,38.7,30.20,West,278,0.0,0.0,94,0.00,,BKN050,0.00,VWS V14.01,2013-03-09 13:37:00,
2013-03-10 03:38:00,40.2,38.6,30.20,West,278,0.0,0.0,94,0.00,,BKN050,0.00,VWS V14.01,2013-03-09 13:38:00,
2013-03-10 03:39:00,41.9,40.3,30.19,West,278,0.0,0.0,94,0.00,,BKN024,0.00,VWS V14.01,2013-03-09 13:39:00,
2013-03-10 03:40:00,40.2,38.6,30.21,West,278,0.0,0.0,94,0.00,,BKN050,0.00,VWS V14.01,2013-03-09 13:40:00,
2013-03-10 03:41:00,40.2,38.6,30.21,West,278,0.0,0.0,94,0.00,,BKN050,0.00,VWS V14.01,2013-03-09 13:41:00,
2013-03-10 03:42:00,40.2,38.6,30.21,West,278,0.0,0.0,94,0.00,,BKN050,0.00,VWS V14.01,2013-03-09 13:42:00,
2013-03-10 03:43:00,40.2,38.6,30.21,West,278,0.0,0.0,94,0.00,,BKN050,0.00,VWS V14.01,2013-03-09 13:43:00,
2013-03-10 03:44:00,41.4,39.5,30.19,West,278,0.0,0.0,93,0.00,,BKN024,0.00,VWS V14.01,2013-03-09 13:44:00,
2013-03-10 03:45:00,40.2,38.6,30.21,West,278,0.0,0.0,94,0.00,,BKN050,0.00,VWS V14.01,2013-03-09 13:45:00,
2013-03-10 03:46:00,40.4,39.1,30.21,West,278,0.0,0.0,95,0.00,,BKN050,0.00,VWS V14.01,2013-03-09 13:46:00,
2013-03-10 03:47:00,40.4,39.1,30.21,West,278,0.0,1.0,95,0.00,,BKN050,0.00,VWS V14.01,2013-03-09 13:47:00,
2013-03-10 03:48:00,40.5,39.2,30.21,West,278,0.0,0.0,95,0.00,,BKN050,0.00,VWS V14.01,2013-03-09 13:48:00,
2013-03-10 03:49:00,41.2,39.3,30.19,West,278,0.0,0.0,93,0.00,,BKN024,0.00,VWS V14.01,2013-03-09 13:49:00,
2013-03-10 03:50:00,40.5,38.9,30.21,West,278,0.0,1.0,94,0.00,,BKN050,0.00,VWS V14.01,2013-03-09 13:50:00,
2013-03-10 03:51:00,40.5,38.9,30.21,West,278,0.0,0.0,94,0.00,,BKN050,0.00,VWS V14.01,2013-03-09 13:51:00,
2013-03-10 03:52:00,40.6,39.0,30.21,West,278,0.0,0.0,94,0.00,,BKN050,0.00,VWS V14.01,2013-03-09 13:52:00,
2013-03-10 03:53:00,40.5,38.9,30.22,West,278,0.0,0.0,94,0.00,,BKN050,0.00,VWS V14.01,2013-03-09 13:53:00,
2013-03-10 03:54:00,40.9,39.0,30.19,West,278,0.0,0.0,93,0.00,,BKN024,0.00,VWS V14.01,2013-03-09 13:54:00,
2013-03-10 03:55:00,40.6,39.0,30.22,West,278,0.0,0.0,94,0.00,,BKN050,0.00,VWS V14.01,2013-03-09 13:55:00,
2013-03-10 03:56:00,40.7,39.4,30.22,West,278,0.0,0.0,95,0.00,,BKN050,0.00,VWS V14.01,2013-03-09 13:56:00,
2013-03-10 03:57:00,40.9,39.6,30.22,West,278,0.0,0.0,95,0.00,,BKN050,0.00,VWS V14.01,2013-03-09 13:57:00,
2013-03-10 03:58:00,40.8,39.5,30.22,West,278,1.0,1.0,95,0.00,,BKN050,0.00,VWS V14.01,2013-03-09 13:58:00,
2013-03-10 03:59:00,41.0,39.1,30.20,West,278,0.0,0.0,93,0.00,,BKN024,0.00,VWS V14.01,2013-03-09 13:59:00,
2013-03-10 04:00:00,40.8,39.5,30.22,NW,312,1.0,3.0,95,0.00,,BKN050,0.00,VWS V14.01,2013-03-09 14:00:00,
2013-03-10 04:01:00,40.8,39.5,30.22,NW,312,0.0,2.0,95,0.00,,BKN050,0.00,VWS V14.01,2013-03-09 14:01:00,
2013-03-10 04:02:00,40.9,39.6,30.22,NW,312,0.0,2.0,95,0.00,,BKN050,0.00,VWS V14.01,2013-03-09 14:02:00,
2013-03-10 04:03:00,41.2,39.9,30.22,NW,312,0.0,0.0,95,0.00,,BKN050,0.00,VWS V14.01,2013-03-09 14:03:00,
2013-03-10 04:04:00,41.0,39.1,30.20,West,278,0.0,0.0,93,0.00,,BKN024,0.00,VWS V14.01,2013-03-09 14:04:00,
2013-03-10 04:05:00,41.3,40.0,30.22,NW,312,0.0,0.0,95,0.00,,BKN050,0.00,VWS V14.01,2013-03-09 14:05:00,
2013-03-10 04:06:00,41.3,40.0,30.22,NW,312,0.0,0.0,95,0.00,,BKN050,0.00,VWS V14.01,2013-03-09 14:06:00,
2013-03-10 04:07:00,41.3,40.0,30.22,NW,312,0.0,1.0,95,0.00,,BKN050,0.00,VWS V14.01,2013-03-09 14:07:00,
2013-03-10 04:08:00,41.3,40.0,30.21,NW,312,0.0,1.0,95,0.00,,BKN050,0.00,VWS V14.01,2013-03-09 14:08:00,
2013-03-10 04:09:00,40.7,38.8,30.20,West,278,0.0,0.0,93,0.00,,BKN024,0.00,VWS V14.01,2013-03-09 14:09:00,
2013-03-10 04:10:00,41.4,40.1,30.22,NW,312,0.0,1.0,95,0.00,,BKN050,0.00,VWS V14.01,2013-03-09 14:10:00,
2013-03-10 04:11:00,41.5,40.2,30.22,NW,312,0.0,1.0,95,0.00,,BKN050,0.00,VWS V14.01,2013-03-09 14:11:00,
2013-03-10 04:12:00,41.5,40.2,30.22,NW,312,0.0,1.0,95,0.00,,BKN050,0.00,VWS V14.01,2013-03-09 14:12:00,
2013-03-10 04:13:00,41.6,40.3,30.21,NW,312,0.0,0.0,95,0.00,,BKN050,0.00,VWS V14.01,2013-03-09 14:13:00,
2013-03-10 04:14:00,40.6,39.0,30.20,West,278,0.0,0.0,94,0.00,,BKN024,0.00,VWS V14.01,2013-03-09 14:14:00,
2013-03-10 04:15:00,41.8,40.5,30.21,NW,312,0.0,1.0,95,0.00,,BKN050,0.00,VWS V14.01,2013-03-09 14:15:00,
2013-03-10 04:16:00,41.9,40.6,30.22,NW,312,0.0,1.0,95,0.00,,BKN050,0.00,VWS V14.01,2013-03-09 14:16:00,
2013-03-10 04:17:00,42.0,40.7,30.22,NW,312,0.0,0.0,95,0.00,,BKN050,0.00,VWS V14.01,2013-03-09 14:17:00,
2013-03-10 04:18:00,42.2,40.9,30.22,NW,312,0.0,0.0,95,0.00,,BKN050,0.00,VWS V14.01,2013-03-09 14:18:00,
2013-03-10 04:19:00,40.5,38.9,30.20,West,278,0.0,0.0,94,0.00,,BKN024,0.00,VWS V14.01,2013-03-09 14:19:00,
2013-03-10 04:20:00,42.4,41.1,30.22,NW,312,0.0,0.0,95,0.00,,BKN050,0.00,VWS V14.01,2013-03-09 14:20:00,
2013-03-10 04:21:00,42.5,41.2,30.22,NW,312,0.0,0.0,95,0.00,,BKN050,0.00,VWS V14.01,2013-03-09 14:21:00,
2013-03-10 04:22:00,42.5,41.2,30.22,NW,312,0.0,0.0,95,0.00,,BKN050,0.00,VWS V14.01,2013-03-09 14:22:00,
2013-03-10 04:23:00,42.7,41.4,30.22,NW,312,0.0,0.0,95,0.00,,BKN050,0.00,VWS V14.01,2013-03-09 14:23:00,
2013-03-10 04:24:00,40.6,39.0,30.20,West,278,0.0,0.0,94,0.00,,BKN024,0.00,VWS V14.01,2013-03-09 14:24:00,
2013-03-10 04:25:00,43.0,41.7,30.22,NW,312,0.0,0.0,95,0.00,,BKN050,0.00,VWS V14.01,2013-03-09 14:25:00,
2013-03-10 04:26:00,43.2,41.9,30.22,NW,312,0.0,0.0,95,0.00,,BKN050,0.00,VWS V14.01,2013-03-09 14:26:00,
2013-03-10 04:27:00,43.3,42.0,30.22,NW,312,0.0,0.0,95,0.00,,BKN050,0.00,VWS V14.01,2013-03-09 14:27:00,
2013-03-10 04:28:00,43.5,42.2,30.22,NW,312,0.0,0.0,95,0.00,,BKN050,0.00,VWS V14.01,2013-03-09 14:28:00,
2013-03-10 04:29:00,40.5,38.9,30.20,West,278,0.0,0.0,94,0.00,,BKN024,0.00,VWS V14.01,2013-03-09 14:29:00,
2013-03-10 04:30:00,43.7,42.4,30.22,NW,312,0.0,0.0,95,0.00,,BKN050,0.00,VWS V14.01,2013-03-09 14:30:00,
2013-03-10 04:31:00,43.8,42.2,30.22,NW,312,0.0,0.0,94,0.00,,BKN050,0.00,VWS V14.01,2013-03-09 14:31:00,
2013-03-10 04:32:00,44.0,42.4,30.22,NW,312,0.0,0.0,94,0.00,,BKN050,0.00,VWS V14.01,2013-03-09 14:32:00,
2013-03-10 04:33:00,44.2,42.6,30.23,NW,312,1.0,1.0,94,0.00,,BKN050,0.00,VWS V14.01,2013-03-09 14:33:00,
2013-03-10 04:34:00,40.3,38.7,30.20,West,278,0.0,0.0,94,0.00,,BKN024,0.00,VWS V14.01,2013-03-09 14:34:00,
2013-03-10 04:35:00,44.6,43.0,30.23,NW,312,1.0,1.0,94,0.00,,BKN050,0.00,VWS V14.01,2013-03-09 14:35:00,
2013-03-10 04:36:00,44.8,43.2,30.23,NW,312,0.0,1.0,94,0.00,,BKN050,0.00,VWS V14.01,2013-03-09 14:36:00,
2013-03-10 04:37:00,45.0,43.4,30.23,NW,312,0.0,1.0,94,0.00,,BKN050,0.00,VWS V14.01,2013-03-09 14:37:00,
2013-03-10 04:38:00,45.1,43.2,30.23,NW,312,0.0,0.0,93,0.00,,BKN050,0.00,VWS V14.01,2013-03-09 14:38:00,
2013-03-10 04:39:00,40.2,38.6,30.21,West,278,0.0,0.0,94,0.00,,BKN024,0.00,VWS V14.01,2013-03-09 14:39:00,
2013-03-10 04:40:00,45.2,43.0,30.23,NW,312,1.0,2.0,92,0.00,,BKN050,0.00,VWS V14.01,2013-03-09 14:40:00,
2013-03-10 04:41:00,45.2,43.0,30.23,NW,312,0.0,1.0,92,0.00,,BKN050,0.00,VWS V14.01,2013-03-09 14:41:00,
2013-03-10 04:42:00,45.3,43.1,30.23,NW,312,1.0,1.0,92,0.00,,BKN050,0.00,VWS V14.01,2013-03-09 14:42:00,
2013-03-10 04:43:00,45.4,43.2,30.23,NW,312,1.0,2.0,92,0.00,,BKN050,0.00,VWS V14.01,2013-03-09 14:43:00,
2013-03-10 04:44:00,40.4,39.1,30.21,West,278,0.0,0.0,95,0.00,,BKN024,0.00,VWS V14.01,2013-03-09 14:44:00,
2013-03-10 04:45:00,45.6,43.1,30.23,NW,312,1.0,1.0,91,0.00,,BKN050,0.00,VWS V14.01,2013-03-09 14:45:00,
2013-03-10 04:46:00,45.6,43.1,30.23,NW,312,0.0,2.0,91,0.00,,BKN050,0.00,VWS V14.01,2013-03-09 14:46:00,
2013-03-10 04:47:00,45.7,43.2,30.23,NW,312,0.0,1.0,91,0.00,,BKN050,0.00,VWS V14.01,2013-03-09 14:47:00,
2013-03-10 04:48:00,45.9,43.4,30.23,NW,312,1.0,1.0,91,0.00,,BKN050,0.00,VWS V14.01,2013-03-09 14:48:00,
2013-03-10 04:49:00,40.6,39.3,30.21,West,278,0.0,0.0,95,0.00,,BKN024,0.00,VWS V14.01,2013-03-09 14:49:00,
2013-03-10 04:50:00,46.2,43.4,30.23,NW,312,1.0,1.0,90,0.00,,BKN050,0.00,VWS V14.01,2013-03-09 14:50:00,
2013-03-10 04:51:00,46.4,43.6,30.24,NW,312,0.0,2.0,90,0.00,,BKN050,0.00,VWS V14.01,2013-03-09 14:51:00,
2013-03-10 04:52:00,46.6,43.8,30.24,NW,312,1.0,1.0,90,0.00,,BKN050,0.00,VWS V14.01,2013-03-09 14:52:00,
2013-03-10 04:53:00,46.8,44.0,30.24,NW,312,1.0,1.0,90,0.00,,BKN050,0.00,VWS V14.01,2013-03-09 14:53:00,
2013-03-10 04:54:00,40.7,39.4,30.22,West,278,0.0,0.0,95,0.00,,BKN024,0.00,VWS V14.01,2013-03-09 14:54:00,
2013-03-10 04:55:00,47.0,43.6,30.24,NW,312,1.0,2.0,88,0.00,,BKN050,0.00,VWS V14.01,2013-03-09 14:55:00,
2013-03-10 04:56:00,47.1,43.7,30.24,WNW,288,1.0,5.0,88,0.00,,BKN050,0.00,VWS V14.01,2013-03-09 14:56:00,
2013-03-10 04:57:00,47.2,43.8,30.24,WNW,288,3.0,3.0,88,0.00,,BKN050,0.00,VWS V14.01,2013-03-09 14:57:00,
2013-03-10 04:58:00,47.4,44.0,30.24,WNW,288,0.0,3.0,88,0.00,,BKN050,0.00,VWS V14.01,2013-03-09 14:58:00,
2013-03-10 04:59:00,40.8,39.5,30.22,NW,312,0.0,2.0,95,0.00,,BKN024,0.00,VWS V14.01,2013-03-09 14:59:00,
2013-03-10 05:00:00,47.6,43.9,30.24,WNW,288,1.0,3.0,87,0.00,,BKN050,0.00,VWS V14.01,2013-03-09 15:00:00,
2013-03-10 05:01:00,47.7,43.7,30.24,WNW,288,1.0,3.0,86,0.00,,BKN050,0.00,VWS V14.01,2013-03-09 15:01:00,
2013-03-10 05:02:00,47.8,43.8,30.24,NNW,328,3.0,5.0,86,0.00,,BKN050,0.00,VWS V14.01,2013-03-09 15:02:00,
2013-03-10 05:03:00,47.8,43.8,30.24,NNW,327,2.0,4.0,86,0.00,,BKN050,0.00,VWS V14.01,2013-03-09 15:03:00,
2013-03-10 05:04:00,41.3,40.0,30.22,NW,312,0.0,0.0,95,0.00,,SCT020,0.00,VWS V14.01,2013-03-09 15:04:00,
2013-03-10 05:05:00,48.1,44.1,30.24,WNW,300,3.0,4.0,86,0.00,,BKN050,0.00,VWS V14.01,2013-03-09 15:05:00,
2013-03-10 05:06:00,48.2,43.9,30.24,WNW,296,2.0,4.0,85,0.00,,BKN050,0.00,VWS V14.01,2013-03-09 15:06:00,
2013-03-10 05:07:00,48.2,43.9,30.24,WNW,292,1.0,4.0,85,0.00,,BKN050,0.00,VWS V14.01,2013-03-09 15:07:00,
2013-03-10 05:08:00,48.3,44.0,30.24,West,265,4.0,5.0,85,0.00,,BKN050,0.00,VWS V14.01,2013-03-09 15:08:00,
2013-03-10 05:09:00,41.4,40.1,30.22,NW,312,0.0,1.0,95,0.00,,SCT020,0.00,VWS V14.01,2013-03-09 15:09:00,
2013-03-10 05:10:00,48.3,43.7,30.24,West,271,0.0,3.0,84,0.00,,BKN050,0.00,VWS V14.01,2013-03-09 15:10:00,
2013-03-10 05:11:00,48.4,43.8,30.24,West,271,2.0,3.0,84,0.00,,BKN050,0.00,VWS V14.01,2013-03-09 15:11:00,
2013-03-10 05:12:00,48.5,43.9,30.24,West,277,2.0,3.0,84,0.00,,BKN050,0.00,VWS V14.01,2013-03-09 15:12:00,
2013-03-10 05:13:00,48.7,44.1,30.24,West,277,0.0,2.0,84,0.00,,BKN050,0.00,VWS V14.01,2013-03-09 15:13:00,
2013-03-10 05:14:00,41.9,40.6,30.22,NW,312,0.0,1.0,95,0.00,,SCT020,0.00,VWS V14.01,2013-03-09 15:14:00,
2013-03-10 05:15:00,49.0,44.1,30.24,West,277,1.0,2.0,83,0.00,,BKN050,0.00,VWS V14.01,2013-03-09 15:15:00,
2013-03-10 05:16:00,49.0,44.1,30.25,West,277,0.0,2.0,83,0.00,,BKN050,0.00,VWS V14.01,2013-03-09 15:16:00,
2013-03-10 05:17:00,49.1,44.2,30.25,West,277,0.0,0.0,83,0.00,,BKN050,0.00,VWS V14.01,2013-03-09 15:17:00,
2013-03-10 05:18:00,49.3,44.4,30.25,West,277,0.0,2.0,83,0.00,,BKN050,0.00,VWS V14.01,2013-03-09 15:18:00,
2013-03-10 05:19:00,42.5,41.2,30.22,NW,312,0.0,0.0,95,0.00,,SCT020,0.00,VWS V14.01,2013-03-09 15:19:00,
2013-03-10 05:20:00,49.4,44.1,30.25,WNW,302,1.0,3.0,82,0.00,,BKN050,0.00,VWS V14.01,2013-03-09 15:20:00,
2013-03-10 05:21:00,49.5,44.2,30.25,WNW,297,2.0,3.0,82,0.00,,BKN050,0.00,VWS V14.01,2013-03-09 15:21:00,
2013-03-10 05:22:00,49.5,44.2,30.25,West,270,1.0,4.0,82,0.00,,BKN050,0.00,VWS V14.01,2013-03-09 15:22:00,
2013-03-10 05:23:00,49.4,44.1,30.25,West,270,1.0,2.0,82,0.00,,BKN050,0.00,VWS V14.01,2013-03-09 15:23:00,
2013-03-10 05:24:00,43.1,41.8,30.22,NW,312,0.0,0.0,95,0.00,,SCT020,0.00,VWS V14.01,2013-03-09 15:24:00,
2013-03-10 05:25:00,49.4,44.1,30.25,NW,321,1.0,2.0,82,0.00,,BKN050,0.00,VWS V14.01,2013-03-09 15:25:00,
2013-03-10 05:26:00,49.4,44.1,30.25,NNW,328,2.0,3.0,82,0.00,,BKN050,0.00,VWS V14.01,2013-03-09 15:26:00,
2013-03-10 05:27:00,49.4,44.1,30.25,NNW,328,0.0,3.0,82,0.00,,BKN050,0.00,VWS V14.01,2013-03-09 15:27:00,
2013-03-10 05:28:00,49.4,44.1,30.25,NNW,328,0.0,2.0,82,0.00,,BKN050,0.00,VWS V14.01,2013-03-09 15:28:00,
2013-03-10 05:29:00,43.8,42.2,30.22,NW,312,0.0,0.0,94,0.00,,SCT020,0.00,VWS V14.01,2013-03-09 15:29:00,
2013-03-10 05:31:00,49.6,44.7,30.25,West,277,2.0,5.0,83,0.00,,BKN050,0.00,VWS V14.01,2013-03-09 15:31:00,
2013-03-10 05:32:00,49.7,44.8,30.25,West,281,1.0,3.0,83,0.00,,BKN050,0.00,VWS V14.01,2013-03-09 15:32:00,
2013-03-10 05:33:00,49.7,44.8,30.25,West,281,0.0,2.0,83,0.00,,BKN050,0.00,VWS V14.01,2013-03-09 15:33:00,
2013-03-10 05:34:00,44.7,43.1,30.23,NW,312,1.0,1.0,94,0.00,,SCT020,0.00,VWS V14.01,2013-03-09 15:34:00,
2013-03-10 05:36:00,50.0,45.0,30.25,NNW,338,0.0,2.0,83,0.00,,BKN050,0.00,VWS V14.01,2013-03-09 15:36:00,
2013-03-10 05:38:00,50.5,45.5,30.25,NW,309,1.0,2.0,83,0.00,,BKN050,0.00,VWS V14.01,2013-03-09 15:38:00,
2013-03-10 05:39:00,45.2,43.0,30.23,NW,312,1.0,1.0,92,0.00,,SCT020,0.00,VWS V14.01,2013-03-09 15:39:00,
2013-03-10 05:40:00,50.7,45.4,30.25,NW,309,0.0,3.0,82,0.00,,BKN050,0.00,VWS V14.01,2013-03-09 15:40:00,
2013-03-10 05:41:00,50.8,45.5,30.25,West,278,3.0,3.0,82,0.00,,BKN050,0.00,VWS V14.01,2013-03-09 15:41:00,
2013-03-10 05:42:00,50.8,45.2,30.25,NW,321,3.0,3.0,81,0.00,,BKN050,0.00,VWS V14.01,2013-03-09 15:42:00,
2013-03-10 05:43:00,50.7,45.1,30.25,NW,305,0.0,4.0,81,0.00,,BKN050,0.00,VWS V14.01,2013-03-09 15:43:00,
2013-03-10 05:44:00,45.6,43.1,30.23,NW,312,0.0,2.0,91,0.00,,SCT020,0.00,VWS V14.01,2013-03-09 15:44:00,
2013-03-10 05:45:00,50.7,45.1,30.25,WNW,284,5.0,5.0,81,0.00,,BKN050,0.00,VWS V14.01,2013-03-09 15:45:00,
2013-03-10 05:46:00,50.7,45.1,30.25,West,281,2.0,6.0,81,0.00,,BKN050,0.00,VWS V14.01,2013-03-09 15:46:00,
2013-03-10 05:47:00,50.7,45.1,30.25,WNW,282,1.0,3.0,81,0.00,,BKN050,0.00,VWS V14.01,2013-03-09 15:47:00,
2013-03-10 05:48:00,50.6,45.0,30.25,WNW,282,0.0,1.0,81,0.00,,BKN050,0.00,VWS V14.01,2013-03-09 15:48:00,
2013-03-10 05:49:00,46.4,43.6,30.24,NW,312,1.0,2.0,90,0.00,,SCT020,0.00,VWS V14.01,2013-03-09 15:49:00,
2013-03-10 05:50:00,50.6,44.7,30.25,WNW,282,1.0,4.0,80,0.00,,BKN050,0.00,VWS V14.01,2013-03-09 15:50:00,
2013-03-10 05:51:00,50.5,44.6,30.25,WNW,282,0.0,1.0,80,0.00,,BKN050,0.00,VWS V14.01,2013-03-09 15:51:00,
2013-03-10 05:52:00,50.5,44.6,30.25,WNW,282,3.0,3.0,80,0.00,,BKN050,0.00,VWS V14.01,2013-03-09 15:52:00,
2013-03-10 05:53:00,50.6,45.0,30.25,WNW,282,1.0,3.0,81,0.00,,BKN050,0.00,VWS V14.01,2013-03-09 15:53:00,
2013-03-10 05:54:00,47.1,43.7,30.24,WNW,288,3.0,5.0,88,0.00,,SCT020,0.00,VWS V14.01,2013-03-09 15:54:00,
2013-03-10 05:55:00,50.8,44.9,30.25,West,271,4.0,5.0,80,0.00,,BKN050,0.00,VWS V14.01,2013-03-09 15:55:00,
2013-03-10 05:57:00,50.8,44.9,30.25,WNW,288,4.0,4.0,80,0.00,,BKN050,0.00,VWS V14.01,2013-03-09 15:57:00,
2013-03-10 05:58:00,50.8,44.9,30.25,WNW,293,2.0,4.0,80,0.00,,BKN050,0.00,VWS V14.01,2013-03-09 15:58:00,
2013-03-10 05:59:00,47.6,43.9,30.24,WNW,288,0.0,3.0,87,0.00,,SCT020,0.00,VWS V14.01,2013-03-09 15:59:00,
2013-03-10 06:00:00,50.9,45.0,30.25,NW,321,1.0,2.0,80,0.00,,BKN050,0.00,VWS V14.01,2013-03-09 16:00:00,
2013-03-10 06:01:00,51.0,45.1,30.26,NW,321,1.0,2.0,80,0.00,,BKN050,0.00,VWS V14.01,2013-03-09 16:01:00,
2013-03-10 06:02:00,51.1,45.2,30.26,NW,321,1.0,2.0,80,0.00,,BKN050,0.00,VWS V14.01,2013-03-09 16:02:00,
2013-03-10 06:03:00,51.3,45.3,30.25,NW,321,2.0,3.0,80,0.00,,BKN050,0.00,VWS V14.01,2013-03-09 16:03:00,
2013-03-10 06:04:00,48.1,43.8,30.24,WNW,299,3.0,3.0,85,0.00,,SCT020,0.00,VWS V14.01,2013-03-09 16:04:00,
2013-03-10 06:05:00,51.5,44.9,30.25,NW,317,3.0,4.0,78,0.00,,BKN050,0.00,VWS V14.01,2013-03-09 16:05:00,
2013-03-10 06:06:00,51.5,44.9,30.26,NNW,327,1.0,4.0,78,0.00,,BKN050,0.00,VWS V14.01,2013-03-09 16:06:00,
2013-03-10 06:07:00,51.5,44.9,30.26,NW,323,2.0,2.0,78,0.00,,BKN050,0.00,VWS V14.01,2013-03-09 16:07:00,
2013-03-10 06:08:00,51.6,45.0,30.26,NW,307,0.0,3.0,78,0.00,,BKN050,0.00,VWS V14.01,2013-03-09 16:08:00,
2013-03-10 06:09:00,48.4,43.8,30.24,West,271,0.0,1.0,84,0.00,,SCT020,0.00,VWS V14.01,2013-03-09 16:09:00,
2013-03-10 06:11:00,51.6,45.0,30.26,WSW,253,5.0,5.0,78,0.00,,BKN050,0.00,VWS V14.01,2013-03-09 16:11:00,
2013-03-10 06:12:00,51.7,45.1,30.26,West,263,0.0,6.0,78,0.00,,BKN050,0.00,VWS V14.01,2013-03-09 16:12:00,
2013-03-10 06:13:00,51.9,45.3,30.26,West,271,1.0,2.0,78,0.00,,BKN050,0.00,VWS V14.01,2013-03-09 16:13:00,
2013-03-10 06:14:00,49.0,44.1,30.25,West,277,0.0,2.0,83,0.00,,SCT020,0.00,VWS V14.01,2013-03-09 16:14:00,
2013-03-10 06:15:00,52.3,45.3,30.26,West,271,2.0,3.0,77,0.00,,BKN050,0.00,VWS V14.01,2013-03-09 16:15:00,
2013-03-10 06:16:00,52.3,45.3,30.26,West,262,3.0,5.0,77,0.00,,BKN050,0.00,VWS V14.01,2013-03-09 16:16:00,
2013-03-10 06:17:00,52.1,44.4,30.26,West,262,1.0,3.0,75,0.00,,BKN050,0.00,VWS V14.01,2013-03-09 16:17:00,
2013-03-10 06:18:00,52.1,44.8,30.26,West,268,3.0,3.0,76,0.00,,BKN050,0.00,VWS V14.01,2013-03-09 16:18:00,
2013-03-10 06:19:00,49.5,44.2,30.25,WNW,297,3.0,3.0,82,0.00,,SCT020,0.00,VWS V14.01,2013-03-09 16:19:00,
2013-03-10 06:20:00,52.0,44.7,30.26,West,273,1.0,4.0,76,0.00,,BKN050,0.00,VWS V14.01,2013-03-09 16:20:00,
2013-03-10 06:21:00,52.0,44.7,30.26,West,270,3.0,4.0,76,0.00,,BKN050,0.00,VWS V14.01,2013-03-09 16:21:00,
2013-03-10 06:22:00,52.0,44.3,30.26,WNW,291,1.0,3.0,75,0.00,,BKN050,0.00,VWS V14.01,2013-03-09 16:22:00,
2013-03-10 06:23:00,52.2,44.9,30.26,WNW,291,1.0,2.0,76,0.00,,BKN050,0.00,VWS V14.01,2013-03-09 16:23:00,
2013-03-10 06:24:00,49.4,44.1,30.25,NNW,328,2.0,3.0,82,0.00,,SCT020,0.00,VWS V14.01,2013-03-09 16:24:00,
2013-03-10 06:25:00,52.6,45.3,30.26,WNW,285,2.0,3.0,76,0.00,,BKN050,0.00,VWS V14.01,2013-03-09 16:25:00,
2013-03-10 06:26:00,52.7,45.0,30.26,WNW,286,1.0,2.0,75,0.00,,BKN050,0.00,VWS V14.01,2013-03-09 16:26:00,
2013-03-10 06:27:00,53.0,45.3,30.26,WNW,285,0.0,1.0,75,0.00,,BKN050,0.00,VWS V14.01,2013-03-09 16:27:00,
2013-03-10 06:28:00,53.2,45.5,30.26,NW,325,6.0,6.0,75,0.00,,BKN050,0.00,VWS V14.01,2013-03-09 16:28:00,
2013-03-10 06:29:00,49.6,44.7,30.25,West,277,1.0,5.0,83,0.00,,SCT020,0.00,VWS V14.01,2013-03-09 16:29:00,
2013-03-10 06:30:00,53.1,44.7,30.27,WNW,295,4.0,4.0,73,0.00,,BKN050,0.00,VWS V14.01,2013-03-09 16:30:00,
2013-03-10 06:31:00,53.2,44.8,30.27,WNW,303,3.0,4.0,73,0.00,,BKN050,0.00,VWS V14.01,2013-03-09 16:31:00,
2013-03-10 06:32:00,53.1,44.3,30.27,West,267,2.0,6.0,72,0.00,,BKN050,0.00,VWS V14.01,2013-03-09 16:32:00,
2013-03-10 06:33:00,53.2,44.4,30.27,NW,311,3.0,5.0,72,0.00,,BKN050,0.00,VWS V14.01,2013-03-09 16:33:00,
2013-03-10 06:34:00,50.0,45.0,30.25,NNW,338,0.0,2.0,83,0.00,,SCT020,0.00,VWS V14.01,2013-03-09 16:34:00,
2013-03-10 06:35:00,53.2,44.4,30.27,West,264,3.0,5.0,72,0.00,,BKN050,0.00,VWS V14.01,2013-03-09 16:35:00,
2013-03-10 06:36:00,53.1,44.3,30.27,WSW,258,1.0,5.0,72,0.00,,BKN050,0.00,VWS V14.01,2013-03-09 16:36:00,
2013-03-10 06:37:00,53.1,44.3,30.27,NW,325,2.0,2.0,72,0.00,,BKN050,0.00,VWS V14.01,2013-03-09 16:37:00,
2013-03-10 06:38:00,53.3,44.5,30.27,NNW,341,4.0,6.0,72,0.00,,BKN050,0.00,VWS V14.01,2013-03-09 16:38:00,
2013-03-10 06:39:00,50.8,45.5,30.25,NW,309,2.0,2.0,82,0.00,,SCT020,0.00,VWS V14.01,2013-03-09 16:39:00,
2013-03-10 06:40:00,53.4,44.6,30.27,NNW,341,1.0,5.0,72,0.00,,BKN050,0.00,VWS V14.01,2013-03-09 16:40:00,
2013-03-10 06:41:00,53.5,44.7,30.27,NNW,341,0.0,2.0,72,0.00,,BKN050,0.00,VWS V14.01,2013-03-09 16:41:00,
2013-03-10 06:42:00,53.6,44.8,30.27,NW,319,1.0,4.0,72,0.00,,BKN050,0.00,VWS V14.01,2013-03-09 16:42:00,
2013-03-10 06:43:00,53.8,45.0,30.27,NW,317,3.0,3.0,72,0.00,,BKN050,0.00,VWS V14.01,2013-03-09 16:43:00,
2013-03-10 06:44:00,50.7,45.1,30.25,WNW,287,4.0,6.0,81,0.00,,SCT020,0.00,VWS V14.01,2013-03-09 16:44:00,
2013-03-10 06:45:00,53.9,45.1,30.27,NW,314,3.0,6.0,72,0.00,,BKN050,0.00,VWS V14.01,2013-03-09 16:45:00,
2013-03-10 06:46:00,53.9,44.3,30.27,NW,314,0.0,3.0,70,0.00,,BKN050,0.00,VWS V14.01,2013-03-09 16:46:00,
2013-03-10 06:47:00,54.0,44.5,30.27,NW,313,4.0,4.0,70,0.00,,BKN050,0.00,VWS V14.01,2013-03-09 16:47:00,
2013-03-10 06:48:00,54.0,44.5,30.27,NW,318,2.0,4.0,70,0.00,,BKN050,0.00,VWS V14.01,2013-03-09 16:48:00,
2013-03-10 06:49:00,50.5,44.6,30.25,WNW,282,0.0,1.0,80,0.00,,SCT020,0.00,VWS V14.01,2013-03-09 16:49:00,
2013-03-10 06:50:00,54.1,44.2,30.27,WNW,293,2.0,4.0,69,0.00,,BKN050,0.00,VWS V14.01,2013-03-09 16:50:00,
2013-03-10 06:51:00,54.2,44.3,30.27,NNW,342,4.0,6.0,69,0.00,,BKN050,0.00,VWS V14.01,2013-03-09 16:51:00,
2013-03-10 06:52:00,54.3,44.4,30.27,North,351,3.0,5.0,69,0.00,,BKN050,0.00,VWS V14.01,2013-03-09 16:52:00,
2013-03-10 06:53:00,54.4,44.1,30.27,NW,319,4.0,6.0,68,0.00,,BKN050,0.00,VWS V14.01,2013-03-09 16:53:00,
2013-03-10 06:54:00,50.7,44.8,30.25,West,264,4.0,4.0,80,0.00,,SCT020,0.00,VWS V14.01,2013-03-09 16:54:00,
2013-03-10 06:55:00,54.1,43.8,30.27,NW,322,2.0,4.0,68,0.00,,BKN050,0.00,VWS V14.01,2013-03-09 16:55:00,
2013-03-10 06:56:00,54.0,43.7,30.27,NW,322,0.0,3.0,68,0.00,,BKN050,0.00,VWS V14.01,2013-03-09 16:56:00,
2013-03-10 06:57:00,54.0,44.1,30.27,WNW,292,4.0,4.0,69,0.00,,BKN050,0.00,VWS V14.01,2013-03-09 16:57:00,
2013-03-10 06:58:00,54.1,43.8,30.27,WNW,289,4.0,7.0,68,0.00,,BKN050,0.00,VWS V14.01,2013-03-09 16:58:00,
2013-03-10 06:59:00,50.9,45.0,30.26,NW,321,0.0,2.0,80,0.00,,SCT020,0.00,VWS V14.01,2013-03-09 16:59:00,
2013-03-10 07:00:00,54.4,43.7,30.27,NNW,346,3.0,5.0,67,0.00,,BKN050,0.00,VWS V14.01,2013-03-09 17:00:00,
2013-03-10 07:01:00,54.3,43.2,30.27,NNW,347,3.0,4.0,66,0.00,,BKN050,0.00,VWS V14.01,2013-03-09 17:01:00,
2013-03-10 07:02:00,54.2,43.5,30.27,NW,307,4.0,9.0,67,0.00,,BKN050,0.00,VWS V14.01,2013-03-09 17:02:00,
2013-03-10 07:03:00,54.2,43.5,30.27,NNE,14,1.0,5.0,67,0.00,,BKN050,0.00,VWS V14.01,2013-03-09 17:03:00,
2013-03-10 07:04:00,51.5,44.9,30.26,NW,323,3.0,4.0,78,0.00,,FEW020,0.00,VWS V14.01,2013-03-09 17:04:00,
2013-03-10 07:05:00,54.6,43.9,30.27,NNW,339,4.0,4.0,67,0.00,,BKN050,0.00,VWS V14.01,2013-03-09 17:05:00,
2013-03-10 07:06:00,54.7,43.6,30.27,North,355,1.0,5.0,66,0.00,,BKN050,0.00,VWS V14.01,2013-03-09 17:06:00,
2013-03-10 07:07:00,54.9,43.8,30.27,North,350,4.0,5.0,66,0.00,,BKN050,0.00,VWS V14.01,2013-03-09 17:07:00,
2013-03-10 07:08:00,54.8,43.3,30.27,NNW,338,6.0,6.0,65,0.00,,BKN050,0.00,VWS V14.01,2013-03-09 17:08:00,
2013-03-10 07:09:00,51.6,45.0,30.26,West,261,1.0,2.0,78,0.00,,FEW020,0.00,VWS V14.01,2013-03-09 17:09:00,
2013-03-10 07:10:00,54.8,43.3,30.27,North,360,2.0,8.0,65,0.00,,BKN050,0.00,VWS V14.01,2013-03-09 17:10:00,
2013-03-10 07:12:00,54.7,43.2,30.27,North,355,4.0,6.0,65,0.00,,BKN050,0.00,VWS V14.01,2013-03-09 17:12:00,
2013-03-10 07:13:00,54.7,43.6,30.27,WNW,292,1.0,5.0,66,0.00,,BKN050,0.00,VWS V14.01,2013-03-09 17:13:00,
2013-03-10 07:14:00,52.3,45.3,30.26,West,262,3.0,5.0,77,0.00,,FEW020,0.00,VWS V14.01,2013-03-09 17:14:00,
2013-03-10 07:15:00,55.1,44.0,30.27,NW,310,4.0,6.0,66,0.00,,BKN050,0.00,VWS V14.01,2013-03-09 17:15:00,
2013-03-10 07:16:00,55.2,43.7,30.27,West,260,3.0,8.0,65,0.00,,BKN050,0.00,VWS V14.01,2013-03-09 17:16:00,
2013-03-10 07:17:00,55.4,44.2,30.27,NNW,330,6.0,6.0,66,0.00,,BKN050,0.00,VWS V14.01,2013-03-09 17:17:00,
2013-03-10 07:18:00,55.4,43.8,30.27,WNW,289,4.0,6.0,65,0.00,,BKN050,0.00,VWS V14.01,2013-03-09 17:18:00,
2013-03-10 07:19:00,52.0,44.7,30.26,WNW,284,3.0,3.0,76,0.00,,FEW020,0.00,VWS V14.01,2013-03-09 17:19:00,
2013-03-10 07:20:00,55.4,43.4,30.27,NW,304,4.0,5.0,64,0.00,,BKN050,0.00,VWS V14.01,2013-03-09 17:20:00,
2013-03-10 07:21:00,55.4,43.4,30.27,NW,321,9.0,10.0,64,0.00,,BKN050,0.00,VWS V14.01,2013-03-09 17:21:00,
2013-03-10 07:22:00,55.3,42.5,30.28,WNW,300,3.0,9.0,62,0.00,,BKN050,0.00,VWS V14.01,2013-03-09 17:22:00,
2013-03-10 07:23:00,55.2,42.4,30.28,WNW,296,0.0,8.0,62,0.00,,BKN050,0.00,VWS V14.01,2013-03-09 17:23:00,
2013-03-10 07:24:00,52.6,44.9,30.26,WNW,286,2.0,2.0,75,0.00,,FEW020,0.00,VWS V14.01,2013-03-09 17:24:00,
2013-03-10 07:25:00,55.4,43.0,30.28,WNW,298,3.0,8.0,63,0.00,,BKN050,0.00,VWS V14.01,2013-03-09 17:25:00,
2013-03-10 07:26:00,55.4,43.0,30.27,NW,316,6.0,9.0,63,0.00,,BKN050,0.00,VWS V14.01,2013-03-09 17:26:00,
2013-03-10 07:27:00,55.3,42.5,30.27,NW,313,4.0,6.0,62,0.00,,BKN050,0.00,VWS V14.01,2013-03-09 17:27:00,
2013-03-10 07:28:00,55.3,42.5,30.27,NW,315,7.0,9.0,62,0.00,,BKN050,0.00,VWS V14.01,2013-03-09 17:28:00,
2013-03-10 07:29:00,53.2,44.8,30.27,NW,315,2.0,4.0,73,0.00,,FEW020,0.00,VWS V14.01,2013-03-09 17:29:00,
2013-03-10 07:30:00,55.5,43.1,30.27,West,276,4.0,4.0,63,0.00,,BKN050,0.00,VWS V14.01,2013-03-09 17:30:00,
2013-03-10 07:31:00,55.7,42.9,30.27,WNW,291,3.0,5.0,62,0.00,,BKN050,0.00,VWS V14.01,2013-03-09 17:31:00,
2013-03-10 07:32:00,55.9,43.1,30.27,NNW,337,6.0,8.0,62,0.00,,BKN050,0.00,VWS V14.01,2013-03-09 17:32:00,
2013-03-10 07:33:00,55.9,43.1,30.27,WNW,292,5.0,7.0,62,0.00,,BKN050,0.00,VWS V14.01,2013-03-09 17:33:00,
2013-03-10 07:34:00,53.1,44.3,30.27,WSW,258,3.0,5.0,72,0.00,,FEW020,0.00,VWS V14.01,2013-03-09 17:34:00,
2013-03-10 07:35:00,56.0,43.2,30.27,NNW,339,5.0,7.0,62,0.00,,BKN050,0.00,VWS V14.01,2013-03-09 17:35:00,
2013-03-10 07:36:00,56.0,42.8,30.27,NNW,331,5.0,7.0,61,0.00,,BKN050,0.00,VWS V14.01,2013-03-09 17:36:00,
2013-03-10 07:37:00,55.9,42.7,30.27,NNE,15,3.0,8.0,61,0.00,,BKN050,0.00,VWS V14.01,2013-03-09 17:37:00,
2013-03-10 07:38:00,55.9,42.7,30.27,NW,316,6.0,7.0,61,0.00,,BKN050,0.00,VWS V14.01,2013-03-09 17:38:00,
2013-03-10 07:39:00,53.4,44.6,30.27,NNW,341,0.0,2.0,72,0.00,,FEW020,0.00,VWS V14.01,2013-03-09 17:39:00,
2013-03-10 07:40:00,55.9,42.2,30.27,NW,314,5.0,8.0,60,0.00,,BKN050,0.00,VWS V14.01,2013-03-09 17:40:00,
2013-03-10 07:41:00,55.9,42.2,30.27,NW,307,5.0,9.0,60,0.00,,BKN050,0.00,VWS V14.01,2013-03-09 17:41:00,
2013-03-10 07:42:00,56.0,42.8,30.27,NW,323,9.0,10.0,61,0.00,,BKN050,0.00,VWS V14.01,2013-03-09 17:42:00,
2013-03-10 07:43:00,56.1,42.4,30.27,NNW,343,3.0,9.0,60,0.00,,BKN050,0.00,VWS V14.01,2013-03-09 17:43:00,
2013-03-10 07:44:00,53.9,44.3,30.27,NW,314,1.0,3.0,70,0.00,,FEW020,0.00,VWS V14.01,2013-03-09 17:44:00,
2013-03-10 07:45:00,55.9,42.7,30.27,NNW,347,1.0,4.0,61,0.00,,BKN050,0.00,VWS V14.01,2013-03-09 17:45:00,
2013-03-10 07:46:00,56.1,42.8,30.27,North,355,2.0,3.0,61,0.00,,BKN050,0.00,VWS V14.01,2013-03-09 17:46:00,
2013-03-10 07:47:00,56.2,42.9,30.28,NNW,332,5.0,9.0,61,0.00,,BKN050,0.00,VWS V14.01,2013-03-09 17:47:00,
2013-03-10 07:48:00,56.3,42.6,30.28,NNE,16,3.0,6.0,60,0.00,,BKN050,0.00,VWS V14.01,2013-03-09 17:48:00,
2013-03-10 07:49:00,54.1,44.2,30.27,WNW,292,2.0,3.0,69,0.00,,FEW020,0.00,VWS V14.01,2013-03-09 17:49:00,
2013-03-10 07:50:00,56.7,43.0,30.28,North,360,3.0,3.0,60,0.00,,BKN050,0.00,VWS V14.01,2013-03-09 17:50:00,
2013-03-10 07:51:00,56.8,42.6,30.28,North,360,1.0,3.0,59,0.00,,BKN050,0.00,VWS V14.01,2013-03-09 17:51:00,
2013-03-10 07:52:00,57.0,43.3,30.28,NNW,339,3.0,5.0,60,0.00,,BKN050,0.00,VWS V14.01,2013-03-09 17:52:00,
2013-03-10 07:53:00,57.1,42.9,30.28,North,350,3.0,6.0,59,0.00,,BKN050,0.00,VWS V14.01,2013-03-09 17:53:00,
2013-03-10 07:54:00,54.0,43.7,30.27,NW,322,2.0,2.0,68,0.00,,FEW020,0.00,VWS V14.01,2013-03-09 17:54:00,
2013-03-10 07:55:00,57.0,42.4,30.28,NNW,341,3.0,10.0,58,0.00,,BKN050,0.00,VWS V14.01,2013-03-09 17:55:00,
2013-03-10 07:56:00,56.9,41.8,30.28,North,351,2.0,5.0,57,0.00,,BKN050,0.00,VWS V14.01,2013-03-09 17:56:00,
2013-03-10 07:57:00,56.9,42.3,30.28,NNW,348,1.0,4.0,58,0.00,,BKN050,0.00,VWS V14.01,2013-03-09 17:57:00,
2013-03-10 07:59:00,54.4,43.7,30.27,NNW,348,1.0,4.0,67,0.00,,FEW020,0.00,VWS V14.01,2013-03-09 17:59:00,
2013-03-10 08:00:00,57.5,42.4,30.28,NW,309,3.0,5.0,57,0.00,,BKN050,0.00,VWS V14.01,2013-03-09 18:00:00,
2013-03-10 08:01:00,57.6,43.0,30.28,WNW,290,1.0,3.0,58,0.00,,BKN050,0.00,VWS V14.01,2013-03-09 18:01:00,
2013-03-10 08:02:00,57.8,42.7,30.28,NW,320,2.0,5.0,57,0.00,,BKN050,0.00,VWS V14.01,2013-03-09 18:02:00,
2013-03-10 08:03:00,57.9,42.8,30.28,NNE,22,2.0,3.0,57,0.00,,BKN050,0.00,VWS V14.01,2013-03-09 18:03:00,
2013-03-10 08:04:00,54.7,44.0,30.27,North,355,3.0,5.0,67,0.00,,FEW020,0.00,VWS V14.01,2013-03-09 18:04:00,
2013-03-10 08:05:00,58.1,43.0,30.28,NNW,344,2.0,5.0,57,0.00,,BKN050,0.00,VWS V14.01,2013-03-09 18:05:00,
2013-03-10 08:06:00,58.4,43.2,30.28,NW,313,3.0,5.0,57,0.00,,BKN050,0.00,VWS V14.01,2013-03-09 18:06:00,
2013-03-10 08:07:00,58.8,43.6,30.28,NW,315,0.0,4.0,57,0.00,,BKN050,0.00,VWS V14.01,2013-03-09 18:07:00,
2013-03-10 08:08:00,59.1,43.9,30.28,WNW,299,4.0,4.0,57,0.00,,BKN050,0.00,VWS V14.01,2013-03-09 18:08:00,
2013-03-10 08:09:00,54.8,43.3,30.27,NW,323,5.0,5.0,65,0.00,,FEW020,0.00,VWS V14.01,2013-03-09 18:09:00,
2013-03-10 08:10:00,59.3,43.2,30.28,NW,318,7.0,9.0,55,0.00,,BKN050,0.00,VWS V14.01,2013-03-09 18:10:00,
2013-03-10 08:11:00,59.1,42.5,30.28,North,355,4.0,7.0,54,0.00,,BKN050,0.00,VWS V14.01,2013-03-09 18:11:00,
2013-03-10 08:12:00,58.8,42.2,30.28,NNE,18,4.0,4.0,54,0.00,,BKN050,0.00,VWS V14.01,2013-03-09 18:12:00,
2013-03-10 08:13:00,58.5,42.4,30.28,NNW,340,6.0,7.0,55,0.00,,BKN050,0.00,VWS V14.01,2013-03-09 18:13:00,
2013-03-10 08:14:00,55.2,44.0,30.27,WSW,246,7.0,7.0,66,0.00,,FEW020,0.00,VWS V14.01,2013-03-09 18:14:00,
2013-03-10 08:15:00,58.1,42.5,30.28,NNW,333,3.0,7.0,56,0.00,,BKN050,0.00,VWS V14.01,2013-03-09 18:15:00,
2013-03-10 08:16:00,57.9,42.3,30.28,NNW,338,5.0,7.0,56,0.00,,BKN050,0.00,VWS V14.01,2013-03-09 18:16:00,
2013-03-10 08:17:00,57.8,42.7,30.28,WNW,302,6.0,10.0,57,0.00,,BKN050,0.00,VWS V14.01,2013-03-09 18:17:00,
2013-03-10 08:18:00,57.8,42.7,30.28,NNE,20,2.0,8.0,57,0.00,,BKN050,0.00,VWS V14.01,2013-03-09 18:18:00,
2013-03-10 08:19:00,55.4,43.4,30.27,WNW,299,4.0,5.0,64,0.00,,FEW020,0.00,VWS V14.01,2013-03-09 18:19:00,
2013-03-10 08:20:00,57.6,42.0,30.28,North,355,2.0,6.0,56,0.00,,BKN050,0.00,VWS V14.01,2013-03-09 18:20:00,
2013-03-10 08:21:00,57.6,42.5,30.28,North,355,1.0,3.0,57,0.00,,BKN050,0.00,VWS V14.01,2013-03-09 18:21:00,
2013-03-10 08:22:00,57.8,42.7,30.28,North,350,2.0,5.0,57,0.00,,BKN050,0.00,VWS V14.01,2013-03-09 18:22:00,
2013-03-10 08:23:00,57.9,42.8,30.28,North,350,3.0,6.0,57,0.00,,BKN050,0.00,VWS V14.01,2013-03-09 18:23:00,
2013-03-10 08:24:00,55.4,43.0,30.27,NW,326,5.0,9.0,63,0.00,,FEW020,0.00,VWS V14.01,2013-03-09 18:24:00,
2013-03-10 08:25:00,58.3,42.7,30.28,NNW,329,5.0,7.0,56,0.00,,BKN050,0.00,VWS V14.01,2013-03-09 18:25:00,
2013-03-10 08:26:00,58.2,41.2,30.28,North,9,2.0,10.0,53,0.00,,BKN050,0.00,VWS V14.01,2013-03-09 18:26:00,
2013-03-10 08:27:00,58.4,41.3,30.28,NNE,15,4.0,4.0,53,0.00,,BKN050,0.00,VWS V14.01,2013-03-09 18:27:00,
2013-03-10 08:28:00,58.4,40.9,30.28,WNW,300,1.0,10.0,52,0.00,,BKN050,0.00,VWS V14.01,2013-03-09 18:28:00,
2013-03-10 08:29:00,55.6,42.8,30.27,NW,318,2.0,4.0,62,0.00,,FEW020,0.00,VWS V14.01,2013-03-09 18:29:00,
2013-03-10 08:30:00,58.9,42.3,30.28,NW,317,8.0,9.0,54,0.00,,BKN050,0.00,VWS V14.01,2013-03-09 18:30:00,
2013-03-10 08:31:00,58.9,40.8,30.28,NNE,30,3.0,11.0,51,0.00,,BKN050,0.00,VWS V14.01,2013-03-09 18:31:00,
2013-03-10 08:32:00,58.8,41.2,30.28,NNW,336,7.0,7.0,52,0.00,,BKN050,0.00,VWS V14.01,2013-03-09 18:32:00,
2013-03-10 08:33:00,58.7,41.1,30.28,North,5,5.0,7.0,52,0.00,,BKN050,0.00,VWS V14.01,2013-03-09 18:33:00,
2013-03-10 08:34:00,56.0,43.2,30.27,North,5,7.0,7.0,62,0.00,,FEW020,0.00,VWS V14.01,2013-03-09 18:34:00,
2013-03-10 08:35:00,58.7,41.1,30.28,NW,311,4.0,9.0,52,0.00,,BKN050,0.00,VWS V14.01,2013-03-09 18:35:00,
2013-03-10 08:36:00,58.6,40.5,30.28,North,349,3.0,5.0,51,0.00,,BKN050,0.00,VWS V14.01,2013-03-09 18:36:00,
2013-03-10 08:37:00,58.8,41.2,30.28,NNW,328,4.0,5.0,52,0.00,,BKN050,0.00,VWS V14.01,2013-03-09 18:37:00,
2013-03-10 08:38:00,59.0,40.9,30.28,NNW,339,4.0,6.0,51,0.00,,BKN050,0.00,VWS V14.01,2013-03-09 18:38:00,
2013-03-10 08:39:00,56.0,42.3,30.27,NW,326,4.0,9.0,60,0.00,,FEW020,0.00,VWS V14.01,2013-03-09 18:39:00,
2013-03-10 08:40:00,59.4,41.3,30.28,NNE,24,4.0,6.0,51,0.00,,BKN050,0.00,VWS V14.01,2013-03-09 18:40:00,
2013-03-10 08:41:00,59.3,40.2,30.28,NNE,27,5.0,8.0,49,0.00,,BKN050,0.00,VWS V14.01,2013-03-09 18:41:00,
2013-03-10 08:42:00,59.1,39.5,30.28,NNE,19,2.0,5.0,48,0.00,,BKN050,0.00,VWS V14.01,2013-03-09 18:42:00,
2013-03-10 08:43:00,59.0,39.4,30.28,NE,46,3.0,6.0,48,0.00,,BKN050,0.00,VWS V14.01,2013-03-09 18:43:00,
2013-03-10 08:44:00,56.0,42.8,30.27,North,355,2.0,2.0,61,0.00,,FEW020,0.00,VWS V14.01,2013-03-09 18:44:00,
2013-03-10 08:45:00,58.9,39.8,30.28,NNE,15,1.0,7.0,49,0.00,,BKN050,0.00,VWS V14.01,2013-03-09 18:45:00,
2013-03-10 08:46:00,58.9,39.8,30.28,NNW,346,5.0,9.0,49,0.00,,BKN050,0.00,VWS V14.01,2013-03-09 18:46:00,
2013-03-10 08:47:00,59.1,40.0,30.28,NNW,346,1.0,5.0,49,0.00,,BKN050,0.00,VWS V14.01,2013-03-09 18:47:00,
2013-03-10 08:48:00,59.7,41.0,30.28,North,355,2.0,2.0,50,0.00,,BKN050,0.00,VWS V14.01,2013-03-09 18:48:00,
2013-03-10 08:49:00,56.7,42.5,30.28,North,360,2.0,3.0,59,0.00,,FEW020,0.00,VWS V14.01,2013-03-09 18:49:00,
2013-03-10 08:50:00,59.8,40.6,30.28,NNE,23,3.0,5.0,49,0.00,,BKN050,0.00,VWS V14.01,2013-03-09 18:50:00,
2013-03-10 08:51:00,59.6,39.9,30.28,NE,36,1.0,4.0,48,0.00,,BKN050,0.00,VWS V14.01,2013-03-09 18:51:00,
2013-03-10 08:52:00,59.7,40.5,30.28,NNW,339,6.0,10.0,49,0.00,,BKN050,0.00,VWS V14.01,2013-03-09 18:52:00,
2013-03-10 08:53:00,59.6,39.9,30.29,NNE,32,5.0,10.0,48,0.00,,BKN050,0.00,VWS V14.01,2013-03-09 18:53:00,
2013-03-10 08:54:00,56.9,41.8,30.28,North,5,1.0,5.0,57,0.00,,FEW020,0.00,VWS V14.01,2013-03-09 18:54:00,
2013-03-10 08:55:00,59.5,39.8,30.29,North,11,1.0,5.0,48,0.00,,BKN050,0.00,VWS V14.01,2013-03-09 18:55:00,
2013-03-10 08:56:00,59.6,40.4,30.29,NNE,15,2.0,3.0,49,0.00,,BKN050,0.00,VWS V14.01,2013-03-09 18:56:00,
2013-03-10 08:57:00,59.7,39.5,30.29,NNE,24,3.0,4.0,47,0.00,,BKN050,0.00,VWS V14.01,2013-03-09 18:57:00,
2013-03-10 08:58:00,59.6,39.9,30.29,NNW,343,3.0,9.0,48,0.00,,BKN050,0.00,VWS V14.01,2013-03-09 18:58:00,
2013-03-10 08:59:00,57.5,42.8,30.28,WNW,290,2.0,3.0,58,0.00,,FEW020,0.00,VWS V14.01,2013-03-09 18:59:00,
2013-03-10 09:00:00,59.6,39.4,30.29,North,355,6.0,8.0,47,0.00,,BKN050,0.00,VWS V14.01,2013-03-09 19:00:00,
2013-03-10 09:01:00,59.4,39.2,30.29,NNW,348,3.0,7.0,47,0.00,,BKN050,0.00,VWS V14.01,2013-03-09 19:01:00,
2013-03-10 09:02:00,59.5,39.8,30.29,North,355,3.0,4.0,48,0.00,,BKN050,0.00,VWS V14.01,2013-03-09 19:02:00,
2013-03-10 09:03:00,59.5,39.3,30.29,NNW,348,4.0,9.0,47,0.00,,BKN050,0.00,VWS V14.01,2013-03-09 19:03:00,
2013-03-10 09:04:00,58.2,43.1,30.28,NNW,341,2.0,4.0,57,0.00,,FEW020,0.00,VWS V14.01,2013-03-09 19:04:00,
2013-03-10 09:05:00,59.6,39.4,30.29,NW,317,0.0,7.0,47,0.00,,BKN050,0.00,VWS V14.01,2013-03-09 19:05:00,
2013-03-10 09:06:00,60.2,40.5,30.29,North,360,2.0,2.0,48,0.00,,BKN050,0.00,VWS V14.01,2013-03-09 19:06:00,
2013-03-10 09:07:00,60.8,40.5,30.29,NW,313,7.0,8.0,47,0.00,,BKN050,0.00,VWS V14.01,2013-03-09 19:07:00,
2013-03-10 09:08:00,60.9,40.0,30.29,NNE,12,3.0,7.0,46,0.00,,BKN050,0.00,VWS V14.01,2013-03-09 19:08:00,
2013-03-10 09:09:00,59.3,43.2,30.28,NNW,341,3.0,7.0,55,0.00,,FEW020,0.00,VWS V14.01,2013-03-09 19:09:00,
2013-03-10 09:10:00,60.6,39.7,30.29,NNE,13,2.0,4.0,46,0.00,,BKN050,0.00,VWS V14.01,2013-03-09 19:10:00,
2013-03-10 09:11:00,60.4,39.5,30.29,NNE,13,1.0,2.0,46,0.00,,BKN050,0.00,VWS V14.01,2013-03-09 19:11:00,
2013-03-10 09:12:00,60.3,40.0,30.29,West,266,4.0,6.0,47,0.00,,BKN050,0.00,VWS V14.01,2013-03-09 19:12:00,
2013-03-10 09:13:00,60.3,40.0,30.28,NW,318,5.0,8.0,47,0.00,,BKN050,0.00,VWS V14.01,2013-03-09 19:13:00,
2013-03-10 09:14:00,58.0,42.4,30.28,NW,321,5.0,6.0,56,0.00,,FEW020,0.00,VWS V14.01,2013-03-09 19:14:00,
2013-03-10 09:15:00,60.5,40.2,30.28,NNW,327,2.0,3.0,47,0.00,,BKN050,0.00,VWS V14.01,2013-03-09 19:15:00,
2013-03-10 09:16:00,60.9,41.1,30.28,North,5,2.0,3.0,48,0.00,,BKN050,0.00,VWS V14.01,2013-03-09 19:16:00,
2013-03-10 09:17:00,61.0,40.7,30.28,North,11,3.0,5.0,47,0.00,,BKN050,0.00,VWS V14.01,2013-03-09 19:17:00,
2013-03-10 09:18:00,60.9,40.6,30.28,NNE,15,2.0,3.0,47,0.00,,BKN050,0.00,VWS V14.01,2013-03-09 19:18:00,
2013-03-10 09:19:00,57.6,42.0,30.28,North,355,2.0,2.0,56,0.00,,FEW020,0.00,VWS V14.01,2013-03-09 19:19:00,
2013-03-10 09:20:00,60.7,40.4,30.28,NE,41,2.0,4.0,47,0.00,,BKN050,0.00,VWS V14.01,2013-03-09 19:20:00,
2013-03-10 09:21:00,60.6,40.8,30.28,NE,41,2.0,2.0,48,0.00,,BKN050,0.00,VWS V14.01,2013-03-09 19:21:00,
2013-03-10 09:22:00,60.8,41.0,30.28,NE,41,3.0,3.0,48,0.00,,BKN050,0.00,VWS V14.01,2013-03-09 19:22:00,
2013-03-10 09:23:00,60.9,40.6,30.28,WNW,296,4.0,5.0,47,0.00,,BKN050,0.00,VWS V14.01,2013-03-09 19:23:00,
2013-03-10 09:24:00,58.3,41.8,30.28,NW,319,10.0,10.0,54,0.00,,FEW020,0.00,VWS V14.01,2013-03-09 19:24:00,
2013-03-10 09:25:00,61.3,39.8,30.28,NW,309,4.0,6.0,45,0.00,,BKN050,0.00,VWS V14.01,2013-03-09 19:25:00,
2013-03-10 09:26:00,61.5,40.5,30.28,North,5,3.0,4.0,46,0.00,,BKN050,0.00,VWS V14.01,2013-03-09 19:26:00,
2013-03-10 09:27:00,61.7,39.6,30.28,North,11,2.0,7.0,44,0.00,,BKN050,0.00,VWS V14.01,2013-03-09 19:27:00,
2013-03-10 09:28:00,61.9,40.3,30.28,NW,321,1.0,3.0,45,0.00,,BKN050,0.00,VWS V14.01,2013-03-09 19:28:00,
2013-03-10 09:29:00,59.0,41.4,30.28,NNW,333,6.0,11.0,52,0.00,,FEW020,0.00,VWS V14.01,2013-03-09 19:29:00,
2013-03-10 09:30:00,62.2,39.5,30.28,NW,325,5.0,8.0,43,0.00,,BKN050,0.00,VWS V14.01,2013-03-09 19:30:00,
2013-03-10 09:31:00,62.1,40.0,30.28,NW,311,2.0,7.0,44,0.00,,BKN050,0.00,VWS V14.01,2013-03-09 19:31:00,
2013-03-10 09:32:00,62.0,39.9,30.28,WSW,246,6.0,10.0,44,0.00,,BKN050,0.00,VWS V14.01,2013-03-09 19:32:00,
2013-03-10 09:34:00,58.7,40.6,30.28,NNW,343,3.0,5.0,51,0.00,,FEW020,0.00,VWS V14.01,2013-03-09 19:34:00,
2013-03-10 09:35:00,61.8,39.7,30.28,WNW,287,2.0,5.0,44,0.00,,BKN050,0.00,VWS V14.01,2013-03-09 19:35:00,
2013-03-10 09:36:00,61.8,40.3,30.28,West,269,2.0,5.0,45,0.00,,BKN050,0.00,VWS V14.01,2013-03-09 19:36:00,
2013-03-10 09:37:00,61.9,40.3,30.28,NW,325,3.0,4.0,45,0.00,,BKN050,0.00,VWS V14.01,2013-03-09 19:37:00,
2013-03-10 09:38:00,62.0,40.4,30.28,NW,311,1.0,3.0,45,0.00,,BKN050,0.00,VWS V14.01,2013-03-09 19:38:00,
2013-03-10 09:39:00,59.4,40.2,30.28,NNW,337,4.0,5.0,49,0.00,,FEW020,0.00,VWS V14.01,2013-03-09 19:39:00,
2013-03-10 09:40:00,62.6,41.0,30.27,NNW,348,3.0,6.0,45,0.00,,BKN050,0.00,VWS V14.01,2013-03-09 19:40:00,
2013-03-10 09:41:00,62.7,41.1,30.27,NNE,24,1.0,4.0,45,0.00,,BKN050,0.00,VWS V14.01,2013-03-09 19:41:00,
2013-03-10 09:42:00,62.5,40.9,30.27,NNW,342,0.0,6.0,45,0.00,,BKN050,0.00,VWS V14.01,2013-03-09 19:42:00,
2013-03-10 09:43:00,62.5,40.9,30.27,NW,309,5.0,5.0,45,0.00,,BKN050,0.00,VWS V14.01,2013-03-09 19:43:00,
2013-03-10 09:44:00,58.9,39.8,30.28,NW,318,8.0,9.0,49,0.00,,FEW020,0.00,VWS V14.01,2013-03-09 19:44:00,
2013-03-10 09:45:00,62.2,40.0,30.27,NW,322,1.0,8.0,44,0.00,,BKN050,0.00,VWS V14.01,2013-03-09 19:45:00,
2013-03-10 09:46:00,62.3,40.7,30.27,North,355,7.0,7.0,45,0.00,,BKN050,0.00,VWS V14.01,2013-03-09 19:46:00,
2013-03-10 09:47:00,62.5,40.9,30.27,North,9,2.0,7.0,45,0.00,,BKN050,0.00,VWS V14.01,2013-03-09 19:47:00,
2013-03-10 09:48:00,62.8,41.2,30.27,North,355,8.0,8.0,45,0.00,,BKN050,0.00,VWS V14.01,2013-03-09 19:48:00,
2013-03-10 09:49:00,59.7,40.5,30.28,NE,36,2.0,4.0,49,0.00,,FEW020,0.00,VWS V14.01,2013-03-09 19:49:00,
2013-03-10 09:50:00,63.0,41.3,30.27,West,273,3.0,5.0,45,0.00,,BKN050,0.00,VWS V14.01,2013-03-09 19:50:00,
2013-03-10 09:51:00,62.9,40.7,30.27,North,360,9.0,9.0,44,0.00,,BKN050,0.00,VWS V14.01,2013-03-09 19:51:00,
2013-03-10 09:52:00,62.7,40.5,30.27,NNE,24,2.0,9.0,44,0.00,,BKN050,0.00,VWS V14.01,2013-03-09 19:52:00,
2013-03-10 09:53:00,62.5,40.9,30.27,NNE,30,3.0,8.0,45,0.00,,BKN050,0.00,VWS V14.01,2013-03-09 19:53:00,
2013-03-10 09:54:00,59.6,39.9,30.29,North,11,1.0,3.0,48,0.00,,FEW020,0.00,VWS V14.01,2013-03-09 19:54:00,
2013-03-10 09:55:00,62.3,40.7,30.27,NE,46,2.0,5.0,45,0.00,,BKN050,0.00,VWS V14.01,2013-03-09 19:55:00,
2013-03-10 09:56:00,62.5,41.5,30.27,NE,44,1.0,2.0,46,0.00,,BKN050,0.00,VWS V14.01,2013-03-09 19:56:00,
2013-03-10 09:57:00,63.0,41.9,30.27,NNW,344,6.0,7.0,46,0.00,,BKN050,0.00,VWS V14.01,2013-03-09 19:57:00,
2013-03-10 09:58:00,63.0,40.8,30.27,NNE,26,3.0,11.0,44,0.00,,BKN050,0.00,VWS V14.01,2013-03-09 19:58:00,
2013-03-10 09:59:00,59.5,39.3,30.29,NNW,332,6.0,6.0,47,0.00,,FEW020,0.00,VWS V14.01,2013-03-09 19:59:00,
2013-03-10 10:00:00,62.6,41.0,30.27,North,5,7.0,7.0,45,0.00,,BKN050,0.00,VWS V14.01,2013-03-09 20:00:00,
2013-03-10 10:01:00,62.6,41.0,30.26,NNE,17,1.0,7.0,45,0.00,,BKN050,0.00,VWS V14.01,2013-03-09 20:01:00,
2013-03-10 10:02:00,62.5,40.9,30.26,North,355,4.0,9.0,45,0.00,,BKN050,0.00,VWS V14.01,2013-03-09 20:02:00,
2013-03-10 10:03:00,62.4,40.8,30.26,NNW,331,5.0,9.0,45,0.00,,BKN050,0.00,VWS V14.01,2013-03-09 20:03:00,
2013-03-10 10:04:00,59.8,40.1,30.29,NW,317,0.0,1.0,48,0.00,,SKC,0.00,VWS V14.01,2013-03-09 20:04:00,
2013-03-10 10:05:00,62.4,40.8,30.26,North,351,3.0,4.0,45,0.00,,BKN050,0.00,VWS V14.01,2013-03-09 20:05:00,
2013-03-10 10:06:00,62.4,41.4,30.26,NE,49,5.0,5.0,46,0.00,,BKN050,0.00,VWS V14.01,2013-03-09 20:06:00,
2013-03-10 10:07:00,62.5,40.9,30.26,NNE,24,4.0,7.0,45,0.00,,BKN050,0.00,VWS V14.01,2013-03-09 20:07:00,
2013-03-10 10:08:00,62.5,40.9,30.27,NNW,340,4.0,8.0,45,0.00,,BKN050,0.00,VWS V14.01,2013-03-09 20:08:00,
2013-03-10 10:09:00,60.5,39.6,30.29,NNE,13,2.0,2.0,46,0.00,,SKC,0.00,VWS V14.01,2013-03-09 20:09:00,
2013-03-10 10:10:00,62.3,40.7,30.26,NW,326,4.0,9.0,45,0.00,,BKN050,0.00,VWS V14.01,2013-03-09 20:10:00,
2013-03-10 10:11:00,62.2,40.6,30.26,NW,307,8.0,10.0,45,0.00,,BKN050,0.00,VWS V14.01,2013-03-09 20:11:00,
2013-03-10 10:12:00,62.1,40.5,30.26,WNW,300,5.0,8.0,45,0.00,,BKN050,0.00,VWS V14.01,2013-03-09 20:12:00,
2013-03-10 10:13:00,62.1,41.1,30.26,NW,309,3.0,7.0,46,0.00,,BKN050,0.00,VWS V14.01,2013-03-09 20:13:00,
2013-03-10 10:14:00,60.7,40.4,30.28,NNW,327,0.0,2.0,47,0.00,,SKC,0.00,VWS V14.01,2013-03-09 20:14:00,
2013-03-10 10:15:00,62.4,40.8,30.26,North,355,6.0,7.0,45,0.00,,BKN050,0.00,VWS V14.01,2013-03-09 20:15:00,
2013-03-10 10:16:00,62.5,40.9,30.26,NNE,15,6.0,9.0,45,0.00,,BKN050,0.00,VWS V14.01,2013-03-09 20:16:00,
2013-03-10 10:17:00,62.6,41.0,30.26,West,275,7.0,10.0,45,0.00,,BKN050,0.00,VWS V14.01,2013-03-09 20:17:00,
2013-03-10 10:18:00,62.7,40.5,30.26,WNW,300,7.0,11.0,44,0.00,,BKN050,0.00,VWS V14.01,2013-03-09 20:18:00,
2013-03-10 10:19:00,60.6,40.3,30.28,NE,41,2.0,2.0,47,0.00,,SKC,0.00,VWS V14.01,2013-03-09 20:19:00,
2013-03-10 10:20:00,62.8,40.6,30.26,North,349,6.0,6.0,44,0.00,,BKN050,0.00,VWS V14.01,2013-03-09 20:20:00,
2013-03-10 10:21:00,62.8,40.6,30.26,NNW,327,5.0,6.0,44,0.00,,BKN050,0.00,VWS V14.01,2013-03-09 20:21:00,
2013-03-10 10:22:00,62.9,40.7,30.26,NNW,336,1.0,5.0,44,0.00,,BKN050,0.00,VWS V14.01,2013-03-09 20:22:00,
2013-03-10 10:23:00,63.3,41.0,30.26,NNW,333,6.0,11.0,44,0.00,,BKN050,0.00,VWS V14.01,2013-03-09 20:23:00,
2013-03-10 10:24:00,61.4,39.9,30.28,NW,320,2.0,4.0,45,0.00,,SKC,0.00,VWS V14.01,2013-03-09 20:24:00,
2013-03-10 10:25:00,63.2,41.0,30.26,NW,317,6.0,10.0,44,0.00,,BKN050,0.00,VWS V14.01,2013-03-09 20:25:00,
2013-03-10 10:26:00,63.3,41.0,30.26,NW,319,12.0,12.0,44,0.00,,BKN050,0.00,VWS V14.01,2013-03-09 20:26:00,
2013-03-10 10:27:00,63.3,40.4,30.26,NNW,333,5.0,12.0,43,0.00,,BKN050,0.00,VWS V14.01,2013-03-09 20:27:00,
2013-03-10 10:28:00,63.2,40.3,30.26,NNW,345,4.0,8.0,43,0.00,,BKN050,0.00,VWS V14.01,2013-03-09 20:28:00,
2013-03-10 10:29:00,62.2,39.5,30.28,NW,325,5.0,5.0,43,0.00,,SKC,0.00,VWS V14.01,2013-03-09 20:29:00,
2013-03-10 10:30:00,63.7,40.8,30.26,West,271,6.0,7.0,43,0.00,,BKN050,0.00,VWS V14.01,2013-03-09 20:30:00,
2013-03-10 10:31:00,63.9,41.0,30.26,North,350,3.0,6.0,43,0.00,,BKN050,0.00,VWS V14.01,2013-03-09 20:31:00,
2013-03-10 10:32:00,64.0,41.1,30.26,NNW,348,6.0,6.0,43,0.00,,BKN050,0.00,VWS V14.01,2013-03-09 20:32:00,
2013-03-10 10:33:00,63.9,41.0,30.26,North,360,5.0,8.0,43,0.00,,BKN050,0.00,VWS V14.01,2013-03-09 20:33:00,
2013-03-10 10:34:00,61.8,40.3,30.28,NNW,339,3.0,3.0,45,0.00,,SKC,0.00,VWS V14.01,2013-03-09 20:34:00,
2013-03-10 10:35:00,63.7,40.8,30.25,North,360,2.0,6.0,43,0.00,,BKN050,0.00,VWS V14.01,2013-03-09 20:35:00,
2013-03-10 10:36:00,63.6,40.7,30.25,NNW,328,4.0,6.0,43,0.00,,BKN050,0.00,VWS V14.01,2013-03-09 20:36:00,
2013-03-10 10:37:00,63.6,40.7,30.25,NNW,337,4.0,4.0,43,0.00,,BKN050,0.00,VWS V14.01,2013-03-09 20:37:00,
2013-03-10 10:38:00,63.7,40.8,30.25,North,360,5.0,7.0,43,0.00,,BKN050,0.00,VWS V14.01,2013-03-09 20:38:00,
2013-03-10 10:39:00,62.7,41.1,30.27,NNE,22,4.0,4.0,45,0.00,,SKC,0.00,VWS V14.01,2013-03-09 20:39:00,
2013-03-10 10:40:00,64.0,40.5,30.25,NW,325,6.0,11.0,42,0.00,,BKN050,0.00,VWS V14.01,2013-03-09 20:40:00,
2013-03-10 10:41:00,63.7,40.2,30.25,NNW,340,1.0,7.0,42,0.00,,BKN050,0.00,VWS V14.01,2013-03-09 20:41:00,
2013-03-10 10:42:00,63.8,40.9,30.25,NNW,348,6.0,7.0,43,0.00,,BKN050,0.00,VWS V14.01,2013-03-09 20:42:00,
2013-03-10 10:43:00,63.8,40.3,30.25,NNW,337,5.0,8.0,42,0.00,,BKN050,0.00,VWS V14.01,2013-03-09 20:43:00,
2013-03-10 10:44:00,62.2,40.0,30.27,NNW,346,4.0,4.0,44,0.00,,SKC,0.00,VWS V14.01,2013-03-09 20:44:00,
2013-03-10 10:45:00,63.9,40.4,30.25,NW,323,7.0,9.0,42,0.00,,BKN050,0.00,VWS V14.01,2013-03-09 20:45:00,
2013-03-10 10:46:00,63.9,40.4,30.25,NW,319,6.0,7.0,42,0.00,,BKN050,0.00,VWS V14.01,2013-03-09 20:46:00,
2013-03-10 10:47:00,64.0,40.5,30.25,WNW,283,0.0,6.0,42,0.00,,BKN050,0.00,VWS V14.01,2013-03-09 20:47:00,
2013-03-10 10:48:00,64.4,41.4,30.25,NW,321,1.0,3.0,43,0.00,,BKN050,0.00,VWS V14.01,2013-03-09 20:48:00,
2013-03-10 10:49:00,62.9,41.3,30.27,West,273,1.0,3.0,45,0.00,,SKC,0.00,VWS V14.01,2013-03-09 20:49:00,
2013-03-10 10:50:00,64.8,41.2,30.25,NNE,14,0.0,4.0,42,0.00,,BKN050,0.00,VWS V14.01,2013-03-09 20:50:00,
2013-03-10 10:51:00,65.3,42.2,30.25,North,5,3.0,3.0,43,0.00,,BKN050,0.00,VWS V14.01,2013-03-09 20:51:00,
2013-03-10 10:52:00,65.4,41.1,30.25,NNW,348,5.0,5.0,41,0.00,,BKN050,0.00,VWS V14.01,2013-03-09 20:52:00,
2013-03-10 10:53:00,65.4,41.1,30.25,West,269,2.0,5.0,41,0.00,,BKN050,0.00,VWS V14.01,2013-03-09 20:53:00,
2013-03-10 10:54:00,62.3,40.7,30.27,NE,46,1.0,2.0,45,0.00,,SKC,0.00,VWS V14.01,2013-03-09 20:54:00,
2013-03-10 10:55:00,64.9,41.3,30.25,North,11,5.0,6.0,42,0.00,,BKN050,0.00,VWS V14.01,2013-03-09 20:55:00,
2013-03-10 10:56:00,64.9,40.7,30.25,West,271,4.0,5.0,41,0.00,,BKN050,0.00,VWS V14.01,2013-03-09 20:56:00,
2013-03-10 10:58:00,65.3,41.0,30.25,NW,313,5.0,5.0,41,0.00,,BKN050,0.00,VWS V14.01,2013-03-09 20:58:00,
2013-03-10 10:59:00,62.6,41.0,30.27,North,5,5.0,7.0,45,0.00,,SKC,0.00,VWS V14.01,2013-03-09 20:59:00,
2013-03-10 11:01:00,65.7,40.7,30.25,North,5,8.0,8.0,40,0.00,,BKN050,0.00,VWS V14.01,2013-03-09 21:01:00,
2013-03-10 11:03:00,65.4,39.8,30.25,North,355,6.0,6.0,39,0.00,,BKN050,0.00,VWS V14.01,2013-03-09 21:03:00,
2013-03-10 11:04:00,62.4,40.8,30.26,North,355,2.0,3.0,45,0.00,,CLR,0.00,VWS V14.01,2013-03-09 21:04:00,
2013-03-10 11:05:00,65.3,40.4,30.25,NW,321,0.0,3.0,40,0.00,,BKN050,0.00,VWS V14.01,2013-03-09 21:05:00,
2013-03-10 11:06:00,65.5,41.2,30.25,NNW,337,3.0,3.0,41,0.00,,BKN050,0.00,VWS V14.01,2013-03-09 21:06:00,
2013-03-10 11:07:00,65.8,40.8,30.25,NW,319,1.0,4.0,40,0.00,,BKN050,0.00,VWS V14.01,2013-03-09 21:07:00,
2013-03-10 11:08:00,65.9,40.9,30.25,NW,319,2.0,2.0,40,0.00,,BKN050,0.00,VWS V14.01,2013-03-09 21:08:00,
2013-03-10 11:09:00,62.3,40.7,30.26,NNW,329,6.0,7.0,45,0.00,,CLR,0.00,VWS V14.01,2013-03-09 21:09:00,
2013-03-10 11:10:00,66.3,40.6,30.25,NW,321,1.0,6.0,39,0.00,,BKN050,0.00,VWS V14.01,2013-03-09 21:10:00,
2013-03-10 11:11:00,66.2,40.5,30.25,NW,325,1.0,3.0,39,0.00,,BKN050,0.00,VWS V14.01,2013-03-09 21:11:00,
2013-03-10 11:12:00,66.4,41.4,30.25,NW,315,6.0,6.0,40,0.00,,BKN050,0.00,VWS V14.01,2013-03-09 21:12:00,
2013-03-10 11:13:00,66.5,41.5,30.25,NNW,346,4.0,7.0,40,0.00,,BKN050,0.00,VWS V14.01,2013-03-09 21:13:00,
2013-03-10 11:14:00,62.5,40.9,30.26,North,360,8.0,8.0,45,0.00,,CLR,0.00,VWS V14.01,2013-03-09 21:14:00,
2013-03-10 11:15:00,66.5,41.5,30.25,NW,309,2.0,3.0,40,0.00,,BKN050,0.00,VWS V14.01,2013-03-09 21:15:00,
2013-03-10 11:16:00,66.9,42.5,30.25,NNW,342,6.0,6.0,41,0.00,,BKN050,0.00,VWS V14.01,2013-03-09 21:16:00,
2013-03-10 11:17:00,66.8,41.1,30.25,North,9,2.0,8.0,39,0.00,,BKN050,0.00,VWS V14.01,2013-03-09 21:17:00,
2013-03-10 11:18:00,66.5,41.5,30.25,NNW,334,4.0,6.0,40,0.00,,BKN050,0.00,VWS V14.01,2013-03-09 21:18:00,
2013-03-10 11:19:00,62.8,40.6,30.26,North,5,3.0,6.0,44,0.00,,CLR,0.00,VWS V14.01,2013-03-09 21:19:00,
2013-03-10 11:20:00,66.4,41.4,30.25,NW,322,6.0,6.0,40,0.00,,BKN050,0.00,VWS V14.01,2013-03-09 21:20:00,
2013-03-10 11:21:00,66.4,40.7,30.25,NNW,344,3.0,9.0,39,0.00,,BKN050,0.00,VWS V14.01,2013-03-09 21:21:00,
2013-03-10 11:22:00,66.1,41.7,30.25,North,355,3.0,5.0,41,0.00,,BKN050,0.00,VWS V14.01,2013-03-09 21:22:00,
2013-03-10 11:23:00,66.3,42.5,30.25,NNW,334,3.0,3.0,42,0.00,,BKN050,0.00,VWS V14.01,2013-03-09 21:23:00,
2013-03-10 11:24:00,63.2,41.0,30.26,NNE,24,4.0,7.0,44,0.00,,CLR,0.00,VWS V14.01,2013-03-09 21:24:00,
2013-03-10 11:25:00,66.2,41.2,30.25,NNW,327,2.0,8.0,40,0.00,,BKN050,0.00,VWS V14.01,2013-03-09 21:25:00,
2013-03-10 11:26:00,66.1,40.5,30.25,NW,323,7.0,7.0,39,0.00,,BKN050,0.00,VWS V14.01,2013-03-09 21:26:00,
2013-03-10 11:27:00,66.1,40.5,30.25,West,277,4.0,7.0,39,0.00,,BKN050,0.00,VWS V14.01,2013-03-09 21:27:00,
2013-03-10 11:28:00,65.9,40.3,30.25,NW,313,2.0,5.0,39,0.00,,BKN050,0.00,VWS V14.01,2013-03-09 21:28:00,
2013-03-10 11:29:00,63.7,40.8,30.26,NNW,341,3.0,6.0,43,0.00,,CLR,0.00,VWS V14.01,2013-03-09 21:29:00,
2013-03-10 11:30:00,65.9,40.3,30.25,NNE,15,2.0,9.0,39,0.00,,BKN050,0.00,VWS V14.01,2013-03-09 21:30:00,
2013-03-10 11:31:00,65.7,40.7,30.25,North,360,5.0,5.0,40,0.00,,BKN050,0.00,VWS V14.01,2013-03-09 21:31:00,
2013-03-10 11:32:00,65.4,40.5,30.25,WNW,301,3.0,5.0,40,0.00,,BKN050,0.00,VWS V14.01,2013-03-09 21:32:00,
2013-03-10 11:34:00,63.6,40.7,30.25,NNW,338,4.0,4.0,43,0.00,,CLR,0.00,VWS V14.01,2013-03-09 21:34:00,
2013-03-10 11:35:00,66.1,41.1,30.25,West,275,1.0,2.0,40,0.00,,BKN050,0.00,VWS V14.01,2013-03-09 21:35:00,
2013-03-10 11:37:00,66.4,40.7,30.25,West,264,5.0,7.0,39,0.00,,BKN050,0.00,VWS V14.01,2013-03-09 21:37:00,
2013-03-10 11:38:00,66.5,41.5,30.25,NW,319,4.0,5.0,40,0.00,,BKN050,0.00,VWS V14.01,2013-03-09 21:38:00,
2013-03-10 11:39:00,63.9,40.4,30.25,NNW,332,4.0,6.0,42,0.00,,CLR,0.00,VWS V14.01,2013-03-09 21:39:00,
2013-03-10 11:40:00,66.4,41.4,30.25,NNW,327,3.0,4.0,40,0.00,,BKN050,0.00,VWS V14.01,2013-03-09 21:40:00,
2013-03-10 11:41:00,66.3,40.6,30.25,WNW,299,4.0,5.0,39,0.00,,BKN050,0.00,VWS V14.01,2013-03-09 21:41:00,
2013-03-10 11:42:00,66.2,41.2,30.25,NW,313,2.0,4.0,40,0.00,,BKN050,0.00,VWS V14.01,2013-03-09 21:42:00,
2013-03-10 11:44:00,63.9,40.4,30.25,WNW,300,4.0,7.0,42,0.00,,CLR,0.00,VWS V14.01,2013-03-09 21:44:00,
2013-03-10 11:46:00,66.9,41.2,30.25,NNW,346,2.0,8.0,39,0.00,,BKN050,0.00,VWS V14.01,2013-03-09 21:46:00,
2013-03-10 11:47:00,66.7,41.6,30.25,North,360,1.0,4.0,40,0.00,,BKN050,0.00,VWS V14.01,2013-03-09 21:47:00,
2013-03-10 11:48:00,66.8,41.7,30.25,NNW,339,7.0,9.0,40,0.00,,BKN050,0.00,VWS V14.01,2013-03-09 21:48:00,
2013-03-10 11:49:00,64.9,41.9,30.25,NNE,14,0.0,1.0,43,0.00,,CLR,0.00,VWS V14.01,2013-03-09 21:49:00,
2013-03-10 11:50:00,66.8,41.7,30.25,NNW,339,2.0,3.0,40,0.00,,BKN050,0.00,VWS V14.01,2013-03-09 21:50:00,
2013-03-10 11:51:00,67.0,41.9,30.25,NNW,333,4.0,7.0,40,0.00,,BKN050,0.00,VWS V14.01,2013-03-09 21:51:00,
2013-03-10 11:52:00,66.9,41.8,30.25,West,280,1.0,7.0,40,0.00,,BKN050,0.00,VWS V14.01,2013-03-09 21:52:00,
2013-03-10 11:53:00,66.8,41.7,30.25,NW,317,5.0,6.0,40,0.00,,BKN050,0.00,VWS V14.01,2013-03-09 21:53:00,
2013-03-10 11:54:00,65.0,41.4,30.25,NNE,16,3.0,5.0,42,0.00,,CLR,0.00,VWS V14.01,2013-03-09 21:54:00,
2013-03-10 11:55:00,66.9,41.8,30.25,NW,319,4.0,5.0,40,0.00,,BKN050,0.00,VWS V14.01,2013-03-09 21:55:00,
2013-03-10 11:56:00,66.8,41.7,30.25,NW,325,2.0,6.0,40,0.00,,BKN050,0.00,VWS V14.01,2013-03-09 21:56:00,
2013-03-10 11:57:00,67.0,41.9,30.25,NNW,333,4.0,6.0,40,0.00,,BKN050,0.00,VWS V14.01,2013-03-09 21:57:00,
2013-03-10 11:59:00,65.7,40.7,30.25,NW,321,2.0,4.0,40,0.00,,CLR,0.00,VWS V14.01,2013-03-09 21:59:00,
2013-03-10 12:01:00,67.4,40.9,30.25,NNW,331,1.0,2.0,38,0.00,,BKN050,0.00,VWS V14.01,2013-03-09 22:01:00,
2013-03-10 12:02:00,67.6,41.1,30.25,NW,323,8.0,9.0,38,0.00,,BKN050,0.00,VWS V14.01,2013-03-09 22:02:00,
2013-03-10 12:03:00,67.4,40.2,30.25,West,269,2.0,8.0,37,0.00,,BKN050,0.00,VWS V14.01,2013-03-09 22:03:00,
2013-03-10 12:04:00,65.3,40.4,30.25,NW,321,0.0,0.0,40,0.00,,CLR,0.00,VWS V14.01,2013-03-09 22:04:00,
2013-03-10 12:05:00,66.8,39.7,30.25,NNW,331,4.0,5.0,37,0.00,,BKN050,0.00,VWS V14.01,2013-03-09 22:05:00,
2013-03-10 12:06:00,66.9,39.8,30.26,NNW,348,5.0,7.0,37,0.00,,BKN050,0.00,VWS V14.01,2013-03-09 22:06:00,
2013-03-10 12:07:00,66.8,39.7,30.26,NNW,333,2.0,8.0,37,0.00,,BKN050,0.00,VWS V14.01,2013-03-09 22:07:00,
2013-03-10 12:08:00,66.8,39.7,30.26,North,9,5.0,9.0,37,0.00,,BKN050,0.00,VWS V14.01,2013-03-09 22:08:00,
2013-03-10 12:09:00,66.3,40.6,30.25,NW,326,2.0,3.0,39,0.00,,CLR,0.00,VWS V14.01,2013-03-09 22:09:00,
2013-03-10 12:10:00,66.3,40.0,30.26,WNW,299,4.0,9.0,38,0.00,,BKN050,0.00,VWS V14.01,2013-03-09 22:10:00,
2013-03-10 12:11:00,66.1,39.1,30.25,NNW,341,5.0,8.0,37,0.00,,BKN050,0.00,VWS V14.01,2013-03-09 22:11:00,
2013-03-10 12:12:00,65.9,39.6,30.26,NW,321,1.0,5.0,38,0.00,,BKN050,0.00,VWS V14.01,2013-03-09 22:12:00,
2013-03-10 12:13:00,65.8,39.5,30.25,NW,326,2.0,6.0,38,0.00,,BKN050,0.00,VWS V14.01,2013-03-09 22:13:00,
2013-03-10 12:14:00,66.6,41.5,30.25,NW,309,0.0,2.0,40,0.00,,CLR,0.00,VWS V14.01,2013-03-09 22:14:00,
2013-03-10 12:15:00,66.3,40.0,30.25,West,277,2.0,4.0,38,0.00,,BKN050,0.00,VWS V14.01,2013-03-09 22:15:00,
2013-03-10 12:16:00,66.5,39.5,30.25,West,273,4.0,4.0,37,0.00,,BKN050,0.00,VWS V14.01,2013-03-09 22:16:00,
2013-03-10 12:18:00,66.5,40.1,30.25,NNE,23,3.0,9.0,38,0.00,,BKN050,0.00,VWS V14.01,2013-03-09 22:18:00,
2013-03-10 12:19:00,66.4,41.4,30.25,NNW,336,6.0,9.0,40,0.00,,CLR,0.00,VWS V14.01,2013-03-09 22:19:00,
2013-03-10 12:24:00,66.2,41.2,30.25,NNW,327,2.0,2.0,40,0.00,,CLR,0.00,VWS V14.01,2013-03-09 22:24:00,
2013-03-10 12:25:00,65.6,40.7,30.25,North,351,0.0,3.0,40,0.00,,BKN050,0.00,VWS V14.01,2013-03-09 22:25:00,
2013-03-10 12:26:00,65.7,41.4,30.25,West,273,7.0,7.0,41,0.00,,BKN050,0.00,VWS V14.01,2013-03-09 22:26:00,
2013-03-10 12:27:00,65.9,40.3,30.25,West,276,2.0,7.0,39,0.00,,BKN050,0.00,VWS V14.01,2013-03-09 22:27:00,
2013-03-10 12:28:00,66.0,39.7,30.25,NW,306,2.0,3.0,38,0.00,,BKN050,0.00,VWS V14.01,2013-03-09 22:28:00,
2013-03-10 12:29:00,65.8,40.2,30.25,NNE,15,2.0,2.0,39,0.00,,CLR,0.00,VWS V14.01,2013-03-09 22:29:00,
2013-03-10 12:30:00,66.6,41.5,30.25,NW,320,2.0,2.0,40,0.00,,BKN050,0.00,VWS V14.01,2013-03-09 22:30:00,
2013-03-10 12:31:00,66.8,41.7,30.25,NW,320,1.0,2.0,40,0.00,,BKN050,0.00,VWS V14.01,2013-03-09 22:31:00,
2013-03-10 12:32:00,66.9,41.2,30.25,NE,48,2.0,4.0,39,0.00,,BKN050,0.00,VWS V14.01,2013-03-09 22:32:00,
2013-03-10 12:33:00,66.7,40.3,30.25,NNW,341,3.0,5.0,38,0.00,,BKN050,0.00,VWS V14.01,2013-03-09 22:33:00,
2013-03-10 12:34:00,66.2,41.2,30.25,West,275,1.0,1.0,40,0.00,,CLR,0.00,VWS V14.01,2013-03-09 22:34:00,
2013-03-10 12:35:00,66.3,41.3,30.25,NE,36,2.0,5.0,40,0.00,,BKN050,0.00,VWS V14.01,2013-03-09 22:35:00,
2013-03-10 12:36:00,66.1,41.1,30.25,NE,36,1.0,3.0,40,0.00,,BKN050,0.00,VWS V14.01,2013-03-09 22:36:00,
2013-03-10 12:38:00,65.9,40.9,30.25,NE,36,2.0,2.0,40,0.00,,BKN050,0.00,VWS V14.01,2013-03-09 22:38:00,
2013-03-10 12:39:00,66.4,41.4,30.25,NW,326,3.0,3.0,40,0.00,,CLR,0.00,VWS V14.01,2013-03-09 22:39:00,
2013-03-10 12:40:00,65.9,40.9,30.25,NNE,24,1.0,4.0,40,0.00,,BKN050,0.00,VWS V14.01,2013-03-09 22:40:00,
2013-03-10 12:41:00,65.8,41.5,30.25,NNE,17,3.0,3.0,41,0.00,,BKN050,0.00,VWS V14.01,2013-03-09 22:41:00,
2013-03-10 12:42:00,65.8,41.5,30.25,NNE,28,2.0,3.0,41,0.00,,BKN050,0.00,VWS V14.01,2013-03-09 22:42:00,
2013-03-10 12:43:00,65.8,40.8,30.25,NNE,28,0.0,3.0,40,0.00,,BKN050,0.00,VWS V14.01,2013-03-09 22:43:00,
2013-03-10 12:44:00,67.0,42.5,30.25,NW,322,6.0,8.0,41,0.00,,CLR,0.00,VWS V14.01,2013-03-09 22:44:00,
2013-03-10 12:45:00,65.6,40.0,30.25,ENE,59,3.0,4.0,39,0.00,,BKN050,0.00,VWS V14.01,2013-03-09 22:45:00,
2013-03-10 12:46:00,65.5,39.9,30.25,ENE,59,4.0,4.0,39,0.00,,BKN050,0.00,VWS V14.01,2013-03-09 22:46:00,
2013-03-10 12:47:00,65.5,39.9,30.25,ENE,59,4.0,4.0,39,0.00,,BKN050,0.00,VWS V14.01,2013-03-09 22:47:00,
2013-03-10 12:48:00,65.4,39.2,30.25,NE,54,1.0,5.0,38,0.00,,BKN050,0.00,VWS V14.01,2013-03-09 22:48:00,
2013-03-10 12:49:00,66.8,42.4,30.25,North,350,2.0,3.0,41,0.00,,CLR,0.00,VWS V14.01,2013-03-09 22:49:00,
2013-03-10 12:50:00,66.0,41.0,30.25,NNE,25,2.0,3.0,40,0.00,,BKN050,0.00,VWS V14.01,2013-03-09 22:50:00,
2013-03-10 12:51:00,66.2,41.2,30.25,NE,51,4.0,4.0,40,0.00,,BKN050,0.00,VWS V14.01,2013-03-09 22:51:00,
2013-03-10 12:54:00,66.9,41.8,30.25,West,276,6.0,6.0,40,0.00,,CLR,0.00,VWS V14.01,2013-03-09 22:54:00,
2013-03-10 12:55:00,65.4,41.7,30.25,ENE,61,1.0,4.0,42,0.00,,BKN050,0.00,VWS V14.01,2013-03-09 22:55:00,
2013-03-10 12:57:00,65.5,43.0,30.25,ENE,61,2.0,2.0,44,0.00,,BKN050,0.00,VWS V14.01,2013-03-09 22:57:00,
2013-03-10 12:59:00,67.3,40.2,30.25,NNW,331,1.0,1.0,37,0.00,,CLR,0.00,VWS V14.01,2013-03-09 22:59:00,
2013-03-10 13:00:00,65.6,44.3,30.25,NE,51,3.0,5.0,46,0.00,,BKN050,0.00,VWS V14.01,2013-03-09 23:00:00,
2013-03-10 13:01:00,65.5,44.2,30.25,NE,51,2.0,3.0,46,0.00,,BKN050,0.00,VWS V14.01,2013-03-09 23:01:00,
2013-03-10 13:02:00,65.5,44.2,30.25,NE,51,2.0,3.0,46,0.00,,BKN050,0.00,VWS V14.01,2013-03-09 23:02:00,
2013-03-10 13:03:00,65.5,44.2,30.25,NE,51,0.0,3.0,46,0.00,,BKN050,0.00,VWS V14.01,2013-03-09 23:03:00,
2013-03-10 13:04:00,66.8,39.7,30.25,NNW,347,4.0,5.0,37,0.00,,SKC,0.00,VWS V14.01,2013-03-09 23:04:00,
2013-03-10 13:05:00,65.6,44.3,30.25,North,5,3.0,4.0,46,0.00,,BKN050,0.00,VWS V14.01,2013-03-09 23:05:00,
2013-03-10 13:06:00,65.6,44.8,30.25,North,5,2.0,3.0,47,0.00,,BKN050,0.00,VWS V14.01,2013-03-09 23:06:00,
2013-03-10 13:07:00,65.5,44.8,30.25,North,351,2.0,3.0,47,0.00,,BKN050,0.00,VWS V14.01,2013-03-09 23:07:00,
2013-03-10 13:08:00,65.4,44.1,30.25,NNE,23,2.0,3.0,46,0.00,,BKN050,0.00,VWS V14.01,2013-03-09 23:08:00,
2013-03-10 13:09:00,66.3,40.0,30.26,NNW,335,7.0,7.0,38,0.00,,SKC,0.00,VWS V14.01,2013-03-09 23:09:00,
2013-03-10 13:12:00,65.1,44.4,30.25,NNE,30,0.0,2.0,47,0.00,,BKN050,0.00,VWS V14.01,2013-03-09 23:12:00,
2013-03-10 13:13:00,65.2,45.0,30.25,NNE,30,0.0,1.0,48,0.00,,BKN050,0.00,VWS V14.01,2013-03-09 23:13:00,
2013-03-10 13:14:00,66.3,40.0,30.25,West,277,2.0,2.0,38,0.00,,SKC,0.00,VWS V14.01,2013-03-09 23:14:00,
2013-03-10 13:15:00,65.2,45.6,30.25,NE,45,0.0,3.0,49,0.00,,BKN050,0.00,VWS V14.01,2013-03-09 23:15:00,
2013-03-10 13:16:00,65.3,45.7,30.25,NE,45,1.0,1.0,49,0.00,,BKN050,0.00,VWS V14.01,2013-03-09 23:16:00,
2013-03-10 13:17:00,65.4,45.8,30.25,NE,45,0.0,2.0,49,0.00,,BKN050,0.00,VWS V14.01,2013-03-09 23:17:00,
2013-03-10 13:18:00,65.6,45.4,30.25,NE,45,1.0,1.0,48,0.00,,BKN050,0.00,VWS V14.01,2013-03-09 23:18:00,
2013-03-10 13:19:00,66.3,40.0,30.25,WNW,302,2.0,3.0,38,0.00,,SKC,0.00,VWS V14.01,2013-03-09 23:19:00,
2013-03-10 13:20:00,66.1,44.7,30.25,NNW,342,1.0,4.0,46,0.00,,BKN050,0.00,VWS V14.01,2013-03-09 23:20:00,
2013-03-10 13:22:00,66.1,43.6,30.25,NNW,342,2.0,5.0,44,0.00,,BKN050,0.00,VWS V14.01,2013-03-09 23:22:00,
2013-03-10 13:24:00,65.6,41.3,30.25,North,351,1.0,1.0,41,0.00,,SKC,0.00,VWS V14.01,2013-03-09 23:24:00,
2013-03-10 13:25:00,65.8,44.5,30.25,NNW,342,0.0,1.0,46,0.00,,BKN050,0.00,VWS V14.01,2013-03-09 23:25:00,
2013-03-10 13:26:00,65.7,44.4,30.25,NNW,342,0.0,2.0,46,0.00,,BKN050,0.00,VWS V14.01,2013-03-09 23:26:00,
2013-03-10 13:27:00,65.6,45.4,30.25,NNW,342,1.0,1.0,48,0.00,,BKN050,0.00,VWS V14.01,2013-03-09 23:27:00,
2013-03-10 13:28:00,65.4,45.2,30.25,North,350,0.0,2.0,48,0.00,,BKN050,0.00,VWS V14.01,2013-03-09 23:28:00,
2013-03-10 13:29:00,66.7,41.6,30.25,NW,320,1.0,2.0,40,0.00,,SKC,0.00,VWS V14.01,2013-03-09 23:29:00,
2013-03-10 13:30:00,65.4,46.8,30.25,NNE,24,1.0,3.0,51,0.00,,BKN050,0.00,VWS V14.01,2013-03-09 23:30:00,
2013-03-10 13:32:00,65.3,46.2,30.25,NNE,24,1.0,2.0,50,0.00,,BKN050,0.00,VWS V14.01,2013-03-09 23:32:00,
2013-03-10 13:33:00,65.0,46.5,30.25,NNE,24,0.0,2.0,51,0.00,,BKN050,0.00,VWS V14.01,2013-03-09 23:33:00,
2013-03-10 13:34:00,66.3,41.3,30.25,NE,36,2.0,2.0,40,0.00,,SKC,0.00,VWS V14.01,2013-03-09 23:34:00,
2013-03-10 13:35:00,65.0,46.5,30.25,NNE,26,1.0,2.0,51,0.00,,BKN050,0.00,VWS V14.01,2013-03-09 23:35:00,
2013-03-10 13:36:00,65.2,46.6,30.25,NNE,26,0.0,1.0,51,0.00,,BKN050,0.00,VWS V14.01,2013-03-09 23:36:00,
2013-03-10 13:37:00,65.2,46.1,30.25,NW,319,2.0,3.0,50,0.00,,BKN050,0.00,VWS V14.01,2013-03-09 23:37:00,
2013-03-10 13:38:00,65.9,40.9,30.25,NNE,24,0.0,1.0,40,0.00,,SKC,0.00,VWS V14.01,2013-03-09 23:38:00,
2013-03-10 13:39:00,65.5,44.8,30.25,North,355,1.0,4.0,47,0.00,,BKN050,0.00,VWS V14.01,2013-03-09 23:39:00,
2013-03-10 13:40:00,65.6,43.7,30.25,North,355,0.0,2.0,45,0.00,,BKN050,0.00,VWS V14.01,2013-03-09 23:40:00,
2013-03-10 13:41:00,65.8,43.3,30.25,NNE,13,3.0,4.0,44,0.00,,BKN050,0.00,VWS V14.01,2013-03-09 23:41:00,
2013-03-10 13:42:00,65.9,42.8,30.25,NNE,32,2.0,3.0,43,0.00,,BKN050,0.00,VWS V14.01,2013-03-09 23:42:00,
2013-03-10 13:43:00,65.6,40.0,30.25,ENE,59,3.0,4.0,39,0.00,,SKC,0.00,VWS V14.01,2013-03-09 23:43:00,
2013-03-10 13:44:00,65.9,41.6,30.25,NW,318,3.0,6.0,41,0.00,,BKN050,0.00,VWS V14.01,2013-03-09 23:44:00,
2013-03-10 13:45:00,65.9,41.6,30.25,NNW,331,3.0,6.0,41,0.00,,BKN050,0.00,VWS V14.01,2013-03-09 23:45:00,
2013-03-10 13:46:00,65.8,40.8,30.25,NNW,332,2.0,8.0,40,0.00,,BKN050,0.00,VWS V14.01,2013-03-09 23:46:00,
2013-03-10 13:47:00,65.8,41.5,30.25,NNW,332,4.0,6.0,41,0.00,,BKN050,0.00,VWS V14.01,2013-03-09 23:47:00,
2013-03-10 13:48:00,66.0,41.0,30.25,NNE,25,2.0,3.0,40,0.00,,SKC,0.00,VWS V14.01,2013-03-09 23:48:00,
2013-03-10 13:49:00,65.7,42.0,30.25,North,5,2.0,4.0,42,0.00,,BKN050,0.00,VWS V14.01,2013-03-09 23:49:00,
2013-03-10 13:50:00,65.7,42.0,30.25,North,5,3.0,3.0,42,0.00,,BKN050,0.00,VWS V14.01,2013-03-09 23:50:00,
2013-03-10 13:51:00,65.8,42.1,30.25,NNW,348,3.0,6.0,42,0.00,,BKN050,0.00,VWS V14.01,2013-03-09 23:51:00,
2013-03-10 13:52:00,65.8,41.5,30.25,NNW,327,2.0,7.0,41,0.00,,BKN050,0.00,VWS V14.01,2013-03-09 23:52:00,
2013-03-10 13:53:00,65.4,41.7,30.25,ENE,61,1.0,4.0,42,0.00,,SKC,0.00,VWS V14.01,2013-03-09 23:53:00,
2013-03-10 13:54:00,65.7,41.4,30.25,North,5,1.0,3.0,41,0.00,,BKN050,0.00,VWS V14.01,2013-03-09 23:54:00,
2013-03-10 13:55:00,65.6,41.3,30.25,North,5,1.0,4.0,41,0.00,,BKN050,0.00,VWS V14.01,2013-03-09 23:55:00,
2013-03-10 13:57:00,65.6,41.3,30.25,NNE,27,2.0,4.0,41,0.00,,BKN050,0.00,VWS V14.01,2013-03-09 23:57:00,
2013-03-10 13:58:00,65.6,44.3,30.25,NE,51,3.0,5.0,46,0.00,,SKC,0.00,VWS V14.01,2013-03-09 23:58:00,
2013-03-10 13:59:00,65.6,41.9,30.25,NNW,337,5.0,7.0,42,0.00,,BKN050,0.00,VWS V14.01,2013-03-09 23:59:00,
2013-03-10 14:00:00,65.5,41.2,30.25,North,355,4.0,6.0,41,0.00,,BKN050,0.00,VWS V14.01,2013-03-10 00:00:00,
2013-03-10 14:01:00,65.4,41.1,30.25,North,5,1.0,5.0,41,0.00,,BKN050,0.00,VWS V14.01,2013-03-10 00:01:00,
2013-03-10 14:02:00,65.4,41.7,30.25,North,349,2.0,4.0,42,0.00,,BKN050,0.00,VWS V14.01,2013-03-10 00:02:00,
2013-03-10 14:03:00,65.6,44.3,30.25,North,5,2.0,4.0,46,0.00,,SKC,0.00,VWS V14.01,2013-03-10 00:03:00,
2013-03-10 14:04:00,65.6,41.9,30.24,North,350,4.0,7.0,42,0.00,,BKN050,0.00,VWS V14.01,2013-03-10 00:04:00,
2013-03-10 14:05:00,65.6,41.3,30.24,North,355,1.0,4.0,41,0.00,,BKN050,0.00,VWS V14.01,2013-03-10 00:05:00,
2013-03-10 14:06:00,65.6,41.9,30.25,NNW,341,2.0,4.0,42,0.00,,BKN050,0.00,VWS V14.01,2013-03-10 00:06:00,
2013-03-10 14:07:00,65.6,41.9,30.25,NNE,28,3.0,4.0,42,0.00,,BKN050,0.00,VWS V14.01,2013-03-10 00:07:00,
2013-03-10 14:08:00,65.5,44.8,30.25,NNE,30,3.0,3.0,47,0.00,,SKC,0.00,VWS V14.01,2013-03-10 00:08:00,
2013-03-10 14:11:00,65.3,41.0,30.25,North,360,4.0,9.0,41,0.00,,BKN050,0.00,VWS V14.01,2013-03-10 00:11:00,
2013-03-10 14:12:00,65.3,41.0,30.25,NNW,329,2.0,6.0,41,0.00,,BKN050,0.00,VWS V14.01,2013-03-10 00:12:00,
2013-03-10 14:13:00,65.2,45.6,30.25,NE,45,0.0,3.0,49,0.00,,SKC,0.00,VWS V14.01,2013-03-10 00:13:00,
2013-03-10 14:14:00,65.3,41.6,30.25,West,267,4.0,4.0,42,0.00,,BKN050,0.00,VWS V14.01,2013-03-10 00:14:00,
2013-03-10 14:15:00,65.4,41.7,30.25,NNW,342,3.0,4.0,42,0.00,,BKN050,0.00,VWS V14.01,2013-03-10 00:15:00,
2013-03-10 14:16:00,65.5,41.8,30.25,NW,320,3.0,5.0,42,0.00,,BKN050,0.00,VWS V14.01,2013-03-10 00:16:00,
2013-03-10 14:17:00,65.5,41.8,30.25,NW,316,3.0,6.0,42,0.00,,BKN050,0.00,VWS V14.01,2013-03-10 00:17:00,
2013-03-10 14:18:00,66.1,44.7,30.25,NNW,342,1.0,4.0,46,0.00,,SKC,0.00,VWS V14.01,2013-03-10 00:18:00,
2013-03-10 14:19:00,65.5,41.8,30.25,North,355,3.0,4.0,42,0.00,,BKN050,0.00,VWS V14.01,2013-03-10 00:19:00,
2013-03-10 14:20:00,65.5,41.8,30.25,NNW,343,2.0,5.0,42,0.00,,BKN050,0.00,VWS V14.01,2013-03-10 00:20:00,
2013-03-10 14:21:00,65.5,41.8,30.25,North,5,4.0,5.0,42,0.00,,BKN050,0.00,VWS V14.01,2013-03-10 00:21:00,
2013-03-10 14:22:00,65.4,42.3,30.25,WNW,298,5.0,6.0,43,0.00,,BKN050,0.00,VWS V14.01,2013-03-10 00:22:00,
2013-03-10 14:23:00,65.8,44.5,30.25,NNW,342,0.0,1.0,46,0.00,,SKC,0.00,VWS V14.01,2013-03-10 00:23:00,
2013-03-10 14:24:00,65.4,42.3,30.25,NW,315,4.0,7.0,43,0.00,,BKN050,0.00,VWS V14.01,2013-03-10 00:24:00,
2013-03-10 14:25:00,65.3,42.2,30.25,North,351,1.0,7.0,43,0.00,,BKN050,0.00,VWS V14.01,2013-03-10 00:25:00,
2013-03-10 14:26:00,65.3,42.2,30.25,NNW,329,5.0,5.0,43,0.00,,BKN050,0.00,VWS V14.01,2013-03-10 00:26:00,
2013-03-10 14:27:00,65.3,42.2,30.25,NNW,342,4.0,7.0,43,0.00,,BKN050,0.00,VWS V14.01,2013-03-10 00:27:00,
2013-03-10 14:28:00,65.4,46.8,30.25,NNE,24,2.0,3.0,51,0.00,,SKC,0.00,VWS V14.01,2013-03-10 00:28:00,
2013-03-10 14:29:00,65.1,42.1,30.25,North,349,2.0,4.0,43,0.00,,BKN050,0.00,VWS V14.01,2013-03-10 00:29:00,
2013-03-10 14:30:00,65.0,42.0,30.25,North,5,2.0,3.0,43,0.00,,BKN050,0.00,VWS V14.01,2013-03-10 00:30:00,
2013-03-10 14:31:00,65.0,42.0,30.25,North,5,1.0,2.0,43,0.00,,BKN050,0.00,VWS V14.01,2013-03-10 00:31:00,
2013-03-10 14:33:00,65.0,46.5,30.25,NNE,26,1.0,2.0,51,0.00,,SKC,0.00,VWS V14.01,2013-03-10 00:33:00,
2013-03-10 14:34:00,64.9,41.3,30.25,North,350,2.0,4.0,42,0.00,,BKN050,0.00,VWS V14.01,2013-03-10 00:34:00,
2013-03-10 14:36:00,64.8,41.8,30.25,NW,322,2.0,2.0,43,0.00,,BKN050,0.00,VWS V14.01,2013-03-10 00:36:00,
2013-03-10 14:38:00,65.6,43.7,30.25,North,355,0.0,2.0,45,0.00,,SKC,0.00,VWS V14.01,2013-03-10 00:38:00,
2013-03-10 14:41:00,65.1,42.1,30.25,NW,319,2.0,2.0,43,0.00,,BKN050,0.00,VWS V14.01,2013-03-10 00:41:00,
2013-03-10 14:42:00,65.0,42.0,30.25,NNW,337,1.0,2.0,43,0.00,,BKN050,0.00,VWS V14.01,2013-03-10 00:42:00,
2013-03-10 14:43:00,65.9,41.6,30.25,NNW,348,2.0,6.0,41,0.00,,SKC,0.00,VWS V14.01,2013-03-10 00:43:00,
2013-03-10 14:44:00,64.8,41.8,30.25,North,351,2.0,3.0,43,0.00,,BKN050,0.00,VWS V14.01,2013-03-10 00:44:00,
2013-03-10 14:45:00,64.7,41.1,30.25,NNW,348,2.0,4.0,42,0.00,,BKN050,0.00,VWS V14.01,2013-03-10 00:45:00,
2013-03-10 14:46:00,64.7,40.5,30.25,NNW,331,3.0,3.0,41,0.00,,BKN050,0.00,VWS V14.01,2013-03-10 00:46:00,
2013-03-10 14:47:00,64.6,41.0,30.25,NNW,331,2.0,3.0,42,0.00,,BKN050,0.00,VWS V14.01,2013-03-10 00:47:00,
2013-03-10 14:48:00,65.7,42.0,30.25,North,5,2.0,3.0,42,0.00,,SKC,0.00,VWS V14.01,2013-03-10 00:48:00,
2013-03-10 14:49:00,64.4,40.2,30.25,NNW,329,4.0,5.0,41,0.00,,BKN050,0.00,VWS V14.01,2013-03-10 00:49:00,
2013-03-10 14:50:00,64.3,40.1,30.25,NW,313,5.0,5.0,41,0.00,,BKN050,0.00,VWS V14.01,2013-03-10 00:50:00,
2013-03-10 14:51:00,64.3,39.5,30.25,NW,315,1.0,6.0,40,0.00,,BKN050,0.00,VWS V14.01,2013-03-10 00:51:00,
2013-03-10 14:53:00,65.6,41.3,30.25,North,5,2.0,4.0,41,0.00,,SKC,0.00,VWS V14.01,2013-03-10 00:53:00,
2013-03-10 14:54:00,64.0,40.5,30.25,NW,315,1.0,1.0,42,0.00,,BKN050,0.00,VWS V14.01,2013-03-10 00:54:00,
2013-03-10 14:56:00,63.8,40.3,30.25,NNW,329,1.0,3.0,42,0.00,,BKN050,0.00,VWS V14.01,2013-03-10 00:56:00,
2013-03-10 14:57:00,63.6,40.1,30.25,NNW,329,0.0,1.0,42,0.00,,BKN050,0.00,VWS V14.01,2013-03-10 00:57:00,
2013-03-10 14:58:00,65.5,41.2,30.25,North,360,3.0,6.0,41,0.00,,SKC,0.00,VWS V14.01,2013-03-10 00:58:00,
2013-03-10 14:59:00,63.1,41.4,30.25,NNW,329,0.0,0.0,45,0.00,,BKN050,0.00,VWS V14.01,2013-03-10 00:59:00,
2013-03-10 15:00:00,62.8,42.3,30.25,NNW,329,0.0,0.0,47,0.00,,BKN050,0.00,VWS V14.01,2013-03-10 01:00:00,
2013-03-10 15:01:00,62.6,43.7,30.25,NNW,329,0.0,1.0,50,0.00,,BKN050,0.00,VWS V14.01,2013-03-10 01:01:00,
2013-03-10 15:02:00,62.4,44.6,30.25,NNW,329,0.0,0.0,52,0.00,,BKN050,0.00,VWS V14.01,2013-03-10 01:02:00,
2013-03-10 15:03:00,65.6,41.3,30.24,North,355,0.0,4.0,41,0.00,,SKC,0.00,VWS V14.01,2013-03-10 01:03:00,
2013-03-10 15:04:00,62.0,45.7,30.26,NNW,329,1.0,2.0,55,0.00,,BKN050,0.00,VWS V14.01,2013-03-10 01:04:00,
2013-03-10 15:05:00,61.8,45.5,30.26,NNW,329,0.0,1.0,55,0.00,,BKN050,0.00,VWS V14.01,2013-03-10 01:05:00,
2013-03-10 15:06:00,61.6,45.8,30.26,NNW,329,1.0,1.0,56,0.00,,BKN050,0.00,VWS V14.01,2013-03-10 01:06:00,
2013-03-10 15:07:00,61.4,46.0,30.26,NNW,329,2.0,2.0,57,0.00,,BKN050,0.00,VWS V14.01,2013-03-10 01:07:00,
2013-03-10 15:08:00,65.4,41.1,30.24,North,355,0.0,3.0,41,0.00,,SKC,0.00,VWS V14.01,2013-03-10 01:08:00,
2013-03-10 15:10:00,61.0,45.7,30.26,NNW,334,1.0,3.0,57,0.00,,BKN050,0.00,VWS V14.01,2013-03-10 01:10:00,
2013-03-10 15:11:00,60.9,46.0,30.26,NNW,333,1.0,2.0,58,0.00,,BKN050,0.00,VWS V14.01,2013-03-10 01:11:00,
2013-03-10 15:12:00,60.8,45.5,30.26,NNW,334,0.0,2.0,57,0.00,,BKN050,0.00,VWS V14.01,2013-03-10 01:12:00,
2013-03-10 15:13:00,65.4,41.7,30.25,NNW,344,3.0,4.0,42,0.00,,SKC,0.00,VWS V14.01,2013-03-10 01:13:00,
2013-03-10 15:14:00,60.7,45.4,30.26,NNW,334,0.0,1.0,57,0.00,,BKN050,0.00,VWS V14.01,2013-03-10 01:14:00,
2013-03-10 15:15:00,60.7,45.4,30.26,NNW,334,0.0,0.0,57,0.00,,BKN050,0.00,VWS V14.01,2013-03-10 01:15:00,
2013-03-10 15:16:00,60.7,44.9,30.26,NNW,334,0.0,1.0,56,0.00,,BKN050,0.00,VWS V14.01,2013-03-10 01:16:00,
2013-03-10 15:17:00,60.7,44.5,30.26,NNW,334,0.0,0.0,55,0.00,,BKN050,0.00,VWS V14.01,2013-03-10 01:17:00,
2013-03-10 15:18:00,65.5,41.8,30.25,NNW,347,2.0,5.0,42,0.00,,SKC,0.00,VWS V14.01,2013-03-10 01:18:00,
2013-03-10 15:19:00,60.6,43.9,30.26,NNW,334,0.0,1.0,54,0.00,,BKN050,0.00,VWS V14.01,2013-03-10 01:19:00,
2013-03-10 15:20:00,60.6,43.4,30.26,NNW,334,0.0,0.0,53,0.00,,BKN050,0.00,VWS V14.01,2013-03-10 01:20:00,
2013-03-10 15:21:00,60.5,42.8,30.26,NNW,334,0.0,0.0,52,0.00,,BKN050,0.00,VWS V14.01,2013-03-10 01:21:00,
2013-03-10 15:22:00,60.5,42.8,30.26,NNW,334,0.0,0.0,52,0.00,,BKN050,0.00,VWS V14.01,2013-03-10 01:22:00,
2013-03-10 15:23:00,65.3,42.2,30.25,North,351,1.0,7.0,43,0.00,,SKC,0.00,VWS V14.01,2013-03-10 01:23:00,
2013-03-10 15:24:00,60.4,42.2,30.26,NNW,334,1.0,1.0,51,0.00,,BKN050,0.00,VWS V14.01,2013-03-10 01:24:00,
2013-03-10 15:25:00,60.4,41.7,30.26,NNW,331,2.0,2.0,50,0.00,,BKN050,0.00,VWS V14.01,2013-03-10 01:25:00,
2013-03-10 15:26:00,60.5,41.3,30.26,NNW,331,1.0,2.0,49,0.00,,BKN050,0.00,VWS V14.01,2013-03-10 01:26:00,
2013-03-10 15:27:00,60.4,41.2,30.26,NNW,331,0.0,1.0,49,0.00,,BKN050,0.00,VWS V14.01,2013-03-10 01:27:00,
2013-03-10 15:28:00,65.0,42.0,30.25,North,5,3.0,3.0,43,0.00,,SKC,0.00,VWS V14.01,2013-03-10 01:28:00,
2013-03-10 15:29:00,60.5,41.3,30.26,NNW,331,0.0,0.0,49,0.00,,BKN050,0.00,VWS V14.01,2013-03-10 01:29:00,
2013-03-10 15:30:00,60.5,41.3,30.26,NNW,331,0.0,1.0,49,0.00,,BKN050,0.00,VWS V14.01,2013-03-10 01:30:00,
2013-03-10 15:31:00,60.4,40.6,30.26,NNW,331,0.0,0.0,48,0.00,,BKN050,0.00,VWS V14.01,2013-03-10 01:31:00,
2013-03-10 15:32:00,60.4,40.6,30.26,NNW,331,0.0,0.0,48,0.00,,BKN050,0.00,VWS V14.01,2013-03-10 01:32:00,
2013-03-10 15:33:00,64.9,41.3,30.25,NW,322,1.0,5.0,42,0.00,,SKC,0.00,VWS V14.01,2013-03-10 01:33:00,
2013-03-10 15:34:00,60.3,41.1,30.26,NNW,331,0.0,0.0,49,0.00,,BKN050,0.00,VWS V14.01,2013-03-10 01:34:00,
2013-03-10 15:35:00,60.3,41.1,30.26,NNW,331,0.0,0.0,49,0.00,,BKN050,0.00,VWS V14.01,2013-03-10 01:35:00,
2013-03-10 15:36:00,60.2,41.5,30.26,WNW,300,0.0,4.0,50,0.00,,BKN050,0.00,VWS V14.01,2013-03-10 01:36:00,
2013-03-10 15:37:00,60.0,40.8,30.26,WNW,300,0.0,2.0,49,0.00,,BKN050,0.00,VWS V14.01,2013-03-10 01:37:00,
2013-03-10 15:38:00,65.0,41.4,30.25,WNW,290,1.0,1.0,42,0.00,,SKC,0.00,VWS V14.01,2013-03-10 01:38:00,
2013-03-10 15:39:00,59.9,40.7,30.26,WNW,300,1.0,2.0,49,0.00,,BKN050,0.00,VWS V14.01,2013-03-10 01:39:00,
2013-03-10 15:40:00,59.9,40.7,30.26,WNW,300,0.0,2.0,49,0.00,,BKN050,0.00,VWS V14.01,2013-03-10 01:40:00,
2013-03-10 15:41:00,59.8,40.6,30.26,WNW,300,0.0,0.0,49,0.00,,BKN050,0.00,VWS V14.01,2013-03-10 01:41:00,
2013-03-10 15:42:00,59.8,41.1,30.26,WNW,300,0.0,0.0,50,0.00,,BKN050,0.00,VWS V14.01,2013-03-10 01:42:00,
2013-03-10 15:43:00,64.8,41.2,30.25,NNW,346,3.0,3.0,42,0.00,,SKC,0.00,VWS V14.01,2013-03-10 01:43:00,
2013-03-10 15:44:00,59.6,40.4,30.26,WNW,300,0.0,0.0,49,0.00,,BKN050,0.00,VWS V14.01,2013-03-10 01:44:00,
2013-03-10 15:45:00,59.5,41.4,30.26,WNW,300,0.0,0.0,51,0.00,,BKN050,0.00,VWS V14.01,2013-03-10 01:45:00,
2013-03-10 15:46:00,59.4,40.8,30.26,WNW,300,0.0,0.0,50,0.00,,BKN050,0.00,VWS V14.01,2013-03-10 01:46:00,
2013-03-10 15:47:00,59.3,40.7,30.26,WNW,300,0.0,0.0,50,0.00,,BKN050,0.00,VWS V14.01,2013-03-10 01:47:00,
2013-03-10 15:48:00,64.4,40.2,30.25,NW,321,4.0,4.0,41,0.00,,SKC,0.00,VWS V14.01,2013-03-10 01:48:00,
2013-03-10 15:49:00,59.1,40.5,30.26,WNW,300,0.0,1.0,50,0.00,,BKN050,0.00,VWS V14.01,2013-03-10 01:49:00,
2013-03-10 15:50:00,59.1,40.0,30.26,WNW,300,0.0,0.0,49,0.00,,BKN050,0.00,VWS V14.01,2013-03-10 01:50:00,
2013-03-10 15:51:00,59.0,40.4,30.26,WNW,300,0.0,0.0,50,0.00,,BKN050,0.00,VWS V14.01,2013-03-10 01:51:00,
2013-03-10 15:52:00,58.9,40.3,30.26,WNW,300,0.0,0.0,50,0.00,,BKN050,0.00,VWS V14.01,2013-03-10 01:52:00,
2013-03-10 15:53:00,63.9,40.4,30.25,NNW,338,2.0,2.0,42,0.00,,SKC,0.00,VWS V14.01,2013-03-10 01:53:00,
2013-03-10 15:54:00,58.9,40.3,30.26,WNW,300,0.0,0.0,50,0.00,,BKN050,0.00,VWS V14.01,2013-03-10 01:54:00,
2013-03-10 15:55:00,58.8,41.2,30.26,WNW,300,0.0,0.0,52,0.00,,BKN050,0.00,VWS V14.01,2013-03-10 01:55:00,
2013-03-10 15:58:00,62.9,42.4,30.25,NNW,329,0.0,0.0,47,0.00,,SKC,0.00,VWS V14.01,2013-03-10 01:58:00,
2013-03-10 15:59:00,58.5,40.5,30.26,WNW,300,0.0,0.0,51,0.00,,BKN050,0.00,VWS V14.01,2013-03-10 01:59:00,
2013-03-10 16:01:00,58.3,39.8,30.26,WNW,300,0.0,1.0,50,0.00,,BKN050,0.00,VWS V14.01,2013-03-10 02:01:00,
2013-03-10 16:02:00,58.1,40.6,30.26,WNW,300,2.0,2.0,52,0.00,,BKN050,0.00,VWS V14.01,2013-03-10 02:02:00,
2013-03-10 16:03:00,61.8,45.5,30.26,NNW,329,1.0,1.0,55,0.00,,SKC,0.00,VWS V14.01,2013-03-10 02:03:00,
2013-03-10 16:04:00,57.7,40.7,30.26,WNW,300,0.0,2.0,53,0.00,,BKN050,0.00,VWS V14.01,2013-03-10 02:04:00,
2013-03-10 16:05:00,57.6,40.1,30.26,WNW,300,1.0,1.0,52,0.00,,BKN050,0.00,VWS V14.01,2013-03-10 02:05:00,
2013-03-10 16:06:00,57.4,40.4,30.26,WNW,300,0.0,1.0,53,0.00,,BKN050,0.00,VWS V14.01,2013-03-10 02:06:00,
2013-03-10 16:07:00,57.1,41.1,30.26,WNW,300,0.0,0.0,55,0.00,,BKN050,0.00,VWS V14.01,2013-03-10 02:07:00,
2013-03-10 16:08:00,61.0,45.7,30.26,NNW,329,3.0,3.0,57,0.00,,SKC,0.00,VWS V14.01,2013-03-10 02:08:00,
2013-03-10 16:10:00,56.4,41.4,30.26,WNW,300,0.0,0.0,57,0.00,,BKN050,0.00,VWS V14.01,2013-03-10 02:10:00,
2013-03-10 16:11:00,56.2,41.2,30.26,WNW,300,0.0,0.0,57,0.00,,BKN050,0.00,VWS V14.01,2013-03-10 02:11:00,
2013-03-10 16:12:00,56.0,41.0,30.26,WNW,300,0.0,0.0,57,0.00,,BKN050,0.00,VWS V14.01,2013-03-10 02:12:00,
2013-03-10 16:13:00,60.7,45.4,30.26,NNW,334,0.0,0.0,57,0.00,,SKC,0.00,VWS V14.01,2013-03-10 02:13:00,
2013-03-10 16:14:00,55.7,41.6,30.26,WNW,300,0.0,0.0,59,0.00,,BKN050,0.00,VWS V14.01,2013-03-10 02:14:00,
2013-03-10 16:15:00,55.5,41.4,30.26,WNW,300,1.0,1.0,59,0.00,,BKN050,0.00,VWS V14.01,2013-03-10 02:15:00,
2013-03-10 16:16:00,55.4,41.3,30.26,North,5,0.0,2.0,59,0.00,,BKN050,0.00,VWS V14.01,2013-03-10 02:16:00,
2013-03-10 16:17:00,55.4,41.8,30.27,North,5,1.0,1.0,60,0.00,,BKN050,0.00,VWS V14.01,2013-03-10 02:17:00,
2013-03-10 16:18:00,60.5,43.3,30.26,NNW,334,0.0,0.0,53,0.00,,SKC,0.00,VWS V14.01,2013-03-10 02:18:00,
2013-03-10 16:19:00,55.6,42.4,30.27,North,5,1.0,3.0,61,0.00,,BKN050,0.00,VWS V14.01,2013-03-10 02:19:00,
2013-03-10 16:20:00,55.6,43.2,30.27,North,5,0.0,2.0,63,0.00,,BKN050,0.00,VWS V14.01,2013-03-10 02:20:00,
2013-03-10 16:22:00,55.6,44.0,30.27,North,5,1.0,2.0,65,0.00,,BKN050,0.00,VWS V14.01,2013-03-10 02:22:00,
2013-03-10 16:23:00,60.4,41.7,30.26,NNW,331,2.0,2.0,50,0.00,,SKC,0.00,VWS V14.01,2013-03-10 02:23:00,
2013-03-10 16:24:00,55.5,44.3,30.27,North,5,0.0,1.0,66,0.00,,BKN050,0.00,VWS V14.01,2013-03-10 02:24:00,
2013-03-10 16:27:00,55.2,44.8,30.27,North,5,1.0,2.0,68,0.00,,BKN050,0.00,VWS V14.01,2013-03-10 02:27:00,
2013-03-10 16:28:00,60.5,41.3,30.26,NNW,331,0.0,1.0,49,0.00,,SKC,0.00,VWS V14.01,2013-03-10 02:28:00,
2013-03-10 16:29:00,55.1,45.5,30.27,North,5,0.0,0.0,70,0.00,,BKN050,0.00,VWS V14.01,2013-03-10 02:29:00,
2013-03-10 16:30:00,55.0,45.4,30.27,North,5,0.0,1.0,70,0.00,,BKN050,0.00,VWS V14.01,2013-03-10 02:30:00,
2013-03-10 16:31:00,54.9,45.7,30.27,North,5,0.0,0.0,71,0.00,,BKN050,0.00,VWS V14.01,2013-03-10 02:31:00,
2013-03-10 16:33:00,60.3,41.1,30.26,NNW,331,0.0,0.0,49,0.00,,SKC,0.00,VWS V14.01,2013-03-10 02:33:00,
2013-03-10 16:34:00,54.6,46.5,30.26,North,5,0.0,1.0,74,0.00,,BKN050,0.00,VWS V14.01,2013-03-10 02:34:00,
2013-03-10 16:35:00,54.6,46.5,30.27,North,5,1.0,1.0,74,0.00,,BKN050,0.00,VWS V14.01,2013-03-10 02:35:00,
2013-03-10 16:36:00,54.5,46.8,30.27,North,5,0.0,1.0,75,0.00,,BKN050,0.00,VWS V14.01,2013-03-10 02:36:00,
2013-03-10 16:37:00,54.5,46.8,30.27,North,5,0.0,0.0,75,0.00,,BKN050,0.00,VWS V14.01,2013-03-10 02:37:00,
2013-03-10 16:38:00,59.9,40.7,30.26,WNW,300,0.0,2.0,49,0.00,,SKC,0.00,VWS V14.01,2013-03-10 02:38:00,
2013-03-10 16:39:00,54.4,47.3,30.27,North,5,0.0,1.0,77,0.00,,BKN050,0.00,VWS V14.01,2013-03-10 02:39:00,
2013-03-10 16:40:00,54.4,47.3,30.27,North,5,0.0,1.0,77,0.00,,BKN050,0.00,VWS V14.01,2013-03-10 02:40:00,
2013-03-10 16:41:00,54.4,47.3,30.27,North,5,0.0,1.0,77,0.00,,BKN050,0.00,VWS V14.01,2013-03-10 02:41:00,
2013-03-10 16:42:00,54.3,47.2,30.27,North,5,1.0,1.0,77,0.00,,BKN050,0.00,VWS V14.01,2013-03-10 02:42:00,
2013-03-10 16:43:00,59.6,41.5,30.26,WNW,300,0.0,0.0,51,0.00,,SKC,0.00,VWS V14.01,2013-03-10 02:43:00,
2013-03-10 16:44:00,54.2,47.5,30.27,North,5,0.0,2.0,78,0.00,,BKN050,0.00,VWS V14.01,2013-03-10 02:44:00,
2013-03-10 16:45:00,54.2,47.5,30.27,North,5,0.0,0.0,78,0.00,,BKN050,0.00,VWS V14.01,2013-03-10 02:45:00,
2013-03-10 16:46:00,54.1,47.4,30.27,North,5,0.0,0.0,78,0.00,,BKN050,0.00,VWS V14.01,2013-03-10 02:46:00,
2013-03-10 16:47:00,54.0,47.3,30.27,North,5,0.0,1.0,78,0.00,,BKN050,0.00,VWS V14.01,2013-03-10 02:47:00,
2013-03-10 16:48:00,59.1,40.0,30.26,WNW,300,0.0,0.0,49,0.00,,SKC,0.00,VWS V14.01,2013-03-10 02:48:00,
2013-03-10 16:49:00,53.9,47.5,30.27,North,5,0.0,1.0,79,0.00,,BKN050,0.00,VWS V14.01,2013-03-10 02:49:00,
2013-03-10 16:50:00,53.8,47.5,30.27,North,5,0.0,1.0,79,0.00,,BKN050,0.00,VWS V14.01,2013-03-10 02:50:00,
2013-03-10 16:51:00,53.8,47.8,30.27,North,5,0.0,0.0,80,0.00,,BKN050,0.00,VWS V14.01,2013-03-10 02:51:00,
2013-03-10 16:52:00,53.7,47.7,30.27,North,5,0.0,0.0,80,0.00,,BKN050,0.00,VWS V14.01,2013-03-10 02:52:00,
2013-03-10 16:53:00,58.8,41.2,30.26,WNW,300,0.0,0.0,52,0.00,,SKC,0.00,VWS V14.01,2013-03-10 02:53:00,
2013-03-10 16:54:00,53.6,47.6,30.27,North,5,0.0,0.0,80,0.00,,BKN050,0.00,VWS V14.01,2013-03-10 02:54:00,
2013-03-10 16:55:00,53.5,47.5,30.27,North,5,0.0,0.0,80,0.00,,BKN050,0.00,VWS V14.01,2013-03-10 02:55:00,
2013-03-10 16:56:00,53.5,47.5,30.27,North,5,0.0,0.0,80,0.00,,BKN050,0.00,VWS V14.01,2013-03-10 02:56:00,
2013-03-10 16:57:00,53.4,47.4,30.27,North,5,0.0,0.0,80,0.00,,BKN050,0.00,VWS V14.01,2013-03-10 02:57:00,
2013-03-10 16:58:00,58.4,39.8,30.26,WNW,300,0.0,0.0,50,0.00,,SKC,0.00,VWS V14.01,2013-03-10 02:58:00,
2013-03-10 16:59:00,53.3,47.3,30.27,North,5,0.0,0.0,80,0.00,,BKN050,0.00,VWS V14.01,2013-03-10 02:59:00,
2013-03-10 17:00:00,53.2,47.2,30.27,North,5,0.0,0.0,80,0.00,,BKN050,0.00,VWS V14.01,2013-03-10 03:00:00,
2013-03-10 17:01:00,53.2,47.2,30.28,North,5,0.0,0.0,80,0.00,,BKN050,0.00,VWS V14.01,2013-03-10 03:01:00,
2013-03-10 17:02:00,53.2,47.5,30.28,North,5,0.0,0.0,81,0.00,,BKN050,0.00,VWS V14.01,2013-03-10 03:02:00,
2013-03-10 17:03:00,57.6,40.1,30.26,WNW,300,1.0,1.0,52,0.00,,SKC,0.00,VWS V14.01,2013-03-10 03:03:00,
2013-03-10 17:04:00,53.5,47.8,30.28,North,5,0.0,0.0,81,0.00,,BKN050,0.00,VWS V14.01,2013-03-10 03:04:00,
2013-03-10 17:05:00,53.7,48.0,30.28,North,5,0.0,0.0,81,0.00,,BKN050,0.00,VWS V14.01,2013-03-10 03:05:00,
2013-03-10 17:06:00,53.7,48.0,30.28,North,5,0.0,0.0,81,0.00,,BKN050,0.00,VWS V14.01,2013-03-10 03:06:00,
2013-03-10 17:07:00,53.7,47.3,30.28,North,5,0.0,0.0,79,0.00,,BKN050,0.00,VWS V14.01,2013-03-10 03:07:00,
2013-03-10 17:08:00,56.5,41.5,30.26,WNW,300,0.0,0.0,57,0.00,,SKC,0.00,VWS V14.01,2013-03-10 03:08:00,
2013-03-10 17:09:00,53.5,47.2,30.28,North,5,0.0,0.0,79,0.00,,BKN050,0.00,VWS V14.01,2013-03-10 03:09:00,
2013-03-10 17:10:00,53.4,47.1,30.28,North,5,1.0,1.0,79,0.00,,BKN050,0.00,VWS V14.01,2013-03-10 03:10:00,
2013-03-10 17:11:00,53.3,47.3,30.28,North,5,0.0,1.0,80,0.00,,BKN050,0.00,VWS V14.01,2013-03-10 03:11:00,
2013-03-10 17:12:00,53.2,46.9,30.28,North,5,0.0,1.0,79,0.00,,BKN050,0.00,VWS V14.01,2013-03-10 03:12:00,
2013-03-10 17:13:00,55.6,41.5,30.26,WNW,300,0.0,1.0,59,0.00,,SKC,0.00,VWS V14.01,2013-03-10 03:13:00,
2013-03-10 17:14:00,52.9,46.6,30.28,North,5,0.0,1.0,79,0.00,,BKN050,0.00,VWS V14.01,2013-03-10 03:14:00,
2013-03-10 17:15:00,52.8,46.5,30.28,North,5,0.0,1.0,79,0.00,,BKN050,0.00,VWS V14.01,2013-03-10 03:15:00,
2013-03-10 17:16:00,52.7,46.4,30.28,North,5,0.0,0.0,79,0.00,,BKN050,0.00,VWS V14.01,2013-03-10 03:16:00,
2013-03-10 17:17:00,52.8,46.8,30.28,North,5,0.0,0.0,80,0.00,,BKN050,0.00,VWS V14.01,2013-03-10 03:17:00,
2013-03-10 17:18:00,55.6,42.8,30.27,North,5,1.0,2.0,62,0.00,,SKC,0.00,VWS V14.01,2013-03-10 03:18:00,
2013-03-10 17:19:00,52.8,46.5,30.28,North,5,0.0,0.0,79,0.00,,BKN050,0.00,VWS V14.01,2013-03-10 03:19:00,
2013-03-10 17:20:00,52.7,46.4,30.28,North,5,0.0,0.0,79,0.00,,BKN050,0.00,VWS V14.01,2013-03-10 03:20:00,
2013-03-10 17:21:00,52.6,46.3,30.28,North,5,0.0,0.0,79,0.00,,BKN050,0.00,VWS V14.01,2013-03-10 03:21:00,
2013-03-10 17:22:00,52.4,45.8,30.28,North,5,0.0,0.0,78,0.00,,BKN050,0.00,VWS V14.01,2013-03-10 03:22:00,
2013-03-10 17:23:00,55.4,44.2,30.27,North,5,0.0,1.0,66,0.00,,SKC,0.00,VWS V14.01,2013-03-10 03:23:00,
2013-03-10 17:24:00,52.1,45.8,30.29,North,5,0.0,0.0,79,0.00,,BKN050,0.00,VWS V14.01,2013-03-10 03:24:00,
2013-03-10 17:25:00,52.0,45.7,30.29,North,5,0.0,0.0,79,0.00,,BKN050,0.00,VWS V14.01,2013-03-10 03:25:00,
2013-03-10 17:26:00,51.9,45.6,30.29,North,5,0.0,0.0,79,0.00,,BKN050,0.00,VWS V14.01,2013-03-10 03:26:00,
2013-03-10 17:28:00,55.1,45.5,30.27,North,5,0.0,0.0,70,0.00,,SKC,0.00,VWS V14.01,2013-03-10 03:28:00,
2013-03-10 17:29:00,51.5,45.5,30.29,North,5,0.0,0.0,80,0.00,,BKN050,0.00,VWS V14.01,2013-03-10 03:29:00,
2013-03-10 17:30:00,51.4,45.5,30.29,North,5,0.0,0.0,80,0.00,,BKN050,0.00,VWS V14.01,2013-03-10 03:30:00,
2013-03-10 17:31:00,51.2,45.6,30.29,North,5,0.0,0.0,81,0.00,,BKN050,0.00,VWS V14.01,2013-03-10 03:31:00,
2013-03-10 17:32:00,51.1,45.5,30.29,North,5,0.0,0.0,81,0.00,,BKN050,0.00,VWS V14.01,2013-03-10 03:32:00,
2013-03-10 17:33:00,54.6,46.5,30.26,North,5,0.0,1.0,74,0.00,,SKC,0.00,VWS V14.01,2013-03-10 03:33:00,
2013-03-10 17:34:00,51.0,45.7,30.29,North,5,0.0,0.0,82,0.00,,BKN050,0.00,VWS V14.01,2013-03-10 03:34:00,
2013-03-10 17:35:00,51.0,45.7,30.29,North,5,0.0,0.0,82,0.00,,BKN050,0.00,VWS V14.01,2013-03-10 03:35:00,
2013-03-10 17:36:00,50.9,45.6,30.29,North,5,0.0,0.0,82,0.00,,BKN050,0.00,VWS V14.01,2013-03-10 03:36:00,
2013-03-10 17:37:00,50.9,45.6,30.29,North,5,0.0,0.0,82,0.00,,BKN050,0.00,VWS V14.01,2013-03-10 03:37:00,
2013-03-10 17:38:00,54.4,47.3,30.27,North,5,1.0,1.0,77,0.00,,SKC,0.00,VWS V14.01,2013-03-10 03:38:00,
2013-03-10 17:39:00,50.9,45.9,30.29,North,5,0.0,0.0,83,0.00,,BKN050,0.00,VWS V14.01,2013-03-10 03:39:00,
2013-03-10 17:40:00,50.9,45.9,30.29,North,5,0.0,0.0,83,0.00,,BKN050,0.00,VWS V14.01,2013-03-10 03:40:00,
2013-03-10 17:41:00,50.8,45.8,30.29,North,5,0.0,0.0,83,0.00,,BKN050,0.00,VWS V14.01,2013-03-10 03:41:00,
2013-03-10 17:42:00,50.8,45.8,30.29,North,5,0.0,0.0,83,0.00,,BKN050,0.00,VWS V14.01,2013-03-10 03:42:00,
2013-03-10 17:43:00,54.2,47.5,30.27,North,5,0.0,0.0,78,0.00,,SKC,0.00,VWS V14.01,2013-03-10 03:43:00,
2013-03-10 17:44:00,50.9,46.2,30.29,North,5,0.0,0.0,84,0.00,,BKN050,0.00,VWS V14.01,2013-03-10 03:44:00,
2013-03-10 17:45:00,50.9,45.9,30.29,North,5,0.0,0.0,83,0.00,,BKN050,0.00,VWS V14.01,2013-03-10 03:45:00,
2013-03-10 17:46:00,50.8,45.8,30.29,North,5,0.0,1.0,83,0.00,,BKN050,0.00,VWS V14.01,2013-03-10 03:46:00,
2013-03-10 17:47:00,50.6,45.6,30.29,North,5,0.0,0.0,83,0.00,,BKN050,0.00,VWS V14.01,2013-03-10 03:47:00,
2013-03-10 17:48:00,53.9,47.5,30.27,North,5,0.0,1.0,79,0.00,,SKC,0.00,VWS V14.01,2013-03-10 03:48:00,
2013-03-10 17:49:00,50.6,45.6,30.29,North,5,0.0,0.0,83,0.00,,BKN050,0.00,VWS V14.01,2013-03-10 03:49:00,
2013-03-10 17:50:00,50.6,45.6,30.29,North,5,0.0,0.0,83,0.00,,BKN050,0.00,VWS V14.01,2013-03-10 03:50:00,
2013-03-10 17:51:00,50.5,45.5,30.29,North,5,0.0,0.0,83,0.00,,BKN050,0.00,VWS V14.01,2013-03-10 03:51:00,
2013-03-10 17:52:00,50.5,45.5,30.29,North,5,0.0,0.0,83,0.00,,BKN050,0.00,VWS V14.01,2013-03-10 03:52:00,
2013-03-10 17:53:00,53.6,47.6,30.27,North,5,0.0,0.0,80,0.00,,SKC,0.00,VWS V14.01,2013-03-10 03:53:00,
2013-03-10 17:54:00,50.7,46.0,30.29,North,5,0.0,0.0,84,0.00,,BKN050,0.00,VWS V14.01,2013-03-10 03:54:00,
2013-03-10 17:55:00,50.6,45.6,30.29,North,5,0.0,0.0,83,0.00,,BKN050,0.00,VWS V14.01,2013-03-10 03:55:00,
2013-03-10 17:56:00,50.6,45.6,30.29,North,5,0.0,0.0,83,0.00,,BKN050,0.00,VWS V14.01,2013-03-10 03:56:00,
2013-03-10 17:57:00,50.5,45.5,30.30,North,5,0.0,0.0,83,0.00,,BKN050,0.00,VWS V14.01,2013-03-10 03:57:00,
2013-03-10 17:58:00,53.2,47.2,30.27,North,5,0.0,0.0,80,0.00,,SKC,0.00,VWS V14.01,2013-03-10 03:58:00,
2013-03-10 17:59:00,50.2,45.2,30.30,North,5,0.0,0.0,83,0.00,,BKN050,0.00,VWS V14.01,2013-03-10 03:59:00,
2013-03-10 18:00:00,50.1,45.5,30.30,North,5,0.0,0.0,84,0.00,,BKN050,0.00,VWS V14.01,2013-03-10 04:00:00,
2013-03-10 18:01:00,50.0,45.4,30.30,North,5,0.0,0.0,84,0.00,,BKN050,0.00,VWS V14.01,2013-03-10 04:01:00,
2013-03-10 18:02:00,49.9,45.3,30.30,North,5,0.0,0.0,84,0.00,,BKN050,0.00,VWS V14.01,2013-03-10 04:02:00,
2013-03-10 18:03:00,53.6,47.9,30.28,North,5,0.0,0.0,81,0.00,,SKC,0.00,VWS V14.01,2013-03-10 04:03:00,
2013-03-10 18:04:00,50.1,45.8,30.30,North,5,0.0,0.0,85,0.00,,BKN050,0.00,VWS V14.01,2013-03-10 04:04:00,
2013-03-10 18:05:00,50.2,45.9,30.30,North,5,0.0,0.0,85,0.00,,BKN050,0.00,VWS V14.01,2013-03-10 04:05:00,
2013-03-10 18:06:00,50.2,45.9,30.30,North,5,0.0,0.0,85,0.00,,BKN050,0.00,VWS V14.01,2013-03-10 04:06:00,
2013-03-10 18:07:00,50.3,46.0,30.30,North,5,0.0,0.0,85,0.00,,BKN050,0.00,VWS V14.01,2013-03-10 04:07:00,
2013-03-10 18:08:00,53.4,47.1,30.28,North,5,0.0,0.0,79,0.00,,SKC,0.00,VWS V14.01,2013-03-10 04:08:00,
2013-03-10 18:09:00,50.4,46.1,30.30,North,5,0.0,0.0,85,0.00,,BKN050,0.00,VWS V14.01,2013-03-10 04:09:00,
2013-03-10 18:10:00,50.4,46.1,30.30,North,5,0.0,0.0,85,0.00,,BKN050,0.00,VWS V14.01,2013-03-10 04:10:00,
2013-03-10 18:11:00,50.3,45.7,30.30,North,5,0.0,0.0,84,0.00,,BKN050,0.00,VWS V14.01,2013-03-10 04:11:00,
2013-03-10 18:12:00,50.3,45.7,30.30,North,5,0.0,0.0,84,0.00,,BKN050,0.00,VWS V14.01,2013-03-10 04:12:00,
2013-03-10 18:13:00,52.8,46.5,30.28,North,5,1.0,1.0,79,0.00,,SKC,0.00,VWS V14.01,2013-03-10 04:13:00,
2013-03-10 18:14:00,50.2,45.6,30.30,North,5,0.0,0.0,84,0.00,,BKN050,0.00,VWS V14.01,2013-03-10 04:14:00,
2013-03-10 18:15:00,50.2,45.9,30.30,North,5,0.0,0.0,85,0.00,,BKN050,0.00,VWS V14.01,2013-03-10 04:15:00,
2013-03-10 18:16:00,50.1,45.5,30.30,North,5,0.0,0.0,84,0.00,,BKN050,0.00,VWS V14.01,2013-03-10 04:16:00,
2013-03-10 18:17:00,50.1,45.5,30.30,North,5,0.0,1.0,84,0.00,,BKN050,0.00,VWS V14.01,2013-03-10 04:17:00,
2013-03-10 18:18:00,52.8,46.5,30.28,North,5,0.0,0.0,79,0.00,,SKC,0.00,VWS V14.01,2013-03-10 04:18:00,
2013-03-10 18:19:00,49.9,45.3,30.30,North,5,0.0,1.0,84,0.00,,BKN050,0.00,VWS V14.01,2013-03-10 04:19:00,
2013-03-10 18:20:00,49.8,44.8,30.30,North,5,0.0,0.0,83,0.00,,BKN050,0.00,VWS V14.01,2013-03-10 04:20:00,
2013-03-10 18:21:00,49.7,45.1,30.30,North,5,0.0,0.0,84,0.00,,BKN050,0.00,VWS V14.01,2013-03-10 04:21:00,
2013-03-10 18:22:00,49.6,45.0,30.30,North,5,0.0,0.0,84,0.00,,BKN050,0.00,VWS V14.01,2013-03-10 04:22:00,
2013-03-10 18:23:00,52.1,45.8,30.29,North,5,0.0,0.0,79,0.00,,SKC,0.00,VWS V14.01,2013-03-10 04:23:00,
2013-03-10 18:24:00,49.8,45.5,30.30,North,5,0.0,0.0,85,0.00,,BKN050,0.00,VWS V14.01,2013-03-10 04:24:00,
2013-03-10 18:25:00,49.8,45.2,30.30,North,5,0.0,0.0,84,0.00,,BKN050,0.00,VWS V14.01,2013-03-10 04:25:00,
2013-03-10 18:26:00,49.7,44.8,30.30,North,5,0.0,0.0,83,0.00,,BKN050,0.00,VWS V14.01,2013-03-10 04:26:00,
2013-03-10 18:28:00,51.4,45.5,30.29,North,5,0.0,0.0,80,0.00,,SKC,0.00,VWS V14.01,2013-03-10 04:28:00,
2013-03-10 18:33:00,51.0,45.7,30.29,North,5,0.0,0.0,82,0.00,,SKC,0.00,VWS V14.01,2013-03-10 04:33:00,
2013-03-10 18:35:00,49.1,44.5,30.30,North,5,0.0,0.0,84,0.00,,BKN050,0.00,VWS V14.01,2013-03-10 04:35:00,
2013-03-10 18:38:00,50.9,45.9,30.29,North,5,0.0,0.0,83,0.00,,SKC,0.00,VWS V14.01,2013-03-10 04:38:00,
2013-03-10 18:39:00,49.0,44.4,30.30,North,5,0.0,0.0,84,0.00,,BKN050,0.00,VWS V14.01,2013-03-10 04:39:00,
2013-03-10 18:41:00,49.0,44.1,30.30,North,5,1.0,1.0,83,0.00,,BKN050,0.00,VWS V14.01,2013-03-10 04:41:00,
2013-03-10 18:43:00,50.9,45.9,30.29,North,5,0.0,0.0,83,0.00,,SKC,0.00,VWS V14.01,2013-03-10 04:43:00,
2013-03-10 18:48:00,50.6,45.6,30.29,North,5,0.0,0.0,83,0.00,,SKC,0.00,VWS V14.01,2013-03-10 04:48:00,
2013-03-10 18:51:00,48.8,43.6,30.31,North,5,0.0,0.0,82,0.00,,BKN050,0.00,VWS V14.01,2013-03-10 04:51:00,
2013-03-10 18:52:00,48.8,43.6,30.31,North,5,0.0,0.0,82,0.00,,BKN050,0.00,VWS V14.01,2013-03-10 04:52:00,
2013-03-10 18:53:00,50.7,46.0,30.29,North,5,0.0,0.0,84,0.00,,SKC,0.00,VWS V14.01,2013-03-10 04:53:00,
2013-03-10 18:56:00,48.8,43.9,30.31,North,5,0.0,0.0,83,0.00,,BKN050,0.00,VWS V14.01,2013-03-10 04:56:00,
2013-03-10 18:58:00,50.1,45.5,30.30,North,5,0.0,0.0,84,0.00,,SKC,0.00,VWS V14.01,2013-03-10 04:58:00,
2013-03-10 18:59:00,48.8,43.6,30.30,North,5,0.0,0.0,82,0.00,,BKN050,0.00,VWS V14.01,2013-03-10 04:59:00,
2013-03-10 19:00:00,50.0,45.4,30.30,North,5,0.0,0.0,84,0.00,,SKC,0.00,VWS V14.01,2013-03-10 05:00:00,
2013-03-10 19:05:00,50.2,45.9,30.30,North,5,0.0,0.0,85,0.00,,SKC,0.00,VWS V14.01,2013-03-10 05:05:00,
2013-03-10 19:06:00,48.6,43.0,30.31,North,5,0.0,0.0,81,0.00,,BKN050,0.00,VWS V14.01,2013-03-10 05:06:00,
2013-03-10 19:07:00,48.4,42.8,30.31,North,5,0.0,0.0,81,0.00,,BKN050,0.00,VWS V14.01,2013-03-10 05:07:00,
2013-03-10 19:10:00,50.3,45.7,30.30,North,5,0.0,0.0,84,0.00,,SKC,0.00,VWS V14.01,2013-03-10 05:10:00,
2013-03-10 19:12:00,47.7,42.5,30.31,North,5,0.0,0.0,82,0.00,,BKN050,0.00,VWS V14.01,2013-03-10 05:12:00,
2013-03-10 19:15:00,50.1,45.5,30.30,North,5,1.0,1.0,84,0.00,,SKC,0.00,VWS V14.01,2013-03-10 05:15:00,
2013-03-10 19:16:00,47.5,42.6,30.31,North,5,0.0,0.0,83,0.00,,BKN050,0.00,VWS V14.01,2013-03-10 05:16:00,
2013-03-10 19:18:00,47.6,42.7,30.31,North,5,0.0,0.0,83,0.00,,BKN050,0.00,VWS V14.01,2013-03-10 05:18:00,
2013-03-10 19:19:00,47.7,42.8,30.31,North,5,0.0,0.0,83,0.00,,BKN050,0.00,VWS V14.01,2013-03-10 05:19:00,
2013-03-10 19:20:00,49.7,45.1,30.30,North,5,0.0,0.0,84,0.00,,SKC,0.00,VWS V14.01,2013-03-10 05:20:00,
2013-03-10 19:21:00,47.8,43.2,30.31,North,5,0.0,0.0,84,0.00,,BKN050,0.00,VWS V14.01,2013-03-10 05:21:00,
2013-03-10 19:22:00,47.8,42.6,30.31,North,5,0.0,0.0,82,0.00,,BKN050,0.00,VWS V14.01,2013-03-10 05:22:00,
2013-03-10 19:24:00,47.5,42.3,30.31,North,5,0.0,0.0,82,0.00,,BKN050,0.00,VWS V14.01,2013-03-10 05:24:00,
2013-03-10 19:25:00,49.6,44.7,30.30,North,5,0.0,0.0,83,0.00,,SKC,0.00,VWS V14.01,2013-03-10 05:25:00,
2013-03-10 19:26:00,47.3,42.1,30.31,North,5,0.0,0.0,82,0.00,,BKN050,0.00,VWS V14.01,2013-03-10 05:26:00,
2013-03-10 19:27:00,47.2,42.0,30.31,North,5,0.0,0.0,82,0.00,,BKN050,0.00,VWS V14.01,2013-03-10 05:27:00,
2013-03-10 19:28:00,47.1,41.9,30.31,North,5,0.0,0.0,82,0.00,,BKN050,0.00,VWS V14.01,2013-03-10 05:28:00,
2013-03-10 19:29:00,47.1,42.2,30.31,North,5,0.0,0.0,83,0.00,,BKN050,0.00,VWS V14.01,2013-03-10 05:29:00,
2013-03-10 19:30:00,49.4,44.8,30.30,North,5,0.0,0.0,84,0.00,,SKC,0.00,VWS V14.01,2013-03-10 05:30:00,
2013-03-10 19:31:00,47.3,42.7,30.31,North,5,0.0,0.0,84,0.00,,BKN050,0.00,VWS V14.01,2013-03-10 05:31:00,
2013-03-10 19:32:00,47.2,42.3,30.31,North,5,0.0,0.0,83,0.00,,BKN050,0.00,VWS V14.01,2013-03-10 05:32:00,
2013-03-10 19:33:00,47.1,42.2,30.31,North,5,0.0,0.0,83,0.00,,BKN050,0.00,VWS V14.01,2013-03-10 05:33:00,
2013-03-10 19:34:00,47.0,41.8,30.31,North,5,0.0,0.0,82,0.00,,BKN050,0.00,VWS V14.01,2013-03-10 05:34:00,
2013-03-10 19:35:00,49.1,44.8,30.30,North,5,0.0,0.0,85,0.00,,SKC,0.00,VWS V14.01,2013-03-10 05:35:00,
2013-03-10 19:36:00,46.8,41.6,30.31,North,5,0.0,0.0,82,0.00,,BKN050,0.00,VWS V14.01,2013-03-10 05:36:00,
2013-03-10 19:37:00,46.7,41.8,30.31,North,5,0.0,0.0,83,0.00,,BKN050,0.00,VWS V14.01,2013-03-10 05:37:00,
2013-03-10 19:38:00,46.5,41.6,30.31,North,5,0.0,0.0,83,0.00,,BKN050,0.00,VWS V14.01,2013-03-10 05:38:00,
2013-03-10 19:39:00,46.4,41.5,30.31,North,5,0.0,0.0,83,0.00,,BKN050,0.00,VWS V14.01,2013-03-10 05:39:00,
2013-03-10 19:40:00,49.0,44.1,30.30,North,5,1.0,1.0,83,0.00,,SKC,0.00,VWS V14.01,2013-03-10 05:40:00,
2013-03-10 19:41:00,46.5,41.9,30.31,North,5,0.0,0.0,84,0.00,,BKN050,0.00,VWS V14.01,2013-03-10 05:41:00,
2013-03-10 19:42:00,46.7,42.1,30.31,North,5,0.0,0.0,84,0.00,,BKN050,0.00,VWS V14.01,2013-03-10 05:42:00,
2013-03-10 19:43:00,46.8,42.2,30.31,North,5,0.0,1.0,84,0.00,,BKN050,0.00,VWS V14.01,2013-03-10 05:43:00,
2013-03-10 19:44:00,46.8,42.2,30.31,North,5,0.0,0.0,84,0.00,,BKN050,0.00,VWS V14.01,2013-03-10 05:44:00,
2013-03-10 19:45:00,48.6,43.7,30.31,North,5,0.0,0.0,83,0.00,,SKC,0.00,VWS V14.01,2013-03-10 05:45:00,
2013-03-10 19:46:00,46.9,42.0,30.31,North,5,0.0,0.0,83,0.00,,BKN050,0.00,VWS V14.01,2013-03-10 05:46:00,
2013-03-10 19:47:00,46.9,42.0,30.31,North,5,0.0,0.0,83,0.00,,BKN050,0.00,VWS V14.01,2013-03-10 05:47:00,
2013-03-10 19:48:00,46.9,42.0,30.31,North,5,0.0,0.0,83,0.00,,BKN050,0.00,VWS V14.01,2013-03-10 05:48:00,
2013-03-10 19:49:00,47.0,42.1,30.31,North,5,0.0,0.0,83,0.00,,BKN050,0.00,VWS V14.01,2013-03-10 05:49:00,
2013-03-10 19:50:00,48.8,43.6,30.31,North,5,0.0,0.0,82,0.00,,SKC,0.00,VWS V14.01,2013-03-10 05:50:00,
2013-03-10 19:51:00,47.2,42.3,30.31,North,5,0.0,0.0,83,0.00,,BKN050,0.00,VWS V14.01,2013-03-10 05:51:00,
2013-03-10 19:52:00,47.2,42.0,30.31,North,5,0.0,0.0,82,0.00,,BKN050,0.00,VWS V14.01,2013-03-10 05:52:00,
2013-03-10 19:53:00,47.2,42.3,30.31,North,5,0.0,0.0,83,0.00,,BKN050,0.00,VWS V14.01,2013-03-10 05:53:00,
2013-03-10 19:54:00,47.2,42.3,30.31,North,5,0.0,0.0,83,0.00,,BKN050,0.00,VWS V14.01,2013-03-10 05:54:00,
2013-03-10 19:55:00,48.8,43.6,30.31,North,5,0.0,0.0,82,0.00,,SKC,0.00,VWS V14.01,2013-03-10 05:55:00,
2013-03-10 19:57:00,47.3,42.4,30.31,North,5,0.0,0.0,83,0.00,,BKN050,0.00,VWS V14.01,2013-03-10 05:57:00,
2013-03-10 19:58:00,47.3,42.1,30.31,North,5,0.0,0.0,82,0.00,,BKN050,0.00,VWS V14.01,2013-03-10 05:58:00,
2013-03-10 19:59:00,47.2,42.0,30.31,North,5,0.0,0.0,82,0.00,,BKN050,0.00,VWS V14.01,2013-03-10 05:59:00,
2013-03-10 20:00:00,48.8,43.6,30.31,North,5,0.0,0.0,82,0.00,,SKC,0.00,VWS V14.01,2013-03-10 06:00:00,
2013-03-10 20:01:00,47.0,41.8,30.31,North,5,0.0,1.0,82,0.00,,BKN050,0.00,VWS V14.01,2013-03-10 06:01:00,
2013-03-10 20:02:00,46.9,41.7,30.31,North,5,0.0,1.0,82,0.00,,BKN050,0.00,VWS V14.01,2013-03-10 06:02:00,
2013-03-10 20:03:00,46.8,41.6,30.31,North,5,0.0,1.0,82,0.00,,BKN050,0.00,VWS V14.01,2013-03-10 06:03:00,
2013-03-10 20:04:00,46.9,42.0,30.31,North,5,0.0,0.0,83,0.00,,BKN050,0.00,VWS V14.01,2013-03-10 06:04:00,
2013-03-10 20:05:00,48.5,43.0,30.31,North,5,0.0,0.0,81,0.00,,SKC,0.00,VWS V14.01,2013-03-10 06:05:00,
2013-03-10 20:06:00,46.6,41.1,30.30,North,5,0.0,0.0,81,0.00,,BKN050,0.00,VWS V14.01,2013-03-10 06:06:00,
2013-03-10 20:07:00,46.6,41.4,30.30,North,5,0.0,0.0,82,0.00,,BKN050,0.00,VWS V14.01,2013-03-10 06:07:00,
2013-03-10 20:08:00,46.7,41.8,30.30,North,5,0.0,0.0,83,0.00,,BKN050,0.00,VWS V14.01,2013-03-10 06:08:00,
2013-03-10 20:09:00,46.9,42.0,30.30,North,5,0.0,0.0,83,0.00,,BKN050,0.00,VWS V14.01,2013-03-10 06:09:00,
2013-03-10 20:10:00,47.8,42.3,30.31,North,5,0.0,0.0,81,0.00,,SKC,0.00,VWS V14.01,2013-03-10 06:10:00,
2013-03-10 20:11:00,46.7,41.5,30.30,North,5,0.0,0.0,82,0.00,,BKN050,0.00,VWS V14.01,2013-03-10 06:11:00,
2013-03-10 20:12:00,46.5,41.0,30.30,North,5,0.0,0.0,81,0.00,,BKN050,0.00,VWS V14.01,2013-03-10 06:12:00,
2013-03-10 20:13:00,46.4,40.9,30.30,North,5,0.0,0.0,81,0.00,,BKN050,0.00,VWS V14.01,2013-03-10 06:13:00,
2013-03-10 20:14:00,46.3,41.1,30.30,North,5,0.0,0.0,82,0.00,,BKN050,0.00,VWS V14.01,2013-03-10 06:14:00,
2013-03-10 20:15:00,47.5,42.6,30.31,North,5,0.0,0.0,83,0.00,,SKC,0.00,VWS V14.01,2013-03-10 06:15:00,
2013-03-10 20:16:00,46.0,40.8,30.30,North,5,0.0,0.0,82,0.00,,BKN050,0.00,VWS V14.01,2013-03-10 06:16:00,
2013-03-10 20:17:00,45.9,40.7,30.30,North,5,0.0,1.0,82,0.00,,BKN050,0.00,VWS V14.01,2013-03-10 06:17:00,
2013-03-10 20:18:00,45.7,40.5,30.30,North,5,0.0,1.0,82,0.00,,BKN050,0.00,VWS V14.01,2013-03-10 06:18:00,
2013-03-10 20:19:00,45.6,40.4,30.30,North,5,0.0,1.0,82,0.00,,BKN050,0.00,VWS V14.01,2013-03-10 06:19:00,
2013-03-10 20:20:00,47.9,43.0,30.31,North,5,0.0,0.0,83,0.00,,SKC,0.00,VWS V14.01,2013-03-10 06:20:00,
2013-03-10 20:21:00,45.5,40.7,30.30,North,5,0.0,0.0,83,0.00,,BKN050,0.00,VWS V14.01,2013-03-10 06:21:00,
2013-03-10 20:22:00,45.4,40.5,30.30,North,5,0.0,0.0,83,0.00,,BKN050,0.00,VWS V14.01,2013-03-10 06:22:00,
2013-03-10 20:24:00,45.5,41.0,30.30,North,5,0.0,0.0,84,0.00,,BKN050,0.00,VWS V14.01,2013-03-10 06:24:00,
2013-03-10 20:25:00,47.2,42.0,30.31,North,5,0.0,0.0,82,0.00,,SKC,0.00,VWS V14.01,2013-03-10 06:25:00,
2013-03-10 20:26:00,45.5,40.7,30.30,North,5,0.0,0.0,83,0.00,,BKN050,0.00,VWS V14.01,2013-03-10 06:26:00,
2013-03-10 20:28:00,45.4,40.5,30.30,North,5,0.0,0.0,83,0.00,,BKN050,0.00,VWS V14.01,2013-03-10 06:28:00,
2013-03-10 20:29:00,45.3,40.5,30.30,North,5,0.0,0.0,83,0.00,,BKN050,0.00,VWS V14.01,2013-03-10 06:29:00,
2013-03-10 20:30:00,47.2,42.3,30.31,North,5,0.0,0.0,83,0.00,,SKC,0.00,VWS V14.01,2013-03-10 06:30:00,
2013-03-10 20:31:00,45.2,40.7,30.30,North,5,1.0,1.0,84,0.00,,BKN050,0.00,VWS V14.01,2013-03-10 06:31:00,
2013-03-10 20:32:00,45.1,40.6,30.30,NE,44,3.0,3.0,84,0.00,,BKN050,0.00,VWS V14.01,2013-03-10 06:32:00,
2013-03-10 20:33:00,45.0,40.5,30.30,NE,45,0.0,3.0,84,0.00,,BKN050,0.00,VWS V14.01,2013-03-10 06:33:00,
2013-03-10 20:34:00,45.0,40.5,30.30,NE,45,0.0,0.0,84,0.00,,BKN050,0.00,VWS V14.01,2013-03-10 06:34:00,
2013-03-10 20:35:00,46.8,41.6,30.31,North,5,0.0,0.0,82,0.00,,SKC,0.00,VWS V14.01,2013-03-10 06:35:00,
2013-03-10 20:36:00,45.0,40.5,30.30,NE,45,0.0,0.0,84,0.00,,BKN050,0.00,VWS V14.01,2013-03-10 06:36:00,
2013-03-10 20:37:00,45.0,40.5,30.30,NE,45,0.0,1.0,84,0.00,,BKN050,0.00,VWS V14.01,2013-03-10 06:37:00,
2013-03-10 20:38:00,44.9,40.4,30.30,NE,45,0.0,1.0,84,0.00,,BKN050,0.00,VWS V14.01,2013-03-10 06:38:00,
2013-03-10 20:39:00,44.9,40.4,30.30,NE,45,0.0,0.0,84,0.00,,BKN050,0.00,VWS V14.01,2013-03-10 06:39:00,
2013-03-10 20:40:00,46.5,41.9,30.31,North,5,0.0,0.0,84,0.00,,SKC,0.00,VWS V14.01,2013-03-10 06:40:00,
2013-03-10 20:41:00,44.7,40.5,30.30,NE,45,0.0,0.0,85,0.00,,BKN050,0.00,VWS V14.01,2013-03-10 06:41:00,
2013-03-10 20:42:00,44.7,40.5,30.30,NE,45,0.0,0.0,85,0.00,,BKN050,0.00,VWS V14.01,2013-03-10 06:42:00,
2013-03-10 20:43:00,44.9,40.7,30.30,NE,45,0.0,0.0,85,0.00,,BKN050,0.00,VWS V14.01,2013-03-10 06:43:00,
2013-03-10 20:44:00,45.0,41.1,30.30,NE,45,0.0,0.0,86,0.00,,BKN050,0.00,VWS V14.01,2013-03-10 06:44:00,
2013-03-10 20:45:00,46.9,42.0,30.31,North,5,0.0,0.0,83,0.00,,SKC,0.00,VWS V14.01,2013-03-10 06:45:00,
2013-03-10 20:46:00,45.4,41.5,30.30,NE,45,0.0,0.0,86,0.00,,BKN050,0.00,VWS V14.01,2013-03-10 06:46:00,
2013-03-10 20:47:00,45.6,41.7,30.30,NE,45,0.0,0.0,86,0.00,,BKN050,0.00,VWS V14.01,2013-03-10 06:47:00,
2013-03-10 20:48:00,45.6,41.7,30.30,NE,45,0.0,0.0,86,0.00,,BKN050,0.00,VWS V14.01,2013-03-10 06:48:00,
2013-03-10 20:49:00,45.6,41.0,30.30,NE,45,0.0,0.0,84,0.00,,BKN050,0.00,VWS V14.01,2013-03-10 06:49:00,
2013-03-10 20:50:00,47.2,42.3,30.31,North,5,0.0,0.0,83,0.00,,SKC,0.00,VWS V14.01,2013-03-10 06:50:00,
2013-03-10 20:51:00,45.3,40.8,30.30,NE,45,0.0,0.0,84,0.00,,BKN050,0.00,VWS V14.01,2013-03-10 06:51:00,
2013-03-10 20:52:00,45.1,40.6,30.30,NE,45,0.0,0.0,84,0.00,,BKN050,0.00,VWS V14.01,2013-03-10 06:52:00,
2013-03-10 20:53:00,45.0,40.5,30.30,NE,45,0.0,1.0,84,0.00,,BKN050,0.00,VWS V14.01,2013-03-10 06:53:00,
2013-03-10 20:54:00,45.1,40.9,30.30,NE,45,0.0,0.0,85,0.00,,BKN050,0.00,VWS V14.01,2013-03-10 06:54:00,
2013-03-10 20:55:00,47.3,42.4,30.31,North,5,0.0,0.0,83,0.00,,SKC,0.00,VWS V14.01,2013-03-10 06:55:00,
2013-03-10 20:56:00,45.5,41.3,30.31,NE,45,0.0,0.0,85,0.00,,BKN050,0.00,VWS V14.01,2013-03-10 06:56:00,
2013-03-10 20:57:00,45.4,40.9,30.31,NE,45,0.0,0.0,84,0.00,,BKN050,0.00,VWS V14.01,2013-03-10 06:57:00,
2013-03-10 20:58:00,45.2,40.7,30.31,NE,45,0.0,0.0,84,0.00,,BKN050,0.00,VWS V14.01,2013-03-10 06:58:00,
2013-03-10 20:59:00,45.1,40.6,30.31,NE,45,0.0,0.0,84,0.00,,BKN050,0.00,VWS V14.01,2013-03-10 06:59:00,
2013-03-10 21:00:00,47.0,41.8,30.31,North,5,1.0,1.0,82,0.00,,SKC,0.00,VWS V14.01,2013-03-10 07:00:00,
2013-03-10 21:01:00,44.8,40.3,30.30,NE,45,0.0,0.0,84,0.00,,BKN050,0.00,VWS V14.01,2013-03-10 07:01:00,
2013-03-10 21:02:00,44.6,40.1,30.31,NE,45,0.0,0.0,84,0.00,,BKN050,0.00,VWS V14.01,2013-03-10 07:02:00,
2013-03-10 21:03:00,44.5,40.0,30.31,NE,45,0.0,0.0,84,0.00,,BKN050,0.00,VWS V14.01,2013-03-10 07:03:00,
2013-03-10 21:04:00,44.4,39.9,30.31,NE,45,0.0,0.0,84,0.00,,BKN050,0.00,VWS V14.01,2013-03-10 07:04:00,
2013-03-10 21:05:00,46.6,41.4,30.30,North,5,0.0,0.0,82,0.00,,SKC,0.00,VWS V14.01,2013-03-10 07:05:00,
2013-03-10 21:06:00,44.5,40.3,30.31,NE,45,0.0,0.0,85,0.00,,BKN050,0.00,VWS V14.01,2013-03-10 07:06:00,
2013-03-10 21:07:00,44.4,40.2,30.31,NE,45,0.0,0.0,85,0.00,,BKN050,0.00,VWS V14.01,2013-03-10 07:07:00,
2013-03-10 21:08:00,44.3,40.1,30.31,NE,45,0.0,0.0,85,0.00,,BKN050,0.00,VWS V14.01,2013-03-10 07:08:00,
2013-03-10 21:09:00,44.3,40.1,30.31,NE,45,0.0,0.0,85,0.00,,BKN050,0.00,VWS V14.01,2013-03-10 07:09:00,
2013-03-10 21:10:00,46.7,41.5,30.30,North,5,0.0,0.0,82,0.00,,SKC,0.00,VWS V14.01,2013-03-10 07:10:00,
2013-03-10 21:11:00,44.4,40.5,30.31,NE,45,0.0,0.0,86,0.00,,BKN050,0.00,VWS V14.01,2013-03-10 07:11:00,
2013-03-10 21:12:00,44.3,40.4,30.31,NE,45,0.0,0.0,86,0.00,,BKN050,0.00,VWS V14.01,2013-03-10 07:12:00,
2013-03-10 21:15:00,46.0,40.8,30.30,North,5,0.0,0.0,82,0.00,,SKC,0.00,VWS V14.01,2013-03-10 07:15:00,
2013-03-10 21:16:00,44.0,39.8,30.31,NE,45,0.0,0.0,85,0.00,,BKN050,0.00,VWS V14.01,2013-03-10 07:16:00,
2013-03-10 21:17:00,44.1,40.5,30.31,NE,45,0.0,0.0,87,0.00,,BKN050,0.00,VWS V14.01,2013-03-10 07:17:00,
2013-03-10 21:18:00,44.0,40.1,30.31,NE,45,0.0,0.0,86,0.00,,BKN050,0.00,VWS V14.01,2013-03-10 07:18:00,
2013-03-10 21:19:00,44.0,40.1,30.31,NE,45,0.0,0.0,86,0.00,,BKN050,0.00,VWS V14.01,2013-03-10 07:19:00,
2013-03-10 21:20:00,45.4,40.5,30.30,North,5,0.0,0.0,83,0.00,,SKC,0.00,VWS V14.01,2013-03-10 07:20:00,
2013-03-10 21:21:00,43.8,39.9,30.31,NE,45,0.0,0.0,86,0.00,,BKN050,0.00,VWS V14.01,2013-03-10 07:21:00,
2013-03-10 21:22:00,43.8,39.9,30.31,NE,45,0.0,0.0,86,0.00,,BKN050,0.00,VWS V14.01,2013-03-10 07:22:00,
2013-03-10 21:23:00,43.8,39.9,30.31,NE,45,0.0,0.0,86,0.00,,BKN050,0.00,VWS V14.01,2013-03-10 07:23:00,
2013-03-10 21:24:00,43.8,40.2,30.31,NE,45,0.0,0.0,87,0.00,,BKN050,0.00,VWS V14.01,2013-03-10 07:24:00,
2013-03-10 21:25:00,45.5,40.7,30.30,North,5,0.0,0.0,83,0.00,,SKC,0.00,VWS V14.01,2013-03-10 07:25:00,
2013-03-10 21:27:00,43.6,39.7,30.31,NE,45,0.0,0.0,86,0.00,,BKN050,0.00,VWS V14.01,2013-03-10 07:27:00,
2013-03-10 21:29:00,43.4,39.5,30.31,NE,45,0.0,0.0,86,0.00,,BKN050,0.00,VWS V14.01,2013-03-10 07:29:00,
2013-03-10 21:30:00,45.2,40.7,30.30,North,5,1.0,1.0,84,0.00,,SKC,0.00,VWS V14.01,2013-03-10 07:30:00,
2013-03-10 21:31:00,43.4,39.5,30.31,NE,45,0.0,0.0,86,0.00,,BKN050,0.00,VWS V14.01,2013-03-10 07:31:00,
2013-03-10 21:32:00,43.3,39.7,30.31,NE,45,0.0,0.0,87,0.00,,BKN050,0.00,VWS V14.01,2013-03-10 07:32:00,
2013-03-10 21:33:00,43.3,39.7,30.31,NE,45,0.0,0.0,87,0.00,,BKN050,0.00,VWS V14.01,2013-03-10 07:33:00,
2013-03-10 21:34:00,43.2,39.6,30.31,NE,45,0.0,0.0,87,0.00,,BKN050,0.00,VWS V14.01,2013-03-10 07:34:00,
2013-03-10 21:35:00,45.0,40.5,30.30,NE,45,0.0,0.0,84,0.00,,SKC,0.00,VWS V14.01,2013-03-10 07:35:00,
2013-03-10 21:37:00,43.2,39.6,30.31,NE,45,0.0,0.0,87,0.00,,BKN050,0.00,VWS V14.01,2013-03-10 07:37:00,
2013-03-10 21:38:00,43.1,39.5,30.31,NE,45,0.0,0.0,87,0.00,,BKN050,0.00,VWS V14.01,2013-03-10 07:38:00,
2013-03-10 21:40:00,44.7,40.5,30.30,NE,45,0.0,0.0,85,0.00,,SKC,0.00,VWS V14.01,2013-03-10 07:40:00,
2013-03-10 21:41:00,43.0,39.4,30.31,NE,45,0.0,0.0,87,0.00,,BKN050,0.00,VWS V14.01,2013-03-10 07:41:00,
2013-03-10 21:42:00,42.9,39.3,30.31,NE,45,0.0,0.0,87,0.00,,BKN050,0.00,VWS V14.01,2013-03-10 07:42:00,
2013-03-10 21:43:00,42.9,39.3,30.31,NE,45,0.0,0.0,87,0.00,,BKN050,0.00,VWS V14.01,2013-03-10 07:43:00,
2013-03-10 21:44:00,42.8,39.2,30.31,NE,45,0.0,0.0,87,0.00,,BKN050,0.00,VWS V14.01,2013-03-10 07:44:00,
2013-03-10 21:45:00,45.4,41.5,30.30,NE,45,0.0,0.0,86,0.00,,SKC,0.00,VWS V14.01,2013-03-10 07:45:00,
2013-03-10 21:46:00,42.8,39.5,30.31,NE,45,0.0,0.0,88,0.00,,BKN050,0.00,VWS V14.01,2013-03-10 07:46:00,
2013-03-10 21:47:00,42.8,39.5,30.31,NE,45,0.0,0.0,88,0.00,,BKN050,0.00,VWS V14.01,2013-03-10 07:47:00,
2013-03-10 21:48:00,42.7,39.4,30.31,NE,45,0.0,0.0,88,0.00,,BKN050,0.00,VWS V14.01,2013-03-10 07:48:00,
2013-03-10 21:49:00,42.7,39.4,30.31,NE,45,0.0,0.0,88,0.00,,BKN050,0.00,VWS V14.01,2013-03-10 07:49:00,
2013-03-10 21:50:00,45.3,40.8,30.30,NE,45,0.0,0.0,84,0.00,,SKC,0.00,VWS V14.01,2013-03-10 07:50:00,
2013-03-10 21:51:00,42.6,39.3,30.31,NE,45,0.0,0.0,88,0.00,,BKN050,0.00,VWS V14.01,2013-03-10 07:51:00,
2013-03-10 21:52:00,42.6,39.3,30.31,NE,45,0.0,0.0,88,0.00,,BKN050,0.00,VWS V14.01,2013-03-10 07:52:00,
2013-03-10 21:55:00,45.4,41.2,30.31,NE,45,0.0,0.0,85,0.00,,SKC,0.00,VWS V14.01,2013-03-10 07:55:00,
2013-03-10 21:56:00,42.5,39.2,30.31,NE,45,0.0,1.0,88,0.00,,BKN050,0.00,VWS V14.01,2013-03-10 07:56:00,
2013-03-10 21:57:00,42.4,39.1,30.31,NE,45,0.0,1.0,88,0.00,,BKN050,0.00,VWS V14.01,2013-03-10 07:57:00,
2013-03-10 21:58:00,42.4,39.1,30.31,NE,45,0.0,1.0,88,0.00,,BKN050,0.00,VWS V14.01,2013-03-10 07:58:00,
2013-03-10 21:59:00,42.4,39.1,30.31,NE,45,0.0,1.0,88,0.00,,BKN050,0.00,VWS V14.01,2013-03-10 07:59:00,
2013-03-10 22:00:00,44.7,40.2,30.31,NE,45,0.0,0.0,84,0.00,,SKC,0.00,VWS V14.01,2013-03-10 08:00:00,
2013-03-10 22:01:00,42.4,39.1,30.31,NE,45,0.0,1.0,88,0.00,,BKN050,0.00,VWS V14.01,2013-03-10 08:01:00,
2013-03-10 22:02:00,42.4,39.4,30.31,NE,45,0.0,0.0,89,0.00,,BKN050,0.00,VWS V14.01,2013-03-10 08:02:00,
2013-03-10 22:03:00,42.4,39.4,30.31,NE,45,0.0,1.0,89,0.00,,BKN050,0.00,VWS V14.01,2013-03-10 08:03:00,
2013-03-10 22:04:00,42.4,39.1,30.30,NE,45,0.0,0.0,88,0.00,,BKN050,0.00,VWS V14.01,2013-03-10 08:04:00,
2013-03-10 22:05:00,44.5,40.3,30.31,NE,45,0.0,0.0,85,0.00,,SKC,0.00,VWS V14.01,2013-03-10 08:05:00,
2013-03-10 22:06:00,42.3,39.0,30.31,NE,45,0.0,0.0,88,0.00,,BKN050,0.00,VWS V14.01,2013-03-10 08:06:00,
2013-03-10 22:07:00,42.3,39.0,30.31,NE,45,0.0,0.0,88,0.00,,BKN050,0.00,VWS V14.01,2013-03-10 08:07:00,
2013-03-10 22:08:00,42.2,38.9,30.31,NE,45,0.0,1.0,88,0.00,,BKN050,0.00,VWS V14.01,2013-03-10 08:08:00,
2013-03-10 22:09:00,42.2,38.9,30.31,NE,45,0.0,1.0,88,0.00,,BKN050,0.00,VWS V14.01,2013-03-10 08:09:00,
2013-03-10 22:10:00,44.4,40.5,30.31,NE,45,0.0,0.0,86,0.00,,SKC,0.00,VWS V14.01,2013-03-10 08:10:00,
2013-03-10 22:11:00,42.2,38.9,30.31,NE,45,1.0,2.0,88,0.00,,BKN050,0.00,VWS V14.01,2013-03-10 08:11:00,
2013-03-10 22:12:00,42.2,38.9,30.31,NE,45,0.0,1.0,88,0.00,,BKN050,0.00,VWS V14.01,2013-03-10 08:12:00,
2013-03-10 22:13:00,42.2,38.9,30.31,NE,45,0.0,0.0,88,0.00,,BKN050,0.00,VWS V14.01,2013-03-10 08:13:00,
2013-03-10 22:14:00,42.1,38.8,30.31,NE,45,0.0,0.0,88,0.00,,BKN050,0.00,VWS V14.01,2013-03-10 08:14:00,
2013-03-10 22:15:00,44.1,39.9,30.31,NE,45,0.0,0.0,85,0.00,,SKC,0.00,VWS V14.01,2013-03-10 08:15:00,
2013-03-10 22:16:00,42.1,38.8,30.31,NE,45,0.0,0.0,88,0.00,,BKN050,0.00,VWS V14.01,2013-03-10 08:16:00,
2013-03-10 22:17:00,42.1,38.8,30.31,NE,45,0.0,0.0,88,0.00,,BKN050,0.00,VWS V14.01,2013-03-10 08:17:00,
2013-03-10 22:18:00,42.1,38.8,30.31,NE,45,0.0,0.0,88,0.00,,BKN050,0.00,VWS V14.01,2013-03-10 08:18:00,
2013-03-10 22:19:00,42.0,38.7,30.31,NE,45,0.0,0.0,88,0.00,,BKN050,0.00,VWS V14.01,2013-03-10 08:19:00,
2013-03-10 22:20:00,43.8,39.9,30.31,NE,45,0.0,0.0,86,0.00,,SKC,0.00,VWS V14.01,2013-03-10 08:20:00,
2013-03-10 22:21:00,42.0,38.7,30.31,NE,45,1.0,1.0,88,0.00,,BKN050,0.00,VWS V14.01,2013-03-10 08:21:00,
2013-03-10 22:22:00,42.0,39.0,30.31,NE,45,0.0,1.0,89,0.00,,BKN050,0.00,VWS V14.01,2013-03-10 08:22:00,
2013-03-10 22:23:00,42.0,39.0,30.31,NE,45,0.0,0.0,89,0.00,,BKN050,0.00,VWS V14.01,2013-03-10 08:23:00,
2013-03-10 22:24:00,42.0,39.0,30.31,NE,45,0.0,0.0,89,0.00,,BKN050,0.00,VWS V14.01,2013-03-10 08:24:00,
2013-03-10 22:25:00,43.7,39.8,30.31,NE,45,0.0,0.0,86,0.00,,SKC,0.00,VWS V14.01,2013-03-10 08:25:00,
2013-03-10 22:26:00,41.9,38.9,30.31,NE,45,0.0,1.0,89,0.00,,BKN050,0.00,VWS V14.01,2013-03-10 08:26:00,
2013-03-10 22:27:00,41.9,38.9,30.31,NE,45,2.0,2.0,89,0.00,,BKN050,0.00,VWS V14.01,2013-03-10 08:27:00,
2013-03-10 22:28:00,42.0,39.0,30.31,NE,45,2.0,2.0,89,0.00,,BKN050,0.00,VWS V14.01,2013-03-10 08:28:00,
2013-03-10 22:29:00,42.0,39.0,30.32,NE,45,0.0,2.0,89,0.00,,BKN050,0.00,VWS V14.01,2013-03-10 08:29:00,
2013-03-10 22:30:00,43.3,39.4,30.31,NE,45,0.0,0.0,86,0.00,,SKC,0.00,VWS V14.01,2013-03-10 08:30:00,
2013-03-10 22:31:00,42.0,39.0,30.32,NE,45,0.0,0.0,89,0.00,,BKN050,0.00,VWS V14.01,2013-03-10 08:31:00,
2013-03-10 22:32:00,42.0,39.0,30.32,NE,45,0.0,0.0,89,0.00,,BKN050,0.00,VWS V14.01,2013-03-10 08:32:00,
2013-03-10 22:34:00,42.1,39.1,30.32,NE,45,0.0,0.0,89,0.00,,BKN050,0.00,VWS V14.01,2013-03-10 08:34:00,
2013-03-10 22:35:00,43.1,39.5,30.31,NE,45,0.0,0.0,87,0.00,,SKC,0.00,VWS V14.01,2013-03-10 08:35:00,
2013-03-10 22:37:00,42.0,38.7,30.31,NE,45,0.0,0.0,88,0.00,,BKN050,0.00,VWS V14.01,2013-03-10 08:37:00,
2013-03-10 22:38:00,42.0,38.7,30.31,NE,45,0.0,0.0,88,0.00,,BKN050,0.00,VWS V14.01,2013-03-10 08:38:00,
2013-03-10 22:39:00,42.0,38.7,30.31,NE,45,0.0,0.0,88,0.00,,BKN050,0.00,VWS V14.01,2013-03-10 08:39:00,
2013-03-10 22:40:00,43.0,39.4,30.31,NE,45,0.0,0.0,87,0.00,,SKC,0.00,VWS V14.01,2013-03-10 08:40:00,
2013-03-10 22:42:00,41.9,38.6,30.31,NE,45,0.0,1.0,88,0.00,,BKN050,0.00,VWS V14.01,2013-03-10 08:42:00,
2013-03-10 22:43:00,41.9,38.6,30.31,NE,45,0.0,0.0,88,0.00,,BKN050,0.00,VWS V14.01,2013-03-10 08:43:00,
2013-03-10 22:44:00,41.9,38.6,30.31,NE,45,0.0,0.0,88,0.00,,BKN050,0.00,VWS V14.01,2013-03-10 08:44:00,
2013-03-10 22:45:00,42.8,39.5,30.31,NE,45,0.0,0.0,88,0.00,,SKC,0.00,VWS V14.01,2013-03-10 08:45:00,
2013-03-10 22:46:00,41.9,38.6,30.31,NE,45,0.0,0.0,88,0.00,,BKN050,0.00,VWS V14.01,2013-03-10 08:46:00,
2013-03-10 22:47:00,42.0,38.7,30.31,NE,45,0.0,0.0,88,0.00,,BKN050,0.00,VWS V14.01,2013-03-10 08:47:00,
2013-03-10 22:49:00,41.9,38.6,30.31,NE,45,0.0,0.0,88,0.00,,BKN050,0.00,VWS V14.01,2013-03-10 08:49:00,
2013-03-10 22:50:00,42.6,39.3,30.31,NE,45,0.0,0.0,88,0.00,,SKC,0.00,VWS V14.01,2013-03-10 08:50:00,
2013-03-10 22:54:00,41.7,38.4,30.31,NE,45,0.0,0.0,88,0.00,,BKN050,0.00,VWS V14.01,2013-03-10 08:54:00,
2013-03-10 22:55:00,42.5,39.2,30.31,NE,45,0.0,1.0,88,0.00,,SKC,0.00,VWS V14.01,2013-03-10 08:55:00,
2013-03-10 22:56:00,41.6,38.3,30.31,NE,45,0.0,0.0,88,0.00,,BKN050,0.00,VWS V14.01,2013-03-10 08:56:00,
2013-03-10 22:57:00,41.6,38.6,30.31,NE,45,0.0,0.0,89,0.00,,BKN050,0.00,VWS V14.01,2013-03-10 08:57:00,
2013-03-10 22:59:00,41.5,38.2,30.31,NE,45,0.0,0.0,88,0.00,,BKN050,0.00,VWS V14.01,2013-03-10 08:59:00,
2013-03-10 23:00:00,42.4,39.1,30.31,NE,45,0.0,0.0,88,0.00,,SKC,0.00,VWS V14.01,2013-03-10 09:00:00,
2013-03-10 23:05:00,42.3,39.0,30.31,NE,45,0.0,0.0,88,0.00,,SKC,0.00,VWS V14.01,2013-03-10 09:05:00,
2013-03-10 23:10:00,42.2,38.9,30.31,NE,45,1.0,1.0,88,0.00,,SKC,0.00,VWS V14.01,2013-03-10 09:10:00,
2013-03-10 23:15:00,42.1,38.8,30.31,NE,45,0.0,0.0,88,0.00,,SKC,0.00,VWS V14.01,2013-03-10 09:15:00,
2013-03-10 23:20:00,42.0,38.7,30.31,NE,45,0.0,1.0,88,0.00,,SKC,0.00,VWS V14.01,2013-03-10 09:20:00,
2013-03-10 23:25:00,42.0,39.0,30.31,NE,45,1.0,1.0,89,0.00,,SKC,0.00,VWS V14.01,2013-03-10 09:25:00,
2013-03-10 23:30:00,42.0,39.0,30.32,NE,45,0.0,0.0,89,0.00,,SKC,0.00,VWS V14.01,2013-03-10 09:30:00,
2013-03-10 23:35:00,42.1,38.8,30.31,NE,45,0.0,0.0,88,0.00,,SKC,0.00,VWS V14.01,2013-03-10 09:35:00,
2013-03-10 23:40:00,41.9,38.6,30.31,NE,45,0.0,1.0,88,0.00,,SKC,0.00,VWS V14.01,2013-03-10 09:40:00,
2013-03-10 23:45:00,41.9,38.6,30.31,NE,45,0.0,0.0,88,0.00,,SKC,0.00,VWS V14.01,2013-03-10 09:45:00,
2013-03-10 23:50:00,41.8,38.5,30.31,NE,45,0.0,0.0,88,0.00,,SKC,0.00,VWS V14.01,2013-03-10 09:50:00,
2013-03-10 23:55:00,41.6,38.3,30.31,NE,45,0.0,0.0,88,0.00,,SKC,0.00,VWS V14.01,2013-03-10 09:55:00,